<?xml version="1.0" encoding="UTF-8" standalone="no" ?>
<gpx xmlns="http://www.topografix.com/GPX/1/1" xmlns:xsi="http://www.w3.org/2001/XMLSchema-instance" xsi:schemaLocation="http://www.topografix.com/GPX/1/1 http://www.topografix.com/GPX/1/1/gpx.xsd" version="1.1" creator="VisuGPX - https://www.visugpx.com">
  <metadata>
    <name>2020-06-22 J3 Belledonne</name>
  </metadata>
  <trk>
    <name><![CDATA[2020-06-22 J3 Belledonne]]></name>
    <extensions>
      <line xmlns="http://www.topografix.com/GPX/gpx_style/0/2">
        <color>0000FF</color>
        <opacity>0.59</opacity>
        <width>6</width>
      </line>
    </extensions>
    <trkseg>
      <trkpt lat="45.37201" lon="6.1942">
        <ele>1864.26</ele>
        <time>2020-06-22T05:51:46.000Z</time>
      </trkpt>
      <trkpt lat="45.37199" lon="6.19407">
        <ele>1857.09</ele>
        <time>2020-06-22T05:56:58.000Z</time>
      </trkpt>
      <trkpt lat="45.37203" lon="6.19395">
        <ele>1855.87</ele>
        <time>2020-06-22T05:57:14.000Z</time>
      </trkpt>
      <trkpt lat="45.37205" lon="6.19382">
        <ele>1854.2</ele>
        <time>2020-06-22T05:57:26.000Z</time>
      </trkpt>
      <trkpt lat="45.37199" lon="6.19372">
        <ele>1852.77</ele>
        <time>2020-06-22T05:57:37.000Z</time>
      </trkpt>
      <trkpt lat="45.37189" lon="6.1937">
        <ele>1854.03</ele>
        <time>2020-06-22T05:57:48.000Z</time>
      </trkpt>
      <trkpt lat="45.37182" lon="6.19362">
        <ele>1853.96</ele>
        <time>2020-06-22T05:58:00.000Z</time>
      </trkpt>
      <trkpt lat="45.37174" lon="6.19355">
        <ele>1853.07</ele>
        <time>2020-06-22T05:58:08.000Z</time>
      </trkpt>
      <trkpt lat="45.37165" lon="6.19351">
        <ele>1850.25</ele>
        <time>2020-06-22T05:58:18.000Z</time>
      </trkpt>
      <trkpt lat="45.37157" lon="6.19343">
        <ele>1846.9</ele>
        <time>2020-06-22T05:58:31.000Z</time>
      </trkpt>
      <trkpt lat="45.37148" lon="6.19341">
        <ele>1844.68</ele>
        <time>2020-06-22T05:58:40.000Z</time>
      </trkpt>
      <trkpt lat="45.3714" lon="6.19334">
        <ele>1842.78</ele>
        <time>2020-06-22T05:58:51.000Z</time>
      </trkpt>
      <trkpt lat="45.37132" lon="6.19325">
        <ele>1841.36</ele>
        <time>2020-06-22T05:59:00.000Z</time>
      </trkpt>
      <trkpt lat="45.37123" lon="6.19321">
        <ele>1841.39</ele>
        <time>2020-06-22T05:59:11.000Z</time>
      </trkpt>
      <trkpt lat="45.37115" lon="6.19312">
        <ele>1840.46</ele>
        <time>2020-06-22T05:59:23.000Z</time>
      </trkpt>
      <trkpt lat="45.37109" lon="6.19302">
        <ele>1839.76</ele>
        <time>2020-06-22T05:59:43.000Z</time>
      </trkpt>
      <trkpt lat="45.37109" lon="6.19322">
        <ele>1838.86</ele>
        <time>2020-06-22T06:00:01.000Z</time>
      </trkpt>
      <trkpt lat="45.37095" lon="6.19346">
        <ele>1838.8</ele>
        <time>2020-06-22T06:00:06.000Z</time>
      </trkpt>
      <trkpt lat="45.37103" lon="6.19303">
        <ele>1839.29</ele>
        <time>2020-06-22T06:00:11.000Z</time>
      </trkpt>
      <trkpt lat="45.371" lon="6.1929">
        <ele>1838.55</ele>
        <time>2020-06-22T06:00:42.000Z</time>
      </trkpt>
      <trkpt lat="45.37091" lon="6.19288">
        <ele>1838.32</ele>
        <time>2020-06-22T06:00:47.000Z</time>
      </trkpt>
      <trkpt lat="45.37084" lon="6.19277">
        <ele>1838.81</ele>
        <time>2020-06-22T06:00:57.000Z</time>
      </trkpt>
      <trkpt lat="45.37076" lon="6.19269">
        <ele>1838.59</ele>
        <time>2020-06-22T06:01:05.000Z</time>
      </trkpt>
      <trkpt lat="45.37072" lon="6.19198">
        <ele>1843.22</ele>
        <time>2020-06-22T06:01:10.000Z</time>
      </trkpt>
      <trkpt lat="45.37071" lon="6.19234">
        <ele>1848.46</ele>
        <time>2020-06-22T06:01:15.000Z</time>
      </trkpt>
      <trkpt lat="45.37071" lon="6.19254">
        <ele>1847.62</ele>
        <time>2020-06-22T06:01:20.000Z</time>
      </trkpt>
      <trkpt lat="45.37074" lon="6.19242">
        <ele>1835.33</ele>
        <time>2020-06-22T06:02:26.000Z</time>
      </trkpt>
      <trkpt lat="45.37085" lon="6.19236">
        <ele>1829.25</ele>
        <time>2020-06-22T06:02:41.000Z</time>
      </trkpt>
      <trkpt lat="45.37092" lon="6.19224">
        <ele>1825.93</ele>
        <time>2020-06-22T06:03:03.000Z</time>
      </trkpt>
      <trkpt lat="45.37085" lon="6.19217">
        <ele>1822.32</ele>
        <time>2020-06-22T06:03:12.000Z</time>
      </trkpt>
      <trkpt lat="45.37087" lon="6.19205">
        <ele>1819.26</ele>
        <time>2020-06-22T06:03:31.000Z</time>
      </trkpt>
      <trkpt lat="45.37083" lon="6.19193">
        <ele>1815.73</ele>
        <time>2020-06-22T06:03:51.000Z</time>
      </trkpt>
      <trkpt lat="45.37078" lon="6.19179">
        <ele>1812.28</ele>
        <time>2020-06-22T06:04:09.000Z</time>
      </trkpt>
      <trkpt lat="45.37084" lon="6.19167">
        <ele>1808.61</ele>
        <time>2020-06-22T06:04:40.000Z</time>
      </trkpt>
      <trkpt lat="45.37077" lon="6.19159">
        <ele>1805.57</ele>
        <time>2020-06-22T06:05:00.000Z</time>
      </trkpt>
      <trkpt lat="45.37068" lon="6.19155">
        <ele>1804.38</ele>
        <time>2020-06-22T06:05:14.000Z</time>
      </trkpt>
      <trkpt lat="45.37072" lon="6.19141">
        <ele>1800.23</ele>
        <time>2020-06-22T06:05:41.000Z</time>
      </trkpt>
      <trkpt lat="45.37078" lon="6.19128">
        <ele>1795.91</ele>
        <time>2020-06-22T06:06:00.000Z</time>
      </trkpt>
      <trkpt lat="45.37084" lon="6.19112">
        <ele>1786.83</ele>
        <time>2020-06-22T06:06:23.000Z</time>
      </trkpt>
      <trkpt lat="45.37076" lon="6.19105">
        <ele>1783.7</ele>
        <time>2020-06-22T06:06:42.000Z</time>
      </trkpt>
      <trkpt lat="45.37083" lon="6.19113">
        <ele>1783.63</ele>
        <time>2020-06-22T06:06:47.000Z</time>
      </trkpt>
      <trkpt lat="45.3709" lon="6.19137">
        <ele>1783</ele>
        <time>2020-06-22T06:06:52.000Z</time>
      </trkpt>
      <trkpt lat="45.3709" lon="6.191">
        <ele>1783.15</ele>
        <time>2020-06-22T06:06:57.000Z</time>
      </trkpt>
      <trkpt lat="45.37099" lon="6.19106">
        <ele>1780.33</ele>
        <time>2020-06-22T06:07:24.000Z</time>
      </trkpt>
      <trkpt lat="45.37106" lon="6.19097">
        <ele>1777.56</ele>
        <time>2020-06-22T06:07:42.000Z</time>
      </trkpt>
      <trkpt lat="45.37114" lon="6.19088">
        <ele>1773.98</ele>
        <time>2020-06-22T06:08:05.000Z</time>
      </trkpt>
      <trkpt lat="45.37127" lon="6.19103">
        <ele>1770.69</ele>
        <time>2020-06-22T06:08:34.000Z</time>
      </trkpt>
      <trkpt lat="45.37133" lon="6.19113">
        <ele>1768.12</ele>
        <time>2020-06-22T06:08:41.000Z</time>
      </trkpt>
      <trkpt lat="45.37147" lon="6.19128">
        <ele>1763.29</ele>
        <time>2020-06-22T06:09:05.000Z</time>
      </trkpt>
      <trkpt lat="45.37158" lon="6.19128">
        <ele>1761.34</ele>
        <time>2020-06-22T06:09:28.000Z</time>
      </trkpt>
      <trkpt lat="45.37168" lon="6.19127">
        <ele>1760.74</ele>
        <time>2020-06-22T06:09:45.000Z</time>
      </trkpt>
      <trkpt lat="45.37179" lon="6.19124">
        <ele>1759.79</ele>
        <time>2020-06-22T06:10:09.000Z</time>
      </trkpt>
      <trkpt lat="45.37189" lon="6.19117">
        <ele>1757.14</ele>
        <time>2020-06-22T06:10:33.000Z</time>
      </trkpt>
      <trkpt lat="45.37197" lon="6.19109">
        <ele>1751.29</ele>
        <time>2020-06-22T06:10:56.000Z</time>
      </trkpt>
      <trkpt lat="45.37201" lon="6.19097">
        <ele>1740.41</ele>
        <time>2020-06-22T06:11:25.000Z</time>
      </trkpt>
      <trkpt lat="45.37206" lon="6.19085">
        <ele>1730.56</ele>
        <time>2020-06-22T06:11:53.000Z</time>
      </trkpt>
      <trkpt lat="45.37199" lon="6.19066">
        <ele>1721.34</ele>
        <time>2020-06-22T06:12:09.000Z</time>
      </trkpt>
      <trkpt lat="45.37207" lon="6.19055">
        <ele>1716.64</ele>
        <time>2020-06-22T06:12:21.000Z</time>
      </trkpt>
      <trkpt lat="45.37211" lon="6.19044">
        <ele>1711.48</ele>
        <time>2020-06-22T06:12:33.000Z</time>
      </trkpt>
      <trkpt lat="45.3722" lon="6.1904">
        <ele>1707.64</ele>
        <time>2020-06-22T06:12:48.000Z</time>
      </trkpt>
      <trkpt lat="45.37234" lon="6.19032">
        <ele>1701.97</ele>
        <time>2020-06-22T06:13:07.000Z</time>
      </trkpt>
      <trkpt lat="45.37245" lon="6.19029">
        <ele>1698.29</ele>
        <time>2020-06-22T06:13:20.000Z</time>
      </trkpt>
      <trkpt lat="45.37253" lon="6.19021">
        <ele>1694.74</ele>
        <time>2020-06-22T06:13:39.000Z</time>
      </trkpt>
      <trkpt lat="45.37261" lon="6.1901">
        <ele>1692.44</ele>
        <time>2020-06-22T06:13:56.000Z</time>
      </trkpt>
      <trkpt lat="45.37268" lon="6.18999">
        <ele>1691.19</ele>
        <time>2020-06-22T06:14:12.000Z</time>
      </trkpt>
      <trkpt lat="45.37272" lon="6.18988">
        <ele>1689.88</ele>
        <time>2020-06-22T06:14:25.000Z</time>
      </trkpt>
      <trkpt lat="45.37273" lon="6.18973">
        <ele>1688.8</ele>
        <time>2020-06-22T06:14:48.000Z</time>
      </trkpt>
      <trkpt lat="45.3727" lon="6.1896">
        <ele>1687.68</ele>
        <time>2020-06-22T06:14:56.000Z</time>
      </trkpt>
      <trkpt lat="45.37269" lon="6.18946">
        <ele>1686.57</ele>
        <time>2020-06-22T06:15:16.000Z</time>
      </trkpt>
      <trkpt lat="45.37271" lon="6.18933">
        <ele>1684.3</ele>
        <time>2020-06-22T06:15:43.000Z</time>
      </trkpt>
      <trkpt lat="45.37281" lon="6.18933">
        <ele>1681</ele>
        <time>2020-06-22T06:16:03.000Z</time>
      </trkpt>
      <trkpt lat="45.37292" lon="6.18937">
        <ele>1677.05</ele>
        <time>2020-06-22T06:16:22.000Z</time>
      </trkpt>
      <trkpt lat="45.37296" lon="6.18924">
        <ele>1672.47</ele>
        <time>2020-06-22T06:16:44.000Z</time>
      </trkpt>
      <trkpt lat="45.37303" lon="6.18912">
        <ele>1669.47</ele>
        <time>2020-06-22T06:17:02.000Z</time>
      </trkpt>
      <trkpt lat="45.37314" lon="6.18909">
        <ele>1666.9</ele>
        <time>2020-06-22T06:17:22.000Z</time>
      </trkpt>
      <trkpt lat="45.37326" lon="6.18913">
        <ele>1664.45</ele>
        <time>2020-06-22T06:17:38.000Z</time>
      </trkpt>
      <trkpt lat="45.37336" lon="6.18922">
        <ele>1662.58</ele>
        <time>2020-06-22T06:17:49.000Z</time>
      </trkpt>
      <trkpt lat="45.37341" lon="6.18939">
        <ele>1660.15</ele>
        <time>2020-06-22T06:18:17.000Z</time>
      </trkpt>
      <trkpt lat="45.37342" lon="6.18957">
        <ele>1658.32</ele>
        <time>2020-06-22T06:18:34.000Z</time>
      </trkpt>
      <trkpt lat="45.37349" lon="6.1897">
        <ele>1656.42</ele>
        <time>2020-06-22T06:18:47.000Z</time>
      </trkpt>
      <trkpt lat="45.37356" lon="6.18984">
        <ele>1653.22</ele>
        <time>2020-06-22T06:19:07.000Z</time>
      </trkpt>
      <trkpt lat="45.37365" lon="6.18991">
        <ele>1650.22</ele>
        <time>2020-06-22T06:19:30.000Z</time>
      </trkpt>
      <trkpt lat="45.37376" lon="6.18995">
        <ele>1647.67</ele>
        <time>2020-06-22T06:19:45.000Z</time>
      </trkpt>
      <trkpt lat="45.37386" lon="6.19">
        <ele>1644.98</ele>
        <time>2020-06-22T06:20:00.000Z</time>
      </trkpt>
      <trkpt lat="45.37395" lon="6.18993">
        <ele>1641.93</ele>
        <time>2020-06-22T06:20:14.000Z</time>
      </trkpt>
      <trkpt lat="45.37406" lon="6.1899">
        <ele>1637.3</ele>
        <time>2020-06-22T06:20:35.000Z</time>
      </trkpt>
      <trkpt lat="45.37412" lon="6.19">
        <ele>1630.27</ele>
        <time>2020-06-22T06:21:04.000Z</time>
      </trkpt>
      <trkpt lat="45.37428" lon="6.19019">
        <ele>1624.98</ele>
        <time>2020-06-22T06:21:55.000Z</time>
      </trkpt>
      <trkpt lat="45.37417" lon="6.19013">
        <ele>1624.1</ele>
        <time>2020-06-22T06:22:00.000Z</time>
      </trkpt>
      <trkpt lat="45.37424" lon="6.19004">
        <ele>1617.08</ele>
        <time>2020-06-22T06:22:24.000Z</time>
      </trkpt>
      <trkpt lat="45.37433" lon="6.18995">
        <ele>1611.13</ele>
        <time>2020-06-22T06:22:40.000Z</time>
      </trkpt>
      <trkpt lat="45.37439" lon="6.18983">
        <ele>1605.55</ele>
        <time>2020-06-22T06:22:53.000Z</time>
      </trkpt>
      <trkpt lat="45.37447" lon="6.18972">
        <ele>1604.9</ele>
        <time>2020-06-22T06:23:25.000Z</time>
      </trkpt>
      <trkpt lat="45.37455" lon="6.18961">
        <ele>1604.45</ele>
        <time>2020-06-22T06:23:40.000Z</time>
      </trkpt>
      <trkpt lat="45.37462" lon="6.18949">
        <ele>1603.06</ele>
        <time>2020-06-22T06:23:59.000Z</time>
      </trkpt>
      <trkpt lat="45.3747" lon="6.18936">
        <ele>1598.83</ele>
        <time>2020-06-22T06:24:14.000Z</time>
      </trkpt>
      <trkpt lat="45.37478" lon="6.18923">
        <ele>1592.58</ele>
        <time>2020-06-22T06:24:30.000Z</time>
      </trkpt>
      <trkpt lat="45.37488" lon="6.18943">
        <ele>1582.38</ele>
        <time>2020-06-22T06:25:03.000Z</time>
      </trkpt>
      <trkpt lat="45.37497" lon="6.18946">
        <ele>1581.16</ele>
        <time>2020-06-22T06:25:40.000Z</time>
      </trkpt>
      <trkpt lat="45.37509" lon="6.18958">
        <ele>1578.46</ele>
        <time>2020-06-22T06:26:18.000Z</time>
      </trkpt>
      <trkpt lat="45.37518" lon="6.18951">
        <ele>1577.31</ele>
        <time>2020-06-22T06:26:33.000Z</time>
      </trkpt>
      <trkpt lat="45.37528" lon="6.1895">
        <ele>1573.57</ele>
        <time>2020-06-22T06:26:41.000Z</time>
      </trkpt>
      <trkpt lat="45.37534" lon="6.1896">
        <ele>1573.33</ele>
        <time>2020-06-22T06:26:57.000Z</time>
      </trkpt>
      <trkpt lat="45.37543" lon="6.18969">
        <ele>1573.06</ele>
        <time>2020-06-22T06:27:12.000Z</time>
      </trkpt>
      <trkpt lat="45.37553" lon="6.18973">
        <ele>1570.29</ele>
        <time>2020-06-22T06:27:21.000Z</time>
      </trkpt>
      <trkpt lat="45.37565" lon="6.18975">
        <ele>1569.13</ele>
        <time>2020-06-22T06:27:43.000Z</time>
      </trkpt>
      <trkpt lat="45.37583" lon="6.1897">
        <ele>1566.19</ele>
        <time>2020-06-22T06:28:03.000Z</time>
      </trkpt>
      <trkpt lat="45.37591" lon="6.1896">
        <ele>1563.94</ele>
        <time>2020-06-22T06:28:20.000Z</time>
      </trkpt>
      <trkpt lat="45.37594" lon="6.18945">
        <ele>1561.19</ele>
        <time>2020-06-22T06:28:38.000Z</time>
      </trkpt>
      <trkpt lat="45.37603" lon="6.18935">
        <ele>1557.51</ele>
        <time>2020-06-22T06:28:57.000Z</time>
      </trkpt>
      <trkpt lat="45.37612" lon="6.18926">
        <ele>1552.54</ele>
        <time>2020-06-22T06:29:20.000Z</time>
      </trkpt>
      <trkpt lat="45.3762" lon="6.18916">
        <ele>1547.56</ele>
        <time>2020-06-22T06:29:40.000Z</time>
      </trkpt>
      <trkpt lat="45.37628" lon="6.18907">
        <ele>1543.19</ele>
        <time>2020-06-22T06:29:59.000Z</time>
      </trkpt>
      <trkpt lat="45.37639" lon="6.18905">
        <ele>1538.09</ele>
        <time>2020-06-22T06:30:20.000Z</time>
      </trkpt>
      <trkpt lat="45.37649" lon="6.1891">
        <ele>1532.54</ele>
        <time>2020-06-22T06:30:38.000Z</time>
      </trkpt>
      <trkpt lat="45.37661" lon="6.18905">
        <ele>1524.82</ele>
        <time>2020-06-22T06:31:01.000Z</time>
      </trkpt>
      <trkpt lat="45.37671" lon="6.18902">
        <ele>1518.17</ele>
        <time>2020-06-22T06:31:17.000Z</time>
      </trkpt>
      <trkpt lat="45.37679" lon="6.18894">
        <ele>1512.72</ele>
        <time>2020-06-22T06:31:33.000Z</time>
      </trkpt>
      <trkpt lat="45.37685" lon="6.1888">
        <ele>1508.29</ele>
        <time>2020-06-22T06:31:49.000Z</time>
      </trkpt>
      <trkpt lat="45.37688" lon="6.18866">
        <ele>1503.37</ele>
        <time>2020-06-22T06:32:05.000Z</time>
      </trkpt>
      <trkpt lat="45.37696" lon="6.18852">
        <ele>1497.87</ele>
        <time>2020-06-22T06:32:31.000Z</time>
      </trkpt>
      <trkpt lat="45.377" lon="6.18838">
        <ele>1494.34</ele>
        <time>2020-06-22T06:32:47.000Z</time>
      </trkpt>
      <trkpt lat="45.37709" lon="6.18829">
        <ele>1492.07</ele>
        <time>2020-06-22T06:33:08.000Z</time>
      </trkpt>
      <trkpt lat="45.3772" lon="6.18829">
        <ele>1489.77</ele>
        <time>2020-06-22T06:33:27.000Z</time>
      </trkpt>
      <trkpt lat="45.37727" lon="6.18822">
        <ele>1486.8</ele>
        <time>2020-06-22T06:33:50.000Z</time>
      </trkpt>
      <trkpt lat="45.37733" lon="6.18808">
        <ele>1484.75</ele>
        <time>2020-06-22T06:34:04.000Z</time>
      </trkpt>
      <trkpt lat="45.37741" lon="6.18796">
        <ele>1481.77</ele>
        <time>2020-06-22T06:34:26.000Z</time>
      </trkpt>
      <trkpt lat="45.3775" lon="6.18789">
        <ele>1479.52</ele>
        <time>2020-06-22T06:34:40.000Z</time>
      </trkpt>
      <trkpt lat="45.37762" lon="6.18784">
        <ele>1477.2</ele>
        <time>2020-06-22T06:35:03.000Z</time>
      </trkpt>
      <trkpt lat="45.37771" lon="6.18775">
        <ele>1476.27</ele>
        <time>2020-06-22T06:35:21.000Z</time>
      </trkpt>
      <trkpt lat="45.3778" lon="6.18764">
        <ele>1474.23</ele>
        <time>2020-06-22T06:35:37.000Z</time>
      </trkpt>
      <trkpt lat="45.37785" lon="6.1875">
        <ele>1470.38</ele>
        <time>2020-06-22T06:35:53.000Z</time>
      </trkpt>
      <trkpt lat="45.37792" lon="6.18738">
        <ele>1465.85</ele>
        <time>2020-06-22T06:36:17.000Z</time>
      </trkpt>
      <trkpt lat="45.378" lon="6.18726">
        <ele>1464.18</ele>
        <time>2020-06-22T06:36:31.000Z</time>
      </trkpt>
      <trkpt lat="45.37805" lon="6.18712">
        <ele>1462.78</ele>
        <time>2020-06-22T06:36:45.000Z</time>
      </trkpt>
      <trkpt lat="45.37806" lon="6.18697">
        <ele>1460.8</ele>
        <time>2020-06-22T06:37:03.000Z</time>
      </trkpt>
      <trkpt lat="45.37812" lon="6.18683">
        <ele>1457.78</ele>
        <time>2020-06-22T06:37:25.000Z</time>
      </trkpt>
      <trkpt lat="45.37816" lon="6.18667">
        <ele>1454.35</ele>
        <time>2020-06-22T06:37:37.000Z</time>
      </trkpt>
      <trkpt lat="45.37826" lon="6.1866">
        <ele>1450.18</ele>
        <time>2020-06-22T06:37:52.000Z</time>
      </trkpt>
      <trkpt lat="45.37835" lon="6.18651">
        <ele>1444.93</ele>
        <time>2020-06-22T06:38:09.000Z</time>
      </trkpt>
      <trkpt lat="45.37845" lon="6.18645">
        <ele>1439.56</ele>
        <time>2020-06-22T06:38:26.000Z</time>
      </trkpt>
      <trkpt lat="45.37853" lon="6.18636">
        <ele>1435.61</ele>
        <time>2020-06-22T06:38:42.000Z</time>
      </trkpt>
      <trkpt lat="45.3786" lon="6.18622">
        <ele>1432.56</ele>
        <time>2020-06-22T06:38:58.000Z</time>
      </trkpt>
      <trkpt lat="45.37863" lon="6.18607">
        <ele>1428.98</ele>
        <time>2020-06-22T06:39:15.000Z</time>
      </trkpt>
      <trkpt lat="45.3787" lon="6.18595">
        <ele>1425.73</ele>
        <time>2020-06-22T06:39:34.000Z</time>
      </trkpt>
      <trkpt lat="45.37884" lon="6.18586">
        <ele>1424.49</ele>
        <time>2020-06-22T06:39:54.000Z</time>
      </trkpt>
      <trkpt lat="45.37896" lon="6.18585">
        <ele>1423.54</ele>
        <time>2020-06-22T06:40:05.000Z</time>
      </trkpt>
      <trkpt lat="45.37904" lon="6.18578">
        <ele>1422.03</ele>
        <time>2020-06-22T06:40:13.000Z</time>
      </trkpt>
      <trkpt lat="45.37914" lon="6.18579">
        <ele>1420.68</ele>
        <time>2020-06-22T06:40:20.000Z</time>
      </trkpt>
      <trkpt lat="45.37924" lon="6.18579">
        <ele>1417.92</ele>
        <time>2020-06-22T06:40:30.000Z</time>
      </trkpt>
      <trkpt lat="45.37933" lon="6.1858">
        <ele>1414.08</ele>
        <time>2020-06-22T06:40:37.000Z</time>
      </trkpt>
      <trkpt lat="45.3795" lon="6.18571">
        <ele>1408.89</ele>
        <time>2020-06-22T06:40:55.000Z</time>
      </trkpt>
      <trkpt lat="45.37959" lon="6.18559">
        <ele>1406.19</ele>
        <time>2020-06-22T06:41:08.000Z</time>
      </trkpt>
      <trkpt lat="45.37967" lon="6.1855">
        <ele>1401.41</ele>
        <time>2020-06-22T06:41:30.000Z</time>
      </trkpt>
      <trkpt lat="45.37968" lon="6.18534">
        <ele>1393.62</ele>
        <time>2020-06-22T06:42:09.000Z</time>
      </trkpt>
      <trkpt lat="45.37959" lon="6.18525">
        <ele>1391.72</ele>
        <time>2020-06-22T06:42:46.000Z</time>
      </trkpt>
      <trkpt lat="45.37946" lon="6.18513">
        <ele>1388.72</ele>
        <time>2020-06-22T06:43:04.000Z</time>
      </trkpt>
      <trkpt lat="45.37936" lon="6.1851">
        <ele>1385.53</ele>
        <time>2020-06-22T06:43:15.000Z</time>
      </trkpt>
      <trkpt lat="45.37929" lon="6.18488">
        <ele>1376.59</ele>
        <time>2020-06-22T06:43:59.000Z</time>
      </trkpt>
      <trkpt lat="45.37919" lon="6.18469">
        <ele>1373.64</ele>
        <time>2020-06-22T06:44:20.000Z</time>
      </trkpt>
      <trkpt lat="45.3791" lon="6.18474">
        <ele>1368.65</ele>
        <time>2020-06-22T06:44:36.000Z</time>
      </trkpt>
      <trkpt lat="45.37907" lon="6.18488">
        <ele>1369.6</ele>
        <time>2020-06-22T06:45:19.000Z</time>
      </trkpt>
      <trkpt lat="45.37902" lon="6.18476">
        <ele>1369.29</ele>
        <time>2020-06-22T06:45:37.000Z</time>
      </trkpt>
      <trkpt lat="45.37893" lon="6.18464">
        <ele>1370.04</ele>
        <time>2020-06-22T06:45:55.000Z</time>
      </trkpt>
      <trkpt lat="45.37896" lon="6.18448">
        <ele>1370.89</ele>
        <time>2020-06-22T06:46:10.000Z</time>
      </trkpt>
      <trkpt lat="45.37892" lon="6.18437">
        <ele>1371.76</ele>
        <time>2020-06-22T06:46:21.000Z</time>
      </trkpt>
      <trkpt lat="45.37881" lon="6.18437">
        <ele>1371.49</ele>
        <time>2020-06-22T06:46:38.000Z</time>
      </trkpt>
      <trkpt lat="45.37868" lon="6.18431">
        <ele>1374.24</ele>
        <time>2020-06-22T06:46:55.000Z</time>
      </trkpt>
      <trkpt lat="45.3786" lon="6.18423">
        <ele>1376.3</ele>
        <time>2020-06-22T06:47:01.000Z</time>
      </trkpt>
      <trkpt lat="45.37852" lon="6.18438">
        <ele>1381.54</ele>
        <time>2020-06-22T06:47:20.000Z</time>
      </trkpt>
      <trkpt lat="45.37841" lon="6.18436">
        <ele>1386.41</ele>
        <time>2020-06-22T06:47:39.000Z</time>
      </trkpt>
      <trkpt lat="45.37831" lon="6.18439">
        <ele>1391.44</ele>
        <time>2020-06-22T06:48:00.000Z</time>
      </trkpt>
      <trkpt lat="45.37818" lon="6.18435">
        <ele>1394.51</ele>
        <time>2020-06-22T06:48:14.000Z</time>
      </trkpt>
      <trkpt lat="45.37807" lon="6.18437">
        <ele>1397.59</ele>
        <time>2020-06-22T06:48:32.000Z</time>
      </trkpt>
      <trkpt lat="45.37795" lon="6.18435">
        <ele>1399.46</ele>
        <time>2020-06-22T06:48:49.000Z</time>
      </trkpt>
      <trkpt lat="45.37781" lon="6.1843">
        <ele>1397.06</ele>
        <time>2020-06-22T06:49:12.000Z</time>
      </trkpt>
      <trkpt lat="45.37772" lon="6.18424">
        <ele>1396.33</ele>
        <time>2020-06-22T06:49:37.000Z</time>
      </trkpt>
      <trkpt lat="45.37762" lon="6.18427">
        <ele>1396.51</ele>
        <time>2020-06-22T06:49:52.000Z</time>
      </trkpt>
      <trkpt lat="45.37751" lon="6.18429">
        <ele>1397.46</ele>
        <time>2020-06-22T06:50:11.000Z</time>
      </trkpt>
      <trkpt lat="45.37754" lon="6.18442">
        <ele>1398.43</ele>
        <time>2020-06-22T06:50:29.000Z</time>
      </trkpt>
      <trkpt lat="45.37746" lon="6.18454">
        <ele>1398.56</ele>
        <time>2020-06-22T06:50:45.000Z</time>
      </trkpt>
      <trkpt lat="45.37735" lon="6.18451">
        <ele>1399.38</ele>
        <time>2020-06-22T06:50:59.000Z</time>
      </trkpt>
      <trkpt lat="45.37727" lon="6.1844">
        <ele>1401.58</ele>
        <time>2020-06-22T06:51:29.000Z</time>
      </trkpt>
      <trkpt lat="45.37717" lon="6.18434">
        <ele>1406.31</ele>
        <time>2020-06-22T06:51:54.000Z</time>
      </trkpt>
      <trkpt lat="45.37715" lon="6.18418">
        <ele>1411.11</ele>
        <time>2020-06-22T06:52:12.000Z</time>
      </trkpt>
      <trkpt lat="45.37718" lon="6.18404">
        <ele>1414.23</ele>
        <time>2020-06-22T06:52:27.000Z</time>
      </trkpt>
      <trkpt lat="45.37724" lon="6.1839">
        <ele>1417.06</ele>
        <time>2020-06-22T06:52:43.000Z</time>
      </trkpt>
      <trkpt lat="45.37726" lon="6.18374">
        <ele>1419.76</ele>
        <time>2020-06-22T06:52:59.000Z</time>
      </trkpt>
      <trkpt lat="45.37723" lon="6.1836">
        <ele>1420.86</ele>
        <time>2020-06-22T06:53:31.000Z</time>
      </trkpt>
      <trkpt lat="45.37715" lon="6.18348">
        <ele>1421.08</ele>
        <time>2020-06-22T06:53:56.000Z</time>
      </trkpt>
      <trkpt lat="45.37706" lon="6.18344">
        <ele>1420.08</ele>
        <time>2020-06-22T06:54:16.000Z</time>
      </trkpt>
      <trkpt lat="45.37691" lon="6.18335">
        <ele>1420.03</ele>
        <time>2020-06-22T06:54:41.000Z</time>
      </trkpt>
      <trkpt lat="45.37688" lon="6.18322">
        <ele>1420.96</ele>
        <time>2020-06-22T06:58:13.000Z</time>
      </trkpt>
      <trkpt lat="45.37683" lon="6.18307">
        <ele>1424.16</ele>
        <time>2020-06-22T06:58:34.000Z</time>
      </trkpt>
      <trkpt lat="45.37692" lon="6.18298">
        <ele>1427.83</ele>
        <time>2020-06-22T06:58:52.000Z</time>
      </trkpt>
      <trkpt lat="45.377" lon="6.18287">
        <ele>1430.93</ele>
        <time>2020-06-22T06:59:14.000Z</time>
      </trkpt>
      <trkpt lat="45.377" lon="6.1827">
        <ele>1431.69</ele>
        <time>2020-06-22T06:59:29.000Z</time>
      </trkpt>
      <trkpt lat="45.37698" lon="6.18253">
        <ele>1433.16</ele>
        <time>2020-06-22T06:59:43.000Z</time>
      </trkpt>
      <trkpt lat="45.37695" lon="6.18241">
        <ele>1435.44</ele>
        <time>2020-06-22T06:59:51.000Z</time>
      </trkpt>
      <trkpt lat="45.37693" lon="6.18218">
        <ele>1440.11</ele>
        <time>2020-06-22T07:00:12.000Z</time>
      </trkpt>
      <trkpt lat="45.37693" lon="6.18203">
        <ele>1442.46</ele>
        <time>2020-06-22T07:00:27.000Z</time>
      </trkpt>
      <trkpt lat="45.37691" lon="6.18187">
        <ele>1444.49</ele>
        <time>2020-06-22T07:00:41.000Z</time>
      </trkpt>
      <trkpt lat="45.37696" lon="6.18171">
        <ele>1446.64</ele>
        <time>2020-06-22T07:00:56.000Z</time>
      </trkpt>
      <trkpt lat="45.37701" lon="6.18156">
        <ele>1449.04</ele>
        <time>2020-06-22T07:01:11.000Z</time>
      </trkpt>
      <trkpt lat="45.37703" lon="6.1814">
        <ele>1450.69</ele>
        <time>2020-06-22T07:01:28.000Z</time>
      </trkpt>
      <trkpt lat="45.37711" lon="6.18129">
        <ele>1453.34</ele>
        <time>2020-06-22T07:01:44.000Z</time>
      </trkpt>
      <trkpt lat="45.37719" lon="6.18119">
        <ele>1456.94</ele>
        <time>2020-06-22T07:02:02.000Z</time>
      </trkpt>
      <trkpt lat="45.37726" lon="6.18106">
        <ele>1459.22</ele>
        <time>2020-06-22T07:02:15.000Z</time>
      </trkpt>
      <trkpt lat="45.37729" lon="6.18092">
        <ele>1461.59</ele>
        <time>2020-06-22T07:02:32.000Z</time>
      </trkpt>
      <trkpt lat="45.37739" lon="6.1808">
        <ele>1474.02</ele>
        <time>2020-06-22T07:03:03.000Z</time>
      </trkpt>
      <trkpt lat="45.37752" lon="6.18079">
        <ele>1482.82</ele>
        <time>2020-06-22T07:03:18.000Z</time>
      </trkpt>
      <trkpt lat="45.37763" lon="6.18071">
        <ele>1488.17</ele>
        <time>2020-06-22T07:03:31.000Z</time>
      </trkpt>
      <trkpt lat="45.3777" lon="6.18058">
        <ele>1489.97</ele>
        <time>2020-06-22T07:03:46.000Z</time>
      </trkpt>
      <trkpt lat="45.37765" lon="6.18046">
        <ele>1491.24</ele>
        <time>2020-06-22T07:04:08.000Z</time>
      </trkpt>
      <trkpt lat="45.37765" lon="6.1803">
        <ele>1492.02</ele>
        <time>2020-06-22T07:04:26.000Z</time>
      </trkpt>
      <trkpt lat="45.37769" lon="6.18018">
        <ele>1493.42</ele>
        <time>2020-06-22T07:04:47.000Z</time>
      </trkpt>
      <trkpt lat="45.37776" lon="6.18008">
        <ele>1498.45</ele>
        <time>2020-06-22T07:05:16.000Z</time>
      </trkpt>
      <trkpt lat="45.37776" lon="6.17991">
        <ele>1502.75</ele>
        <time>2020-06-22T07:05:42.000Z</time>
      </trkpt>
      <trkpt lat="45.37778" lon="6.17976">
        <ele>1511.5</ele>
        <time>2020-06-22T07:06:17.000Z</time>
      </trkpt>
      <trkpt lat="45.37787" lon="6.17974">
        <ele>1520.72</ele>
        <time>2020-06-22T07:06:52.000Z</time>
      </trkpt>
      <trkpt lat="45.37796" lon="6.17967">
        <ele>1525.3</ele>
        <time>2020-06-22T07:07:21.000Z</time>
      </trkpt>
      <trkpt lat="45.37797" lon="6.17952">
        <ele>1529.9</ele>
        <time>2020-06-22T07:07:59.000Z</time>
      </trkpt>
      <trkpt lat="45.378" lon="6.17937">
        <ele>1532.35</ele>
        <time>2020-06-22T07:08:25.000Z</time>
      </trkpt>
      <trkpt lat="45.378" lon="6.17924">
        <ele>1534.9</ele>
        <time>2020-06-22T07:08:56.000Z</time>
      </trkpt>
      <trkpt lat="45.37803" lon="6.1791">
        <ele>1538.32</ele>
        <time>2020-06-22T07:09:53.000Z</time>
      </trkpt>
      <trkpt lat="45.37805" lon="6.17895">
        <ele>1541.3</ele>
        <time>2020-06-22T07:10:22.000Z</time>
      </trkpt>
      <trkpt lat="45.37813" lon="6.17886">
        <ele>1545.48</ele>
        <time>2020-06-22T07:10:49.000Z</time>
      </trkpt>
      <trkpt lat="45.37823" lon="6.17886">
        <ele>1548.68</ele>
        <time>2020-06-22T07:11:23.000Z</time>
      </trkpt>
      <trkpt lat="45.37824" lon="6.17873">
        <ele>1550.98</ele>
        <time>2020-06-22T07:11:48.000Z</time>
      </trkpt>
      <trkpt lat="45.37824" lon="6.17859">
        <ele>1552.93</ele>
        <time>2020-06-22T07:12:07.000Z</time>
      </trkpt>
      <trkpt lat="45.37818" lon="6.17846">
        <ele>1556.13</ele>
        <time>2020-06-22T07:12:29.000Z</time>
      </trkpt>
      <trkpt lat="45.37814" lon="6.17831">
        <ele>1562.35</ele>
        <time>2020-06-22T07:13:26.000Z</time>
      </trkpt>
      <trkpt lat="45.37808" lon="6.17819">
        <ele>1567.43</ele>
        <time>2020-06-22T07:13:48.000Z</time>
      </trkpt>
      <trkpt lat="45.37805" lon="6.17806">
        <ele>1569.95</ele>
        <time>2020-06-22T07:14:06.000Z</time>
      </trkpt>
      <trkpt lat="45.37803" lon="6.17788">
        <ele>1572.25</ele>
        <time>2020-06-22T07:14:22.000Z</time>
      </trkpt>
      <trkpt lat="45.378" lon="6.17773">
        <ele>1574.15</ele>
        <time>2020-06-22T07:14:35.000Z</time>
      </trkpt>
      <trkpt lat="45.37799" lon="6.17756">
        <ele>1576.73</ele>
        <time>2020-06-22T07:14:49.000Z</time>
      </trkpt>
      <trkpt lat="45.37796" lon="6.1774">
        <ele>1579.7</ele>
        <time>2020-06-22T07:15:02.000Z</time>
      </trkpt>
      <trkpt lat="45.37793" lon="6.17725">
        <ele>1583.23</ele>
        <time>2020-06-22T07:15:36.000Z</time>
      </trkpt>
      <trkpt lat="45.37782" lon="6.17721">
        <ele>1584.45</ele>
        <time>2020-06-22T07:15:57.000Z</time>
      </trkpt>
      <trkpt lat="45.37781" lon="6.17706">
        <ele>1586</ele>
        <time>2020-06-22T07:16:18.000Z</time>
      </trkpt>
      <trkpt lat="45.3778" lon="6.17691">
        <ele>1588.2</ele>
        <time>2020-06-22T07:16:43.000Z</time>
      </trkpt>
      <trkpt lat="45.3778" lon="6.17675">
        <ele>1589.61</ele>
        <time>2020-06-22T07:17:00.000Z</time>
      </trkpt>
      <trkpt lat="45.37778" lon="6.17658">
        <ele>1590.83</ele>
        <time>2020-06-22T07:17:17.000Z</time>
      </trkpt>
      <trkpt lat="45.37776" lon="6.17641">
        <ele>1592.56</ele>
        <time>2020-06-22T07:17:32.000Z</time>
      </trkpt>
      <trkpt lat="45.3778" lon="6.17624">
        <ele>1594.01</ele>
        <time>2020-06-22T07:17:47.000Z</time>
      </trkpt>
      <trkpt lat="45.37784" lon="6.17607">
        <ele>1595.41</ele>
        <time>2020-06-22T07:18:00.000Z</time>
      </trkpt>
      <trkpt lat="45.37781" lon="6.1759">
        <ele>1596.56</ele>
        <time>2020-06-22T07:18:15.000Z</time>
      </trkpt>
      <trkpt lat="45.37781" lon="6.17573">
        <ele>1597.26</ele>
        <time>2020-06-22T07:18:26.000Z</time>
      </trkpt>
      <trkpt lat="45.37778" lon="6.17558">
        <ele>1597.81</ele>
        <time>2020-06-22T07:18:39.000Z</time>
      </trkpt>
      <trkpt lat="45.37774" lon="6.17541">
        <ele>1598.68</ele>
        <time>2020-06-22T07:19:02.000Z</time>
      </trkpt>
      <trkpt lat="45.37784" lon="6.17533">
        <ele>1599.26</ele>
        <time>2020-06-22T07:19:19.000Z</time>
      </trkpt>
      <trkpt lat="45.37795" lon="6.17528">
        <ele>1600.21</ele>
        <time>2020-06-22T07:19:36.000Z</time>
      </trkpt>
      <trkpt lat="45.37791" lon="6.17512">
        <ele>1600.81</ele>
        <time>2020-06-22T07:19:48.000Z</time>
      </trkpt>
      <trkpt lat="45.37789" lon="6.17526">
        <ele>1600.66</ele>
        <time>2020-06-22T07:19:56.000Z</time>
      </trkpt>
      <trkpt lat="45.37778" lon="6.17526">
        <ele>1599.31</ele>
        <time>2020-06-22T07:20:01.000Z</time>
      </trkpt>
      <trkpt lat="45.37777" lon="6.17497">
        <ele>1598.4</ele>
        <time>2020-06-22T07:20:06.000Z</time>
      </trkpt>
      <trkpt lat="45.37771" lon="6.17485">
        <ele>1598.61</ele>
        <time>2020-06-22T07:20:11.000Z</time>
      </trkpt>
      <trkpt lat="45.37768" lon="6.17469">
        <ele>1600.09</ele>
        <time>2020-06-22T07:20:28.000Z</time>
      </trkpt>
      <trkpt lat="45.37765" lon="6.17456">
        <ele>1601.66</ele>
        <time>2020-06-22T07:20:33.000Z</time>
      </trkpt>
      <trkpt lat="45.37766" lon="6.17443">
        <ele>1603.62</ele>
        <time>2020-06-22T07:20:38.000Z</time>
      </trkpt>
      <trkpt lat="45.37768" lon="6.17403">
        <ele>1608.18</ele>
        <time>2020-06-22T07:20:43.000Z</time>
      </trkpt>
      <trkpt lat="45.37758" lon="6.17416">
        <ele>1615.68</ele>
        <time>2020-06-22T07:20:48.000Z</time>
      </trkpt>
      <trkpt lat="45.37744" lon="6.17418">
        <ele>1620.84</ele>
        <time>2020-06-22T07:21:11.000Z</time>
      </trkpt>
      <trkpt lat="45.37731" lon="6.17409">
        <ele>1621.96</ele>
        <time>2020-06-22T07:21:24.000Z</time>
      </trkpt>
      <trkpt lat="45.37725" lon="6.17399">
        <ele>1621.7</ele>
        <time>2020-06-22T07:21:34.000Z</time>
      </trkpt>
      <trkpt lat="45.37719" lon="6.17387">
        <ele>1621.3</ele>
        <time>2020-06-22T07:21:43.000Z</time>
      </trkpt>
      <trkpt lat="45.37709" lon="6.17383">
        <ele>1621.79</ele>
        <time>2020-06-22T07:21:57.000Z</time>
      </trkpt>
      <trkpt lat="45.37699" lon="6.17374">
        <ele>1622.33</ele>
        <time>2020-06-22T07:22:19.000Z</time>
      </trkpt>
      <trkpt lat="45.37689" lon="6.17369">
        <ele>1622.33</ele>
        <time>2020-06-22T07:22:36.000Z</time>
      </trkpt>
      <trkpt lat="45.37679" lon="6.17361">
        <ele>1621.63</ele>
        <time>2020-06-22T07:22:58.000Z</time>
      </trkpt>
      <trkpt lat="45.37672" lon="6.17348">
        <ele>1619.73</ele>
        <time>2020-06-22T07:23:13.000Z</time>
      </trkpt>
      <trkpt lat="45.37668" lon="6.17333">
        <ele>1617.73</ele>
        <time>2020-06-22T07:23:33.000Z</time>
      </trkpt>
      <trkpt lat="45.37668" lon="6.17319">
        <ele>1617.21</ele>
        <time>2020-06-22T07:23:43.000Z</time>
      </trkpt>
      <trkpt lat="45.37671" lon="6.17301">
        <ele>1617.19</ele>
        <time>2020-06-22T07:23:56.000Z</time>
      </trkpt>
      <trkpt lat="45.37673" lon="6.17284">
        <ele>1617.69</ele>
        <time>2020-06-22T07:24:12.000Z</time>
      </trkpt>
      <trkpt lat="45.37677" lon="6.1727">
        <ele>1618.84</ele>
        <time>2020-06-22T07:24:32.000Z</time>
      </trkpt>
      <trkpt lat="45.37679" lon="6.17257">
        <ele>1620.46</ele>
        <time>2020-06-22T07:24:52.000Z</time>
      </trkpt>
      <trkpt lat="45.37681" lon="6.17242">
        <ele>1621.04</ele>
        <time>2020-06-22T07:25:11.000Z</time>
      </trkpt>
      <trkpt lat="45.3769" lon="6.17232">
        <ele>1622.06</ele>
        <time>2020-06-22T07:25:32.000Z</time>
      </trkpt>
      <trkpt lat="45.37699" lon="6.17215">
        <ele>1625.61</ele>
        <time>2020-06-22T07:26:00.000Z</time>
      </trkpt>
      <trkpt lat="45.37709" lon="6.1722">
        <ele>1629.71</ele>
        <time>2020-06-22T07:26:13.000Z</time>
      </trkpt>
      <trkpt lat="45.37719" lon="6.17212">
        <ele>1634.74</ele>
        <time>2020-06-22T07:26:27.000Z</time>
      </trkpt>
      <trkpt lat="45.37728" lon="6.17203">
        <ele>1638.37</ele>
        <time>2020-06-22T07:26:47.000Z</time>
      </trkpt>
      <trkpt lat="45.37732" lon="6.17187">
        <ele>1637.92</ele>
        <time>2020-06-22T07:27:16.000Z</time>
      </trkpt>
      <trkpt lat="45.37736" lon="6.17163">
        <ele>1637.87</ele>
        <time>2020-06-22T07:27:30.000Z</time>
      </trkpt>
      <trkpt lat="45.37738" lon="6.17198">
        <ele>1638.54</ele>
        <time>2020-06-22T07:27:35.000Z</time>
      </trkpt>
      <trkpt lat="45.37739" lon="6.17176">
        <ele>1641.49</ele>
        <time>2020-06-22T07:29:43.000Z</time>
      </trkpt>
      <trkpt lat="45.37728" lon="6.17166">
        <ele>1643.67</ele>
        <time>2020-06-22T07:30:16.000Z</time>
      </trkpt>
      <trkpt lat="45.37721" lon="6.17175">
        <ele>1643.67</ele>
        <time>2020-06-22T07:30:21.000Z</time>
      </trkpt>
      <trkpt lat="45.3773" lon="6.17168">
        <ele>1643.36</ele>
        <time>2020-06-22T07:30:27.000Z</time>
      </trkpt>
      <trkpt lat="45.37738" lon="6.17162">
        <ele>1645.21</ele>
        <time>2020-06-22T07:35:06.000Z</time>
      </trkpt>
      <trkpt lat="45.37748" lon="6.17155">
        <ele>1645.37</ele>
        <time>2020-06-22T07:35:20.000Z</time>
      </trkpt>
      <trkpt lat="45.37754" lon="6.17147">
        <ele>1645.59</ele>
        <time>2020-06-22T07:35:27.000Z</time>
      </trkpt>
      <trkpt lat="45.37758" lon="6.17131">
        <ele>1646.02</ele>
        <time>2020-06-22T07:35:38.000Z</time>
      </trkpt>
      <trkpt lat="45.37768" lon="6.17128">
        <ele>1646.39</ele>
        <time>2020-06-22T07:36:06.000Z</time>
      </trkpt>
      <trkpt lat="45.37779" lon="6.17138">
        <ele>1648.57</ele>
        <time>2020-06-22T07:36:31.000Z</time>
      </trkpt>
      <trkpt lat="45.37788" lon="6.17141">
        <ele>1650.65</ele>
        <time>2020-06-22T07:36:49.000Z</time>
      </trkpt>
      <trkpt lat="45.37799" lon="6.17136">
        <ele>1651.92</ele>
        <time>2020-06-22T07:37:06.000Z</time>
      </trkpt>
      <trkpt lat="45.37807" lon="6.1713">
        <ele>1652.57</ele>
        <time>2020-06-22T07:37:28.000Z</time>
      </trkpt>
      <trkpt lat="45.37813" lon="6.17117">
        <ele>1651.77</ele>
        <time>2020-06-22T07:37:47.000Z</time>
      </trkpt>
      <trkpt lat="45.37823" lon="6.17113">
        <ele>1652.15</ele>
        <time>2020-06-22T07:38:04.000Z</time>
      </trkpt>
      <trkpt lat="45.37833" lon="6.17104">
        <ele>1651.42</ele>
        <time>2020-06-22T07:38:25.000Z</time>
      </trkpt>
      <trkpt lat="45.37835" lon="6.17087">
        <ele>1651.8</ele>
        <time>2020-06-22T07:38:44.000Z</time>
      </trkpt>
      <trkpt lat="45.37841" lon="6.17074">
        <ele>1652.32</ele>
        <time>2020-06-22T07:39:06.000Z</time>
      </trkpt>
      <trkpt lat="45.37852" lon="6.17077">
        <ele>1652.93</ele>
        <time>2020-06-22T07:39:20.000Z</time>
      </trkpt>
      <trkpt lat="45.3786" lon="6.17085">
        <ele>1653.13</ele>
        <time>2020-06-22T07:39:28.000Z</time>
      </trkpt>
      <trkpt lat="45.37869" lon="6.17086">
        <ele>1653.77</ele>
        <time>2020-06-22T07:39:35.000Z</time>
      </trkpt>
      <trkpt lat="45.3788" lon="6.17087">
        <ele>1654.63</ele>
        <time>2020-06-22T07:39:48.000Z</time>
      </trkpt>
      <trkpt lat="45.37891" lon="6.17091">
        <ele>1656.33</ele>
        <time>2020-06-22T07:40:08.000Z</time>
      </trkpt>
      <trkpt lat="45.37901" lon="6.17101">
        <ele>1658.08</ele>
        <time>2020-06-22T07:40:23.000Z</time>
      </trkpt>
      <trkpt lat="45.37916" lon="6.17107">
        <ele>1661.73</ele>
        <time>2020-06-22T07:40:56.000Z</time>
      </trkpt>
      <trkpt lat="45.37925" lon="6.17111">
        <ele>1664.75</ele>
        <time>2020-06-22T07:41:08.000Z</time>
      </trkpt>
      <trkpt lat="45.37919" lon="6.17098">
        <ele>1666.93</ele>
        <time>2020-06-22T07:41:16.000Z</time>
      </trkpt>
      <trkpt lat="45.37929" lon="6.17098">
        <ele>1670.94</ele>
        <time>2020-06-22T07:41:34.000Z</time>
      </trkpt>
      <trkpt lat="45.37938" lon="6.17089">
        <ele>1676.5</ele>
        <time>2020-06-22T07:41:52.000Z</time>
      </trkpt>
      <trkpt lat="45.3795" lon="6.17081">
        <ele>1678.3</ele>
        <time>2020-06-22T07:42:11.000Z</time>
      </trkpt>
      <trkpt lat="45.37957" lon="6.1707">
        <ele>1681.46</ele>
        <time>2020-06-22T07:42:31.000Z</time>
      </trkpt>
      <trkpt lat="45.3797" lon="6.17071">
        <ele>1684.63</ele>
        <time>2020-06-22T07:42:46.000Z</time>
      </trkpt>
      <trkpt lat="45.3798" lon="6.17064">
        <ele>1688.16</ele>
        <time>2020-06-22T07:43:03.000Z</time>
      </trkpt>
      <trkpt lat="45.37989" lon="6.17054">
        <ele>1691.83</ele>
        <time>2020-06-22T07:43:25.000Z</time>
      </trkpt>
      <trkpt lat="45.37999" lon="6.17047">
        <ele>1696.73</ele>
        <time>2020-06-22T07:44:05.000Z</time>
      </trkpt>
      <trkpt lat="45.37995" lon="6.1703">
        <ele>1702.53</ele>
        <time>2020-06-22T07:44:28.000Z</time>
      </trkpt>
      <trkpt lat="45.38006" lon="6.17017">
        <ele>1713.56</ele>
        <time>2020-06-22T07:44:45.000Z</time>
      </trkpt>
      <trkpt lat="45.38003" lon="6.17005">
        <ele>1718.23</ele>
        <time>2020-06-22T07:44:57.000Z</time>
      </trkpt>
      <trkpt lat="45.38001" lon="6.16989">
        <ele>1719.91</ele>
        <time>2020-06-22T07:45:13.000Z</time>
      </trkpt>
      <trkpt lat="45.37996" lon="6.16976">
        <ele>1719.36</ele>
        <time>2020-06-22T07:45:29.000Z</time>
      </trkpt>
      <trkpt lat="45.37991" lon="6.16962">
        <ele>1718.11</ele>
        <time>2020-06-22T07:45:42.000Z</time>
      </trkpt>
      <trkpt lat="45.37986" lon="6.16947">
        <ele>1716.56</ele>
        <time>2020-06-22T07:45:55.000Z</time>
      </trkpt>
      <trkpt lat="45.3798" lon="6.16937">
        <ele>1715.49</ele>
        <time>2020-06-22T07:46:03.000Z</time>
      </trkpt>
      <trkpt lat="45.37976" lon="6.16924">
        <ele>1714.29</ele>
        <time>2020-06-22T07:46:15.000Z</time>
      </trkpt>
      <trkpt lat="45.37966" lon="6.16913">
        <ele>1713.01</ele>
        <time>2020-06-22T07:46:33.000Z</time>
      </trkpt>
      <trkpt lat="45.37959" lon="6.16902">
        <ele>1713.14</ele>
        <time>2020-06-22T07:46:52.000Z</time>
      </trkpt>
      <trkpt lat="45.37952" lon="6.16891">
        <ele>1715.14</ele>
        <time>2020-06-22T07:47:20.000Z</time>
      </trkpt>
      <trkpt lat="45.37944" lon="6.1688">
        <ele>1720.54</ele>
        <time>2020-06-22T07:47:37.000Z</time>
      </trkpt>
      <trkpt lat="45.37945" lon="6.16865">
        <ele>1726.59</ele>
        <time>2020-06-22T07:47:57.000Z</time>
      </trkpt>
      <trkpt lat="45.37942" lon="6.1685">
        <ele>1731.09</ele>
        <time>2020-06-22T07:48:14.000Z</time>
      </trkpt>
      <trkpt lat="45.3794" lon="6.16833">
        <ele>1734.19</ele>
        <time>2020-06-22T07:48:30.000Z</time>
      </trkpt>
      <trkpt lat="45.37933" lon="6.16817">
        <ele>1733.76</ele>
        <time>2020-06-22T07:48:45.000Z</time>
      </trkpt>
      <trkpt lat="45.37928" lon="6.16801">
        <ele>1732.24</ele>
        <time>2020-06-22T07:48:56.000Z</time>
      </trkpt>
      <trkpt lat="45.37924" lon="6.16786">
        <ele>1730.71</ele>
        <time>2020-06-22T07:49:09.000Z</time>
      </trkpt>
      <trkpt lat="45.37918" lon="6.16763">
        <ele>1727.61</ele>
        <time>2020-06-22T07:49:28.000Z</time>
      </trkpt>
      <trkpt lat="45.3792" lon="6.16747">
        <ele>1724.89</ele>
        <time>2020-06-22T07:49:43.000Z</time>
      </trkpt>
      <trkpt lat="45.37921" lon="6.16731">
        <ele>1722.31</ele>
        <time>2020-06-22T07:49:59.000Z</time>
      </trkpt>
      <trkpt lat="45.37918" lon="6.16717">
        <ele>1720.51</ele>
        <time>2020-06-22T07:50:09.000Z</time>
      </trkpt>
      <trkpt lat="45.37913" lon="6.16704">
        <ele>1718.79</ele>
        <time>2020-06-22T07:50:18.000Z</time>
      </trkpt>
      <trkpt lat="45.37912" lon="6.16691">
        <ele>1717.47</ele>
        <time>2020-06-22T07:50:29.000Z</time>
      </trkpt>
      <trkpt lat="45.37911" lon="6.16667">
        <ele>1716.06</ele>
        <time>2020-06-22T07:50:49.000Z</time>
      </trkpt>
      <trkpt lat="45.37909" lon="6.16651">
        <ele>1714.49</ele>
        <time>2020-06-22T07:51:03.000Z</time>
      </trkpt>
      <trkpt lat="45.37916" lon="6.16638">
        <ele>1711.22</ele>
        <time>2020-06-22T07:51:43.000Z</time>
      </trkpt>
      <trkpt lat="45.37919" lon="6.16625">
        <ele>1708.95</ele>
        <time>2020-06-22T07:51:52.000Z</time>
      </trkpt>
      <trkpt lat="45.37927" lon="6.16609">
        <ele>1706.54</ele>
        <time>2020-06-22T07:52:21.000Z</time>
      </trkpt>
      <trkpt lat="45.37936" lon="6.16602">
        <ele>1702.47</ele>
        <time>2020-06-22T07:52:50.000Z</time>
      </trkpt>
      <trkpt lat="45.37937" lon="6.16589">
        <ele>1699.04</ele>
        <time>2020-06-22T07:53:11.000Z</time>
      </trkpt>
      <trkpt lat="45.37941" lon="6.16575">
        <ele>1697.34</ele>
        <time>2020-06-22T07:53:32.000Z</time>
      </trkpt>
      <trkpt lat="45.37946" lon="6.16562">
        <ele>1696.99</ele>
        <time>2020-06-22T07:53:48.000Z</time>
      </trkpt>
      <trkpt lat="45.37951" lon="6.16548">
        <ele>1696.32</ele>
        <time>2020-06-22T07:54:09.000Z</time>
      </trkpt>
      <trkpt lat="45.3796" lon="6.16539">
        <ele>1695.6</ele>
        <time>2020-06-22T07:54:24.000Z</time>
      </trkpt>
      <trkpt lat="45.37965" lon="6.16524">
        <ele>1694.67</ele>
        <time>2020-06-22T07:54:41.000Z</time>
      </trkpt>
      <trkpt lat="45.37974" lon="6.16519">
        <ele>1693.27</ele>
        <time>2020-06-22T07:54:52.000Z</time>
      </trkpt>
      <trkpt lat="45.3798" lon="6.16506">
        <ele>1690.87</ele>
        <time>2020-06-22T07:55:10.000Z</time>
      </trkpt>
      <trkpt lat="45.37968" lon="6.16517">
        <ele>1689.71</ele>
        <time>2020-06-22T07:55:15.000Z</time>
      </trkpt>
      <trkpt lat="45.37978" lon="6.16518">
        <ele>1689.17</ele>
        <time>2020-06-22T07:55:20.000Z</time>
      </trkpt>
      <trkpt lat="45.37986" lon="6.16499">
        <ele>1687.65</ele>
        <time>2020-06-22T07:55:40.000Z</time>
      </trkpt>
      <trkpt lat="45.37991" lon="6.16478">
        <ele>1685.97</ele>
        <time>2020-06-22T07:55:59.000Z</time>
      </trkpt>
      <trkpt lat="45.37994" lon="6.16465">
        <ele>1685.91</ele>
        <time>2020-06-22T07:56:16.000Z</time>
      </trkpt>
      <trkpt lat="45.37996" lon="6.16453">
        <ele>1686.7</ele>
        <time>2020-06-22T07:56:27.000Z</time>
      </trkpt>
      <trkpt lat="45.37996" lon="6.16433">
        <ele>1689.2</ele>
        <time>2020-06-22T07:56:46.000Z</time>
      </trkpt>
      <trkpt lat="45.37992" lon="6.16413">
        <ele>1692.43</ele>
        <time>2020-06-22T07:57:10.000Z</time>
      </trkpt>
      <trkpt lat="45.37992" lon="6.16397">
        <ele>1695.2</ele>
        <time>2020-06-22T07:57:27.000Z</time>
      </trkpt>
      <trkpt lat="45.3799" lon="6.16381">
        <ele>1696.75</ele>
        <time>2020-06-22T07:57:42.000Z</time>
      </trkpt>
      <trkpt lat="45.37992" lon="6.16366">
        <ele>1697.88</ele>
        <time>2020-06-22T07:58:01.000Z</time>
      </trkpt>
      <trkpt lat="45.37992" lon="6.16352">
        <ele>1698.41</ele>
        <time>2020-06-22T07:58:12.000Z</time>
      </trkpt>
      <trkpt lat="45.37999" lon="6.16341">
        <ele>1699.23</ele>
        <time>2020-06-22T07:58:30.000Z</time>
      </trkpt>
      <trkpt lat="45.38008" lon="6.16333">
        <ele>1699.93</ele>
        <time>2020-06-22T07:58:47.000Z</time>
      </trkpt>
      <trkpt lat="45.38019" lon="6.16315">
        <ele>1697.68</ele>
        <time>2020-06-22T07:59:58.000Z</time>
      </trkpt>
      <trkpt lat="45.38003" lon="6.16336">
        <ele>1696.87</ele>
        <time>2020-06-22T08:00:03.000Z</time>
      </trkpt>
      <trkpt lat="45.38002" lon="6.16321">
        <ele>1697.08</ele>
        <time>2020-06-22T08:02:12.000Z</time>
      </trkpt>
      <trkpt lat="45.38002" lon="6.163">
        <ele>1699.63</ele>
        <time>2020-06-22T08:02:25.000Z</time>
      </trkpt>
      <trkpt lat="45.38001" lon="6.16282">
        <ele>1702.23</ele>
        <time>2020-06-22T08:02:44.000Z</time>
      </trkpt>
      <trkpt lat="45.38007" lon="6.16269">
        <ele>1704.33</ele>
        <time>2020-06-22T08:03:09.000Z</time>
      </trkpt>
      <trkpt lat="45.38006" lon="6.16253">
        <ele>1706.71</ele>
        <time>2020-06-22T08:03:27.000Z</time>
      </trkpt>
      <trkpt lat="45.38003" lon="6.1624">
        <ele>1709.18</ele>
        <time>2020-06-22T08:03:41.000Z</time>
      </trkpt>
      <trkpt lat="45.37998" lon="6.16228">
        <ele>1710.71</ele>
        <time>2020-06-22T08:03:56.000Z</time>
      </trkpt>
      <trkpt lat="45.37991" lon="6.16215">
        <ele>1712.68</ele>
        <time>2020-06-22T08:04:12.000Z</time>
      </trkpt>
      <trkpt lat="45.37984" lon="6.16203">
        <ele>1714.71</ele>
        <time>2020-06-22T08:04:30.000Z</time>
      </trkpt>
      <trkpt lat="45.37984" lon="6.16188">
        <ele>1716.43</ele>
        <time>2020-06-22T08:04:51.000Z</time>
      </trkpt>
      <trkpt lat="45.37982" lon="6.16172">
        <ele>1716.21</ele>
        <time>2020-06-22T08:05:18.000Z</time>
      </trkpt>
      <trkpt lat="45.37993" lon="6.16169">
        <ele>1716.78</ele>
        <time>2020-06-22T08:05:40.000Z</time>
      </trkpt>
      <trkpt lat="45.37992" lon="6.16156">
        <ele>1718.73</ele>
        <time>2020-06-22T08:05:59.000Z</time>
      </trkpt>
      <trkpt lat="45.37996" lon="6.16142">
        <ele>1720.53</ele>
        <time>2020-06-22T08:06:21.000Z</time>
      </trkpt>
      <trkpt lat="45.38006" lon="6.16138">
        <ele>1721.48</ele>
        <time>2020-06-22T08:06:39.000Z</time>
      </trkpt>
      <trkpt lat="45.38016" lon="6.16131">
        <ele>1722.68</ele>
        <time>2020-06-22T08:07:03.000Z</time>
      </trkpt>
      <trkpt lat="45.38019" lon="6.16116">
        <ele>1723.98</ele>
        <time>2020-06-22T08:07:20.000Z</time>
      </trkpt>
      <trkpt lat="45.38019" lon="6.16101">
        <ele>1725.94</ele>
        <time>2020-06-22T08:07:42.000Z</time>
      </trkpt>
      <trkpt lat="45.38024" lon="6.16088">
        <ele>1728.34</ele>
        <time>2020-06-22T08:08:05.000Z</time>
      </trkpt>
      <trkpt lat="45.38031" lon="6.16095">
        <ele>1739.73</ele>
        <time>2020-06-22T08:09:16.000Z</time>
      </trkpt>
      <trkpt lat="45.38036" lon="6.16108">
        <ele>1741.51</ele>
        <time>2020-06-22T08:09:38.000Z</time>
      </trkpt>
      <trkpt lat="45.38042" lon="6.16118">
        <ele>1743.58</ele>
        <time>2020-06-22T08:09:44.000Z</time>
      </trkpt>
      <trkpt lat="45.38049" lon="6.16128">
        <ele>1747.9</ele>
        <time>2020-06-22T08:09:52.000Z</time>
      </trkpt>
      <trkpt lat="45.38056" lon="6.16138">
        <ele>1750.73</ele>
        <time>2020-06-22T08:09:59.000Z</time>
      </trkpt>
      <trkpt lat="45.38058" lon="6.16151">
        <ele>1753.48</ele>
        <time>2020-06-22T08:10:07.000Z</time>
      </trkpt>
      <trkpt lat="45.38064" lon="6.16163">
        <ele>1755.27</ele>
        <time>2020-06-22T08:10:17.000Z</time>
      </trkpt>
      <trkpt lat="45.38066" lon="6.16176">
        <ele>1755.94</ele>
        <time>2020-06-22T08:10:28.000Z</time>
      </trkpt>
      <trkpt lat="45.38062" lon="6.16193">
        <ele>1756.73</ele>
        <time>2020-06-22T08:10:57.000Z</time>
      </trkpt>
      <trkpt lat="45.38053" lon="6.16198">
        <ele>1756.86</ele>
        <time>2020-06-22T08:11:02.000Z</time>
      </trkpt>
      <trkpt lat="45.38052" lon="6.16215">
        <ele>1756.96</ele>
        <time>2020-06-22T08:11:23.000Z</time>
      </trkpt>
      <trkpt lat="45.38061" lon="6.16233">
        <ele>1756.86</ele>
        <time>2020-06-22T08:11:28.000Z</time>
      </trkpt>
      <trkpt lat="45.38062" lon="6.16247">
        <ele>1756.86</ele>
        <time>2020-06-22T08:11:34.000Z</time>
      </trkpt>
      <trkpt lat="45.38066" lon="6.16263">
        <ele>1756.76</ele>
        <time>2020-06-22T08:11:39.000Z</time>
      </trkpt>
      <trkpt lat="45.38088" lon="6.16209">
        <ele>1756.76</ele>
        <time>2020-06-22T08:11:44.000Z</time>
      </trkpt>
      <trkpt lat="45.38086" lon="6.16196">
        <ele>1756.69</ele>
        <time>2020-06-22T08:11:52.000Z</time>
      </trkpt>
      <trkpt lat="45.38077" lon="6.16187">
        <ele>1756.56</ele>
        <time>2020-06-22T08:11:57.000Z</time>
      </trkpt>
      <trkpt lat="45.38068" lon="6.1618">
        <ele>1756.49</ele>
        <time>2020-06-22T08:12:02.000Z</time>
      </trkpt>
      <trkpt lat="45.38064" lon="6.16167">
        <ele>1755.66</ele>
        <time>2020-06-22T08:13:26.000Z</time>
      </trkpt>
      <trkpt lat="45.3806" lon="6.16155">
        <ele>1755.37</ele>
        <time>2020-06-22T08:13:33.000Z</time>
      </trkpt>
      <trkpt lat="45.38056" lon="6.16143">
        <ele>1754.82</ele>
        <time>2020-06-22T08:13:40.000Z</time>
      </trkpt>
      <trkpt lat="45.38053" lon="6.1613">
        <ele>1752.7</ele>
        <time>2020-06-22T08:13:48.000Z</time>
      </trkpt>
      <trkpt lat="45.38045" lon="6.16122">
        <ele>1751.44</ele>
        <time>2020-06-22T08:13:57.000Z</time>
      </trkpt>
      <trkpt lat="45.38039" lon="6.16112">
        <ele>1749.83</ele>
        <time>2020-06-22T08:14:06.000Z</time>
      </trkpt>
      <trkpt lat="45.38032" lon="6.161">
        <ele>1747.84</ele>
        <time>2020-06-22T08:14:23.000Z</time>
      </trkpt>
      <trkpt lat="45.38029" lon="6.16083">
        <ele>1746.86</ele>
        <time>2020-06-22T08:15:39.000Z</time>
      </trkpt>
      <trkpt lat="45.38021" lon="6.16074">
        <ele>1746.09</ele>
        <time>2020-06-22T08:15:49.000Z</time>
      </trkpt>
      <trkpt lat="45.38019" lon="6.16061">
        <ele>1746.66</ele>
        <time>2020-06-22T08:15:58.000Z</time>
      </trkpt>
      <trkpt lat="45.3802" lon="6.16049">
        <ele>1746.77</ele>
        <time>2020-06-22T08:16:06.000Z</time>
      </trkpt>
      <trkpt lat="45.38021" lon="6.16029">
        <ele>1747.84</ele>
        <time>2020-06-22T08:16:25.000Z</time>
      </trkpt>
      <trkpt lat="45.38027" lon="6.16016">
        <ele>1749.36</ele>
        <time>2020-06-22T08:16:52.000Z</time>
      </trkpt>
      <trkpt lat="45.38024" lon="6.16002">
        <ele>1751.46</ele>
        <time>2020-06-22T08:17:17.000Z</time>
      </trkpt>
      <trkpt lat="45.3802" lon="6.15987">
        <ele>1754.46</ele>
        <time>2020-06-22T08:17:43.000Z</time>
      </trkpt>
      <trkpt lat="45.38014" lon="6.15976">
        <ele>1756.61</ele>
        <time>2020-06-22T08:18:11.000Z</time>
      </trkpt>
      <trkpt lat="45.38006" lon="6.15964">
        <ele>1758.76</ele>
        <time>2020-06-22T08:18:39.000Z</time>
      </trkpt>
      <trkpt lat="45.38" lon="6.15952">
        <ele>1759.99</ele>
        <time>2020-06-22T08:19:00.000Z</time>
      </trkpt>
      <trkpt lat="45.37992" lon="6.15942">
        <ele>1761.11</ele>
        <time>2020-06-22T08:19:21.000Z</time>
      </trkpt>
      <trkpt lat="45.37984" lon="6.15933">
        <ele>1762.84</ele>
        <time>2020-06-22T08:19:43.000Z</time>
      </trkpt>
      <trkpt lat="45.3798" lon="6.15918">
        <ele>1765.51</ele>
        <time>2020-06-22T08:20:13.000Z</time>
      </trkpt>
      <trkpt lat="45.37971" lon="6.15918">
        <ele>1769.67</ele>
        <time>2020-06-22T08:20:31.000Z</time>
      </trkpt>
      <trkpt lat="45.37958" lon="6.15905">
        <ele>1788.76</ele>
        <time>2020-06-22T08:21:11.000Z</time>
      </trkpt>
      <trkpt lat="45.3795" lon="6.15891">
        <ele>1796.86</ele>
        <time>2020-06-22T08:21:26.000Z</time>
      </trkpt>
      <trkpt lat="45.37941" lon="6.15885">
        <ele>1800.4</ele>
        <time>2020-06-22T08:21:36.000Z</time>
      </trkpt>
      <trkpt lat="45.37927" lon="6.1588">
        <ele>1803.91</ele>
        <time>2020-06-22T08:21:53.000Z</time>
      </trkpt>
      <trkpt lat="45.3792" lon="6.15871">
        <ele>1805.73</ele>
        <time>2020-06-22T08:22:05.000Z</time>
      </trkpt>
      <trkpt lat="45.37914" lon="6.15861">
        <ele>1806.02</ele>
        <time>2020-06-22T08:22:16.000Z</time>
      </trkpt>
      <trkpt lat="45.37906" lon="6.15854">
        <ele>1805.68</ele>
        <time>2020-06-22T08:22:26.000Z</time>
      </trkpt>
      <trkpt lat="45.37896" lon="6.15846">
        <ele>1806.74</ele>
        <time>2020-06-22T08:22:41.000Z</time>
      </trkpt>
      <trkpt lat="45.37888" lon="6.15838">
        <ele>1807.47</ele>
        <time>2020-06-22T08:22:50.000Z</time>
      </trkpt>
      <trkpt lat="45.37878" lon="6.15829">
        <ele>1808.11</ele>
        <time>2020-06-22T08:23:03.000Z</time>
      </trkpt>
      <trkpt lat="45.3787" lon="6.15819">
        <ele>1809.46</ele>
        <time>2020-06-22T08:23:15.000Z</time>
      </trkpt>
      <trkpt lat="45.37863" lon="6.1581">
        <ele>1811.35</ele>
        <time>2020-06-22T08:23:25.000Z</time>
      </trkpt>
      <trkpt lat="45.37858" lon="6.15799">
        <ele>1810.99</ele>
        <time>2020-06-22T08:23:44.000Z</time>
      </trkpt>
      <trkpt lat="45.3785" lon="6.15791">
        <ele>1810.76</ele>
        <time>2020-06-22T08:23:53.000Z</time>
      </trkpt>
      <trkpt lat="45.37842" lon="6.15785">
        <ele>1810.36</ele>
        <time>2020-06-22T08:24:01.000Z</time>
      </trkpt>
      <trkpt lat="45.37835" lon="6.1577">
        <ele>1810.11</ele>
        <time>2020-06-22T08:24:18.000Z</time>
      </trkpt>
      <trkpt lat="45.37825" lon="6.15765">
        <ele>1810.16</ele>
        <time>2020-06-22T08:24:30.000Z</time>
      </trkpt>
      <trkpt lat="45.37813" lon="6.15755">
        <ele>1809.93</ele>
        <time>2020-06-22T08:24:46.000Z</time>
      </trkpt>
      <trkpt lat="45.37804" lon="6.15743">
        <ele>1810.88</ele>
        <time>2020-06-22T08:25:04.000Z</time>
      </trkpt>
      <trkpt lat="45.37795" lon="6.15733">
        <ele>1811.96</ele>
        <time>2020-06-22T08:25:20.000Z</time>
      </trkpt>
      <trkpt lat="45.37797" lon="6.15718">
        <ele>1813.11</ele>
        <time>2020-06-22T08:25:38.000Z</time>
      </trkpt>
      <trkpt lat="45.37805" lon="6.1571">
        <ele>1814.16</ele>
        <time>2020-06-22T08:26:09.000Z</time>
      </trkpt>
      <trkpt lat="45.3781" lon="6.15696">
        <ele>1816.34</ele>
        <time>2020-06-22T08:26:35.000Z</time>
      </trkpt>
      <trkpt lat="45.3781" lon="6.1568">
        <ele>1820.09</ele>
        <time>2020-06-22T08:26:53.000Z</time>
      </trkpt>
      <trkpt lat="45.37805" lon="6.15666">
        <ele>1824.56</ele>
        <time>2020-06-22T08:27:12.000Z</time>
      </trkpt>
      <trkpt lat="45.378" lon="6.1565">
        <ele>1828.61</ele>
        <time>2020-06-22T08:27:29.000Z</time>
      </trkpt>
      <trkpt lat="45.37796" lon="6.15631">
        <ele>1833.21</ele>
        <time>2020-06-22T08:27:51.000Z</time>
      </trkpt>
      <trkpt lat="45.37797" lon="6.15616">
        <ele>1836.31</ele>
        <time>2020-06-22T08:28:11.000Z</time>
      </trkpt>
      <trkpt lat="45.37793" lon="6.15604">
        <ele>1837.16</ele>
        <time>2020-06-22T08:28:40.000Z</time>
      </trkpt>
      <trkpt lat="45.37789" lon="6.1559">
        <ele>1838.36</ele>
        <time>2020-06-22T08:29:12.000Z</time>
      </trkpt>
      <trkpt lat="45.37782" lon="6.15578">
        <ele>1840.61</ele>
        <time>2020-06-22T08:29:28.000Z</time>
      </trkpt>
      <trkpt lat="45.37773" lon="6.15568">
        <ele>1844.09</ele>
        <time>2020-06-22T08:29:50.000Z</time>
      </trkpt>
      <trkpt lat="45.37764" lon="6.15561">
        <ele>1847.89</ele>
        <time>2020-06-22T08:30:05.000Z</time>
      </trkpt>
      <trkpt lat="45.37755" lon="6.15558">
        <ele>1851.35</ele>
        <time>2020-06-22T08:30:12.000Z</time>
      </trkpt>
      <trkpt lat="45.37746" lon="6.15551">
        <ele>1856.61</ele>
        <time>2020-06-22T08:30:30.000Z</time>
      </trkpt>
      <trkpt lat="45.37741" lon="6.15539">
        <ele>1859.12</ele>
        <time>2020-06-22T08:30:39.000Z</time>
      </trkpt>
      <trkpt lat="45.3774" lon="6.15526">
        <ele>1862.59</ele>
        <time>2020-06-22T08:30:50.000Z</time>
      </trkpt>
      <trkpt lat="45.37737" lon="6.1551">
        <ele>1865.04</ele>
        <time>2020-06-22T08:31:04.000Z</time>
      </trkpt>
      <trkpt lat="45.37734" lon="6.15495">
        <ele>1867.91</ele>
        <time>2020-06-22T08:31:20.000Z</time>
      </trkpt>
      <trkpt lat="45.37729" lon="6.1548">
        <ele>1871.06</ele>
        <time>2020-06-22T08:31:39.000Z</time>
      </trkpt>
      <trkpt lat="45.37724" lon="6.15466">
        <ele>1874.56</ele>
        <time>2020-06-22T08:31:58.000Z</time>
      </trkpt>
      <trkpt lat="45.37719" lon="6.15453">
        <ele>1877.79</ele>
        <time>2020-06-22T08:32:16.000Z</time>
      </trkpt>
      <trkpt lat="45.37714" lon="6.15438">
        <ele>1880.69</ele>
        <time>2020-06-22T08:32:35.000Z</time>
      </trkpt>
      <trkpt lat="45.37707" lon="6.15427">
        <ele>1883.04</ele>
        <time>2020-06-22T08:32:53.000Z</time>
      </trkpt>
      <trkpt lat="45.37696" lon="6.15421">
        <ele>1884.84</ele>
        <time>2020-06-22T08:33:06.000Z</time>
      </trkpt>
      <trkpt lat="45.37685" lon="6.15416">
        <ele>1887.19</ele>
        <time>2020-06-22T08:33:23.000Z</time>
      </trkpt>
      <trkpt lat="45.37678" lon="6.15405">
        <ele>1890.41</ele>
        <time>2020-06-22T08:33:40.000Z</time>
      </trkpt>
      <trkpt lat="45.37671" lon="6.15392">
        <ele>1894.64</ele>
        <time>2020-06-22T08:34:02.000Z</time>
      </trkpt>
      <trkpt lat="45.37659" lon="6.15373">
        <ele>1902.19</ele>
        <time>2020-06-22T08:34:33.000Z</time>
      </trkpt>
      <trkpt lat="45.3766" lon="6.15357">
        <ele>1908.51</ele>
        <time>2020-06-22T08:38:35.000Z</time>
      </trkpt>
      <trkpt lat="45.37668" lon="6.15347">
        <ele>1909.89</ele>
        <time>2020-06-22T08:38:44.000Z</time>
      </trkpt>
      <trkpt lat="45.37674" lon="6.15337">
        <ele>1910.86</ele>
        <time>2020-06-22T08:38:53.000Z</time>
      </trkpt>
      <trkpt lat="45.37683" lon="6.15329">
        <ele>1910.82</ele>
        <time>2020-06-22T08:39:04.000Z</time>
      </trkpt>
      <trkpt lat="45.37694" lon="6.15322">
        <ele>1912.39</ele>
        <time>2020-06-22T08:41:18.000Z</time>
      </trkpt>
      <trkpt lat="45.37696" lon="6.15308">
        <ele>1917.42</ele>
        <time>2020-06-22T08:42:14.000Z</time>
      </trkpt>
      <trkpt lat="45.37705" lon="6.15305">
        <ele>1917.81</ele>
        <time>2020-06-22T08:42:23.000Z</time>
      </trkpt>
      <trkpt lat="45.37713" lon="6.153">
        <ele>1914.4</ele>
        <time>2020-06-22T08:42:32.000Z</time>
      </trkpt>
      <trkpt lat="45.37724" lon="6.15294">
        <ele>1910.66</ele>
        <time>2020-06-22T08:42:41.000Z</time>
      </trkpt>
      <trkpt lat="45.37732" lon="6.15287">
        <ele>1907.18</ele>
        <time>2020-06-22T08:42:49.000Z</time>
      </trkpt>
      <trkpt lat="45.37739" lon="6.15278">
        <ele>1904.31</ele>
        <time>2020-06-22T08:42:58.000Z</time>
      </trkpt>
      <trkpt lat="45.37746" lon="6.15269">
        <ele>1901.91</ele>
        <time>2020-06-22T08:43:05.000Z</time>
      </trkpt>
      <trkpt lat="45.37755" lon="6.15256">
        <ele>1899.82</ele>
        <time>2020-06-22T08:43:18.000Z</time>
      </trkpt>
      <trkpt lat="45.37763" lon="6.15248">
        <ele>1898.73</ele>
        <time>2020-06-22T08:43:27.000Z</time>
      </trkpt>
      <trkpt lat="45.3777" lon="6.15239">
        <ele>1897.98</ele>
        <time>2020-06-22T08:43:36.000Z</time>
      </trkpt>
      <trkpt lat="45.37778" lon="6.1523">
        <ele>1897.58</ele>
        <time>2020-06-22T08:43:44.000Z</time>
      </trkpt>
      <trkpt lat="45.37785" lon="6.15223">
        <ele>1898.11</ele>
        <time>2020-06-22T08:43:52.000Z</time>
      </trkpt>
      <trkpt lat="45.37791" lon="6.15213">
        <ele>1899.2</ele>
        <time>2020-06-22T08:44:00.000Z</time>
      </trkpt>
      <trkpt lat="45.37799" lon="6.15205">
        <ele>1898.97</ele>
        <time>2020-06-22T08:44:08.000Z</time>
      </trkpt>
      <trkpt lat="45.3781" lon="6.15192">
        <ele>1898.93</ele>
        <time>2020-06-22T08:44:22.000Z</time>
      </trkpt>
      <trkpt lat="45.37822" lon="6.15194">
        <ele>1897.24</ele>
        <time>2020-06-22T08:51:45.000Z</time>
      </trkpt>
      <trkpt lat="45.3781" lon="6.15188">
        <ele>1897.68</ele>
        <time>2020-06-22T08:51:50.000Z</time>
      </trkpt>
      <trkpt lat="45.37818" lon="6.15179">
        <ele>1899.68</ele>
        <time>2020-06-22T08:56:54.000Z</time>
      </trkpt>
      <trkpt lat="45.37827" lon="6.15174">
        <ele>1898.91</ele>
        <time>2020-06-22T08:57:09.000Z</time>
      </trkpt>
      <trkpt lat="45.37833" lon="6.15163">
        <ele>1897.1</ele>
        <time>2020-06-22T08:57:19.000Z</time>
      </trkpt>
      <trkpt lat="45.37839" lon="6.15153">
        <ele>1894.75</ele>
        <time>2020-06-22T08:57:26.000Z</time>
      </trkpt>
      <trkpt lat="45.37847" lon="6.15139">
        <ele>1891.5</ele>
        <time>2020-06-22T08:57:46.000Z</time>
      </trkpt>
      <trkpt lat="45.37855" lon="6.1513">
        <ele>1889.62</ele>
        <time>2020-06-22T08:57:55.000Z</time>
      </trkpt>
      <trkpt lat="45.3786" lon="6.15119">
        <ele>1889.26</ele>
        <time>2020-06-22T08:58:02.000Z</time>
      </trkpt>
      <trkpt lat="45.37857" lon="6.15131">
        <ele>1889.67</ele>
        <time>2020-06-22T08:58:36.000Z</time>
      </trkpt>
      <trkpt lat="45.3785" lon="6.15141">
        <ele>1891.03</ele>
        <time>2020-06-22T08:58:46.000Z</time>
      </trkpt>
      <trkpt lat="45.37841" lon="6.15153">
        <ele>1891.95</ele>
        <time>2020-06-22T08:59:04.000Z</time>
      </trkpt>
      <trkpt lat="45.37833" lon="6.15159">
        <ele>1893.34</ele>
        <time>2020-06-22T08:59:12.000Z</time>
      </trkpt>
      <trkpt lat="45.37825" lon="6.15171">
        <ele>1894.18</ele>
        <time>2020-06-22T08:59:27.000Z</time>
      </trkpt>
      <trkpt lat="45.37817" lon="6.1518">
        <ele>1896.13</ele>
        <time>2020-06-22T08:59:35.000Z</time>
      </trkpt>
      <trkpt lat="45.37804" lon="6.15197">
        <ele>1895.53</ele>
        <time>2020-06-22T09:07:13.000Z</time>
      </trkpt>
      <trkpt lat="45.37795" lon="6.15205">
        <ele>1895.84</ele>
        <time>2020-06-22T09:07:23.000Z</time>
      </trkpt>
      <trkpt lat="45.37788" lon="6.15214">
        <ele>1897.65</ele>
        <time>2020-06-22T09:07:32.000Z</time>
      </trkpt>
      <trkpt lat="45.3778" lon="6.15221">
        <ele>1898.97</ele>
        <time>2020-06-22T09:07:50.000Z</time>
      </trkpt>
      <trkpt lat="45.37773" lon="6.15228">
        <ele>1900.04</ele>
        <time>2020-06-22T09:07:59.000Z</time>
      </trkpt>
      <trkpt lat="45.37766" lon="6.15238">
        <ele>1900.97</ele>
        <time>2020-06-22T09:08:11.000Z</time>
      </trkpt>
      <trkpt lat="45.37758" lon="6.15247">
        <ele>1901.75</ele>
        <time>2020-06-22T09:08:20.000Z</time>
      </trkpt>
      <trkpt lat="45.37751" lon="6.15257">
        <ele>1902.29</ele>
        <time>2020-06-22T09:08:30.000Z</time>
      </trkpt>
      <trkpt lat="45.37744" lon="6.15266">
        <ele>1903.07</ele>
        <time>2020-06-22T09:08:39.000Z</time>
      </trkpt>
      <trkpt lat="45.37735" lon="6.1527">
        <ele>1902.69</ele>
        <time>2020-06-22T09:08:52.000Z</time>
      </trkpt>
      <trkpt lat="45.37722" lon="6.15271">
        <ele>1901.52</ele>
        <time>2020-06-22T09:09:04.000Z</time>
      </trkpt>
      <trkpt lat="45.37713" lon="6.1527">
        <ele>1900.09</ele>
        <time>2020-06-22T09:09:13.000Z</time>
      </trkpt>
      <trkpt lat="45.37704" lon="6.15269">
        <ele>1898.83</ele>
        <time>2020-06-22T09:09:21.000Z</time>
      </trkpt>
      <trkpt lat="45.37694" lon="6.15267">
        <ele>1897.07</ele>
        <time>2020-06-22T09:09:30.000Z</time>
      </trkpt>
      <trkpt lat="45.37685" lon="6.15263">
        <ele>1894.99</ele>
        <time>2020-06-22T09:09:38.000Z</time>
      </trkpt>
      <trkpt lat="45.37676" lon="6.1526">
        <ele>1892.11</ele>
        <time>2020-06-22T09:09:48.000Z</time>
      </trkpt>
      <trkpt lat="45.37667" lon="6.15259">
        <ele>1890.89</ele>
        <time>2020-06-22T09:09:57.000Z</time>
      </trkpt>
      <trkpt lat="45.37657" lon="6.15257">
        <ele>1888.6</ele>
        <time>2020-06-22T09:10:07.000Z</time>
      </trkpt>
      <trkpt lat="45.37646" lon="6.15254">
        <ele>1886.77</ele>
        <time>2020-06-22T09:10:23.000Z</time>
      </trkpt>
      <trkpt lat="45.37637" lon="6.15248">
        <ele>1885.16</ele>
        <time>2020-06-22T09:10:33.000Z</time>
      </trkpt>
      <trkpt lat="45.37627" lon="6.1524">
        <ele>1882.54</ele>
        <time>2020-06-22T09:10:48.000Z</time>
      </trkpt>
      <trkpt lat="45.3762" lon="6.15232">
        <ele>1881.07</ele>
        <time>2020-06-22T09:11:05.000Z</time>
      </trkpt>
      <trkpt lat="45.37611" lon="6.15227">
        <ele>1879.59</ele>
        <time>2020-06-22T09:11:15.000Z</time>
      </trkpt>
      <trkpt lat="45.37603" lon="6.15221">
        <ele>1877.19</ele>
        <time>2020-06-22T09:11:29.000Z</time>
      </trkpt>
      <trkpt lat="45.37595" lon="6.15214">
        <ele>1874.7</ele>
        <time>2020-06-22T09:11:39.000Z</time>
      </trkpt>
      <trkpt lat="45.37584" lon="6.15208">
        <ele>1871.99</ele>
        <time>2020-06-22T09:11:53.000Z</time>
      </trkpt>
      <trkpt lat="45.37576" lon="6.152">
        <ele>1869.2</ele>
        <time>2020-06-22T09:12:12.000Z</time>
      </trkpt>
      <trkpt lat="45.37565" lon="6.15192">
        <ele>1866.44</ele>
        <time>2020-06-22T09:12:22.000Z</time>
      </trkpt>
      <trkpt lat="45.37556" lon="6.15185">
        <ele>1862.44</ele>
        <time>2020-06-22T09:12:32.000Z</time>
      </trkpt>
      <trkpt lat="45.37547" lon="6.15179">
        <ele>1858.47</ele>
        <time>2020-06-22T09:12:42.000Z</time>
      </trkpt>
      <trkpt lat="45.37539" lon="6.15171">
        <ele>1853.91</ele>
        <time>2020-06-22T09:12:52.000Z</time>
      </trkpt>
      <trkpt lat="45.37526" lon="6.15165">
        <ele>1847.56</ele>
        <time>2020-06-22T09:13:19.000Z</time>
      </trkpt>
      <trkpt lat="45.37514" lon="6.1517">
        <ele>1844.09</ele>
        <time>2020-06-22T09:13:32.000Z</time>
      </trkpt>
      <trkpt lat="45.37498" lon="6.15164">
        <ele>1839.84</ele>
        <time>2020-06-22T09:13:55.000Z</time>
      </trkpt>
      <trkpt lat="45.37497" lon="6.15151">
        <ele>1835.1</ele>
        <time>2020-06-22T09:14:09.000Z</time>
      </trkpt>
      <trkpt lat="45.37493" lon="6.15136">
        <ele>1832.06</ele>
        <time>2020-06-22T09:14:51.000Z</time>
      </trkpt>
      <trkpt lat="45.37482" lon="6.15128">
        <ele>1829.64</ele>
        <time>2020-06-22T09:15:15.000Z</time>
      </trkpt>
      <trkpt lat="45.37471" lon="6.15125">
        <ele>1825.56</ele>
        <time>2020-06-22T09:15:33.000Z</time>
      </trkpt>
      <trkpt lat="45.37457" lon="6.15125">
        <ele>1820.64</ele>
        <time>2020-06-22T09:15:53.000Z</time>
      </trkpt>
      <trkpt lat="45.37451" lon="6.15114">
        <ele>1815.44</ele>
        <time>2020-06-22T09:16:14.000Z</time>
      </trkpt>
      <trkpt lat="45.37455" lon="6.15099">
        <ele>1810.89</ele>
        <time>2020-06-22T09:16:28.000Z</time>
      </trkpt>
      <trkpt lat="45.37465" lon="6.15089">
        <ele>1806.34</ele>
        <time>2020-06-22T09:16:45.000Z</time>
      </trkpt>
      <trkpt lat="45.37473" lon="6.15077">
        <ele>1801.56</ele>
        <time>2020-06-22T09:17:00.000Z</time>
      </trkpt>
      <trkpt lat="45.37481" lon="6.15069">
        <ele>1798.42</ele>
        <time>2020-06-22T09:17:07.000Z</time>
      </trkpt>
      <trkpt lat="45.37489" lon="6.15062">
        <ele>1795.47</ele>
        <time>2020-06-22T09:17:15.000Z</time>
      </trkpt>
      <trkpt lat="45.37498" lon="6.1506">
        <ele>1792.27</ele>
        <time>2020-06-22T09:17:24.000Z</time>
      </trkpt>
      <trkpt lat="45.37507" lon="6.15058">
        <ele>1789.96</ele>
        <time>2020-06-22T09:17:34.000Z</time>
      </trkpt>
      <trkpt lat="45.37517" lon="6.15052">
        <ele>1787.42</ele>
        <time>2020-06-22T09:17:49.000Z</time>
      </trkpt>
      <trkpt lat="45.37527" lon="6.15053">
        <ele>1787.42</ele>
        <time>2020-06-22T09:18:03.000Z</time>
      </trkpt>
      <trkpt lat="45.37536" lon="6.15053">
        <ele>1786.61</ele>
        <time>2020-06-22T09:18:14.000Z</time>
      </trkpt>
      <trkpt lat="45.37545" lon="6.15054">
        <ele>1785.17</ele>
        <time>2020-06-22T09:18:24.000Z</time>
      </trkpt>
      <trkpt lat="45.37562" lon="6.15055">
        <ele>1783.32</ele>
        <time>2020-06-22T09:18:43.000Z</time>
      </trkpt>
      <trkpt lat="45.37576" lon="6.15047">
        <ele>1780.52</ele>
        <time>2020-06-22T09:19:02.000Z</time>
      </trkpt>
      <trkpt lat="45.37573" lon="6.15035">
        <ele>1777.72</ele>
        <time>2020-06-22T09:19:14.000Z</time>
      </trkpt>
      <trkpt lat="45.3758" lon="6.15026">
        <ele>1775.96</ele>
        <time>2020-06-22T09:19:23.000Z</time>
      </trkpt>
      <trkpt lat="45.37588" lon="6.15021">
        <ele>1772.85</ele>
        <time>2020-06-22T09:19:32.000Z</time>
      </trkpt>
      <trkpt lat="45.37599" lon="6.15016">
        <ele>1769.75</ele>
        <time>2020-06-22T09:19:44.000Z</time>
      </trkpt>
      <trkpt lat="45.37609" lon="6.15017">
        <ele>1766.76</ele>
        <time>2020-06-22T09:19:53.000Z</time>
      </trkpt>
      <trkpt lat="45.37619" lon="6.15019">
        <ele>1765.32</ele>
        <time>2020-06-22T09:20:03.000Z</time>
      </trkpt>
      <trkpt lat="45.37629" lon="6.15004">
        <ele>1763.72</ele>
        <time>2020-06-22T09:20:34.000Z</time>
      </trkpt>
      <trkpt lat="45.3762" lon="6.14997">
        <ele>1761.19</ele>
        <time>2020-06-22T09:20:43.000Z</time>
      </trkpt>
      <trkpt lat="45.37611" lon="6.14988">
        <ele>1759.2</ele>
        <time>2020-06-22T09:20:56.000Z</time>
      </trkpt>
      <trkpt lat="45.37604" lon="6.14975">
        <ele>1756.55</ele>
        <time>2020-06-22T09:21:11.000Z</time>
      </trkpt>
      <trkpt lat="45.37607" lon="6.14962">
        <ele>1752.86</ele>
        <time>2020-06-22T09:21:26.000Z</time>
      </trkpt>
      <trkpt lat="45.37607" lon="6.14949">
        <ele>1745.69</ele>
        <time>2020-06-22T09:21:44.000Z</time>
      </trkpt>
      <trkpt lat="45.37598" lon="6.14942">
        <ele>1741.72</ele>
        <time>2020-06-22T09:21:53.000Z</time>
      </trkpt>
      <trkpt lat="45.37588" lon="6.14934">
        <ele>1736.1</ele>
        <time>2020-06-22T09:22:16.000Z</time>
      </trkpt>
      <trkpt lat="45.37591" lon="6.14921">
        <ele>1735.25</ele>
        <time>2020-06-22T09:22:28.000Z</time>
      </trkpt>
      <trkpt lat="45.37598" lon="6.14913">
        <ele>1734.09</ele>
        <time>2020-06-22T09:22:37.000Z</time>
      </trkpt>
      <trkpt lat="45.37602" lon="6.14899">
        <ele>1733.37</ele>
        <time>2020-06-22T09:22:50.000Z</time>
      </trkpt>
      <trkpt lat="45.37596" lon="6.14886">
        <ele>1731.05</ele>
        <time>2020-06-22T09:23:03.000Z</time>
      </trkpt>
      <trkpt lat="45.37586" lon="6.14876">
        <ele>1726.67</ele>
        <time>2020-06-22T09:23:19.000Z</time>
      </trkpt>
      <trkpt lat="45.37577" lon="6.1487">
        <ele>1721.89</ele>
        <time>2020-06-22T09:23:28.000Z</time>
      </trkpt>
      <trkpt lat="45.37569" lon="6.14864">
        <ele>1718.03</ele>
        <time>2020-06-22T09:23:37.000Z</time>
      </trkpt>
      <trkpt lat="45.37561" lon="6.14856">
        <ele>1708.67</ele>
        <time>2020-06-22T09:26:03.000Z</time>
      </trkpt>
      <trkpt lat="45.37552" lon="6.14852">
        <ele>1704.26</ele>
        <time>2020-06-22T09:32:09.000Z</time>
      </trkpt>
      <trkpt lat="45.37539" lon="6.1485">
        <ele>1701.17</ele>
        <time>2020-06-22T09:32:24.000Z</time>
      </trkpt>
      <trkpt lat="45.3753" lon="6.14846">
        <ele>1698.63</ele>
        <time>2020-06-22T09:32:33.000Z</time>
      </trkpt>
      <trkpt lat="45.37522" lon="6.14839">
        <ele>1695.98</ele>
        <time>2020-06-22T09:32:41.000Z</time>
      </trkpt>
      <trkpt lat="45.37514" lon="6.14832">
        <ele>1694.34</ele>
        <time>2020-06-22T09:32:50.000Z</time>
      </trkpt>
      <trkpt lat="45.37504" lon="6.14829">
        <ele>1692.7</ele>
        <time>2020-06-22T09:33:03.000Z</time>
      </trkpt>
      <trkpt lat="45.37495" lon="6.14824">
        <ele>1692.45</ele>
        <time>2020-06-22T09:33:11.000Z</time>
      </trkpt>
      <trkpt lat="45.37486" lon="6.14816">
        <ele>1692.83</ele>
        <time>2020-06-22T09:33:19.000Z</time>
      </trkpt>
      <trkpt lat="45.37476" lon="6.14812">
        <ele>1692.62</ele>
        <time>2020-06-22T09:33:26.000Z</time>
      </trkpt>
      <trkpt lat="45.37466" lon="6.14807">
        <ele>1692.23</ele>
        <time>2020-06-22T09:33:35.000Z</time>
      </trkpt>
      <trkpt lat="45.37457" lon="6.14808">
        <ele>1690.42</ele>
        <time>2020-06-22T09:33:45.000Z</time>
      </trkpt>
      <trkpt lat="45.37453" lon="6.1482">
        <ele>1690.22</ele>
        <time>2020-06-22T09:34:00.000Z</time>
      </trkpt>
      <trkpt lat="45.37449" lon="6.14837">
        <ele>1690.72</ele>
        <time>2020-06-22T09:34:14.000Z</time>
      </trkpt>
      <trkpt lat="45.37443" lon="6.14849">
        <ele>1692.48</ele>
        <time>2020-06-22T09:34:22.000Z</time>
      </trkpt>
      <trkpt lat="45.37435" lon="6.14857">
        <ele>1693.44</ele>
        <time>2020-06-22T09:34:32.000Z</time>
      </trkpt>
      <trkpt lat="45.37427" lon="6.14872">
        <ele>1693.17</ele>
        <time>2020-06-22T09:34:50.000Z</time>
      </trkpt>
      <trkpt lat="45.37422" lon="6.14888">
        <ele>1692.67</ele>
        <time>2020-06-22T09:35:00.000Z</time>
      </trkpt>
      <trkpt lat="45.37415" lon="6.14897">
        <ele>1692.76</ele>
        <time>2020-06-22T09:35:06.000Z</time>
      </trkpt>
      <trkpt lat="45.37408" lon="6.14905">
        <ele>1692.77</ele>
        <time>2020-06-22T09:35:14.000Z</time>
      </trkpt>
      <trkpt lat="45.374" lon="6.14913">
        <ele>1692.81</ele>
        <time>2020-06-22T09:35:21.000Z</time>
      </trkpt>
      <trkpt lat="45.37386" lon="6.14925">
        <ele>1693.89</ele>
        <time>2020-06-22T09:35:37.000Z</time>
      </trkpt>
      <trkpt lat="45.37375" lon="6.14925">
        <ele>1694.14</ele>
        <time>2020-06-22T09:35:48.000Z</time>
      </trkpt>
      <trkpt lat="45.37366" lon="6.14922">
        <ele>1694.11</ele>
        <time>2020-06-22T09:35:57.000Z</time>
      </trkpt>
      <trkpt lat="45.37357" lon="6.14926">
        <ele>1694.54</ele>
        <time>2020-06-22T09:36:06.000Z</time>
      </trkpt>
      <trkpt lat="45.37346" lon="6.14934">
        <ele>1694.56</ele>
        <time>2020-06-22T09:36:22.000Z</time>
      </trkpt>
      <trkpt lat="45.37335" lon="6.14942">
        <ele>1694.26</ele>
        <time>2020-06-22T09:36:38.000Z</time>
      </trkpt>
      <trkpt lat="45.37324" lon="6.14943">
        <ele>1693.83</ele>
        <time>2020-06-22T09:36:50.000Z</time>
      </trkpt>
      <trkpt lat="45.37312" lon="6.1494">
        <ele>1692.43</ele>
        <time>2020-06-22T09:37:09.000Z</time>
      </trkpt>
      <trkpt lat="45.37301" lon="6.14938">
        <ele>1690.38</ele>
        <time>2020-06-22T09:37:33.000Z</time>
      </trkpt>
      <trkpt lat="45.3729" lon="6.14936">
        <ele>1689.18</ele>
        <time>2020-06-22T09:37:52.000Z</time>
      </trkpt>
      <trkpt lat="45.37278" lon="6.14935">
        <ele>1687.51</ele>
        <time>2020-06-22T09:38:12.000Z</time>
      </trkpt>
      <trkpt lat="45.37266" lon="6.14934">
        <ele>1684.68</ele>
        <time>2020-06-22T09:38:29.000Z</time>
      </trkpt>
      <trkpt lat="45.37255" lon="6.14937">
        <ele>1681.61</ele>
        <time>2020-06-22T09:38:42.000Z</time>
      </trkpt>
      <trkpt lat="45.37243" lon="6.14945">
        <ele>1678.01</ele>
        <time>2020-06-22T09:38:58.000Z</time>
      </trkpt>
      <trkpt lat="45.37233" lon="6.1495">
        <ele>1674.28</ele>
        <time>2020-06-22T09:39:12.000Z</time>
      </trkpt>
      <trkpt lat="45.37221" lon="6.14955">
        <ele>1669.68</ele>
        <time>2020-06-22T09:39:29.000Z</time>
      </trkpt>
      <trkpt lat="45.3721" lon="6.14963">
        <ele>1665.33</ele>
        <time>2020-06-22T09:39:45.000Z</time>
      </trkpt>
      <trkpt lat="45.37198" lon="6.14971">
        <ele>1661.25</ele>
        <time>2020-06-22T09:40:02.000Z</time>
      </trkpt>
      <trkpt lat="45.37186" lon="6.14975">
        <ele>1658.23</ele>
        <time>2020-06-22T09:40:12.000Z</time>
      </trkpt>
      <trkpt lat="45.37176" lon="6.14979">
        <ele>1654.83</ele>
        <time>2020-06-22T09:40:23.000Z</time>
      </trkpt>
      <trkpt lat="45.37167" lon="6.1499">
        <ele>1651.78</ele>
        <time>2020-06-22T09:40:36.000Z</time>
      </trkpt>
      <trkpt lat="45.37161" lon="6.15001">
        <ele>1648.86</ele>
        <time>2020-06-22T09:40:43.000Z</time>
      </trkpt>
      <trkpt lat="45.37156" lon="6.15012">
        <ele>1645.91</ele>
        <time>2020-06-22T09:40:51.000Z</time>
      </trkpt>
      <trkpt lat="45.37149" lon="6.15027">
        <ele>1642.4</ele>
        <time>2020-06-22T09:41:04.000Z</time>
      </trkpt>
      <trkpt lat="45.37136" lon="6.15038">
        <ele>1637.47</ele>
        <time>2020-06-22T09:41:21.000Z</time>
      </trkpt>
      <trkpt lat="45.37126" lon="6.15045">
        <ele>1633.92</ele>
        <time>2020-06-22T09:41:40.000Z</time>
      </trkpt>
      <trkpt lat="45.37109" lon="6.15052">
        <ele>1631.82</ele>
        <time>2020-06-22T09:41:59.000Z</time>
      </trkpt>
      <trkpt lat="45.37099" lon="6.15052">
        <ele>1630.16</ele>
        <time>2020-06-22T09:42:07.000Z</time>
      </trkpt>
      <trkpt lat="45.37092" lon="6.1506">
        <ele>1628.4</ele>
        <time>2020-06-22T09:42:19.000Z</time>
      </trkpt>
      <trkpt lat="45.37083" lon="6.15065">
        <ele>1626.9</ele>
        <time>2020-06-22T09:42:29.000Z</time>
      </trkpt>
      <trkpt lat="45.37074" lon="6.15069">
        <ele>1625.64</ele>
        <time>2020-06-22T09:42:42.000Z</time>
      </trkpt>
      <trkpt lat="45.37064" lon="6.15075">
        <ele>1622.34</ele>
        <time>2020-06-22T09:42:56.000Z</time>
      </trkpt>
      <trkpt lat="45.37056" lon="6.15086">
        <ele>1618.39</ele>
        <time>2020-06-22T09:43:15.000Z</time>
      </trkpt>
      <trkpt lat="45.37047" lon="6.1508">
        <ele>1614.92</ele>
        <time>2020-06-22T09:43:36.000Z</time>
      </trkpt>
      <trkpt lat="45.37044" lon="6.15065">
        <ele>1611.59</ele>
        <time>2020-06-22T09:43:51.000Z</time>
      </trkpt>
      <trkpt lat="45.37042" lon="6.15049">
        <ele>1607.94</ele>
        <time>2020-06-22T09:44:07.000Z</time>
      </trkpt>
      <trkpt lat="45.37044" lon="6.15034">
        <ele>1603.67</ele>
        <time>2020-06-22T09:44:29.000Z</time>
      </trkpt>
      <trkpt lat="45.37046" lon="6.15019">
        <ele>1601.77</ele>
        <time>2020-06-22T09:44:49.000Z</time>
      </trkpt>
      <trkpt lat="45.3705" lon="6.15001">
        <ele>1600.74</ele>
        <time>2020-06-22T09:45:04.000Z</time>
      </trkpt>
      <trkpt lat="45.37055" lon="6.14984">
        <ele>1599.05</ele>
        <time>2020-06-22T09:45:24.000Z</time>
      </trkpt>
      <trkpt lat="45.37059" lon="6.14968">
        <ele>1597.92</ele>
        <time>2020-06-22T09:45:47.000Z</time>
      </trkpt>
      <trkpt lat="45.37061" lon="6.14951">
        <ele>1597.12</ele>
        <time>2020-06-22T09:46:01.000Z</time>
      </trkpt>
      <trkpt lat="45.37062" lon="6.14937">
        <ele>1596.31</ele>
        <time>2020-06-22T09:46:07.000Z</time>
      </trkpt>
      <trkpt lat="45.37067" lon="6.14919">
        <ele>1594.97</ele>
        <time>2020-06-22T09:46:22.000Z</time>
      </trkpt>
      <trkpt lat="45.37069" lon="6.14902">
        <ele>1593.17</ele>
        <time>2020-06-22T09:46:32.000Z</time>
      </trkpt>
      <trkpt lat="45.3707" lon="6.14884">
        <ele>1590.42</ele>
        <time>2020-06-22T09:46:44.000Z</time>
      </trkpt>
      <trkpt lat="45.37076" lon="6.14868">
        <ele>1586.47</ele>
        <time>2020-06-22T09:47:00.000Z</time>
      </trkpt>
      <trkpt lat="45.37082" lon="6.14853">
        <ele>1581.85</ele>
        <time>2020-06-22T09:47:17.000Z</time>
      </trkpt>
      <trkpt lat="45.37074" lon="6.14841">
        <ele>1577.1</ele>
        <time>2020-06-22T09:47:30.000Z</time>
      </trkpt>
      <trkpt lat="45.37064" lon="6.1484">
        <ele>1571.87</ele>
        <time>2020-06-22T09:47:39.000Z</time>
      </trkpt>
      <trkpt lat="45.37055" lon="6.14848">
        <ele>1563.14</ele>
        <time>2020-06-22T09:47:46.000Z</time>
      </trkpt>
      <trkpt lat="45.37045" lon="6.14861">
        <ele>1555.3</ele>
        <time>2020-06-22T09:47:59.000Z</time>
      </trkpt>
      <trkpt lat="45.37038" lon="6.14869">
        <ele>1548.2</ele>
        <time>2020-06-22T09:48:06.000Z</time>
      </trkpt>
      <trkpt lat="45.37034" lon="6.14883">
        <ele>1545.65</ele>
        <time>2020-06-22T09:48:16.000Z</time>
      </trkpt>
      <trkpt lat="45.37025" lon="6.14884">
        <ele>1542.4</ele>
        <time>2020-06-22T09:48:31.000Z</time>
      </trkpt>
      <trkpt lat="45.37014" lon="6.14885">
        <ele>1539.32</ele>
        <time>2020-06-22T09:48:36.000Z</time>
      </trkpt>
      <trkpt lat="45.37003" lon="6.14899">
        <ele>1537.8</ele>
        <time>2020-06-22T09:48:57.000Z</time>
      </trkpt>
      <trkpt lat="45.36992" lon="6.14907">
        <ele>1537.44</ele>
        <time>2020-06-22T09:49:15.000Z</time>
      </trkpt>
      <trkpt lat="45.36984" lon="6.14917">
        <ele>1536.19</ele>
        <time>2020-06-22T09:49:42.000Z</time>
      </trkpt>
      <trkpt lat="45.36979" lon="6.14933">
        <ele>1534.09</ele>
        <time>2020-06-22T09:49:57.000Z</time>
      </trkpt>
      <trkpt lat="45.36973" lon="6.14944">
        <ele>1532.49</ele>
        <time>2020-06-22T09:50:04.000Z</time>
      </trkpt>
      <trkpt lat="45.36962" lon="6.14949">
        <ele>1529.69</ele>
        <time>2020-06-22T09:50:15.000Z</time>
      </trkpt>
      <trkpt lat="45.36954" lon="6.14958">
        <ele>1527.68</ele>
        <time>2020-06-22T09:50:25.000Z</time>
      </trkpt>
      <trkpt lat="45.36946" lon="6.1497">
        <ele>1526.69</ele>
        <time>2020-06-22T09:50:42.000Z</time>
      </trkpt>
      <trkpt lat="45.36943" lon="6.14985">
        <ele>1525.19</ele>
        <time>2020-06-22T09:50:56.000Z</time>
      </trkpt>
      <trkpt lat="45.36933" lon="6.14986">
        <ele>1521.61</ele>
        <time>2020-06-22T09:52:19.000Z</time>
      </trkpt>
      <trkpt lat="45.36922" lon="6.14982">
        <ele>1514.79</ele>
        <time>2020-06-22T09:52:47.000Z</time>
      </trkpt>
      <trkpt lat="45.36911" lon="6.14984">
        <ele>1509.06</ele>
        <time>2020-06-22T09:53:03.000Z</time>
      </trkpt>
      <trkpt lat="45.369" lon="6.14984">
        <ele>1502.61</ele>
        <time>2020-06-22T09:53:21.000Z</time>
      </trkpt>
      <trkpt lat="45.36889" lon="6.1498">
        <ele>1495.44</ele>
        <time>2020-06-22T09:53:43.000Z</time>
      </trkpt>
      <trkpt lat="45.36878" lon="6.14976">
        <ele>1491.04</ele>
        <time>2020-06-22T09:54:03.000Z</time>
      </trkpt>
      <trkpt lat="45.36866" lon="6.14972">
        <ele>1486.41</ele>
        <time>2020-06-22T09:54:27.000Z</time>
      </trkpt>
      <trkpt lat="45.36857" lon="6.14966">
        <ele>1481.34</ele>
        <time>2020-06-22T09:54:52.000Z</time>
      </trkpt>
      <trkpt lat="45.36846" lon="6.14965">
        <ele>1475.71</ele>
        <time>2020-06-22T09:55:14.000Z</time>
      </trkpt>
      <trkpt lat="45.36836" lon="6.1496">
        <ele>1471.29</ele>
        <time>2020-06-22T09:55:34.000Z</time>
      </trkpt>
      <trkpt lat="45.36825" lon="6.14956">
        <ele>1467.81</ele>
        <time>2020-06-22T09:55:50.000Z</time>
      </trkpt>
      <trkpt lat="45.36814" lon="6.14955">
        <ele>1464.08</ele>
        <time>2020-06-22T09:56:05.000Z</time>
      </trkpt>
      <trkpt lat="45.36803" lon="6.14947">
        <ele>1458.01</ele>
        <time>2020-06-22T09:56:23.000Z</time>
      </trkpt>
      <trkpt lat="45.36799" lon="6.14936">
        <ele>1452.38</ele>
        <time>2020-06-22T09:56:31.000Z</time>
      </trkpt>
      <trkpt lat="45.36786" lon="6.14933">
        <ele>1447.41</ele>
        <time>2020-06-22T09:56:54.000Z</time>
      </trkpt>
      <trkpt lat="45.36779" lon="6.14922">
        <ele>1443.5</ele>
        <time>2020-06-22T09:57:25.000Z</time>
      </trkpt>
      <trkpt lat="45.36772" lon="6.14913">
        <ele>1441.79</ele>
        <time>2020-06-22T09:57:36.000Z</time>
      </trkpt>
      <trkpt lat="45.36763" lon="6.14914">
        <ele>1434.91</ele>
        <time>2020-06-22T09:57:50.000Z</time>
      </trkpt>
      <trkpt lat="45.36751" lon="6.14908">
        <ele>1430.53</ele>
        <time>2020-06-22T09:58:11.000Z</time>
      </trkpt>
      <trkpt lat="45.36741" lon="6.14899">
        <ele>1426.21</ele>
        <time>2020-06-22T09:58:27.000Z</time>
      </trkpt>
      <trkpt lat="45.3673" lon="6.14893">
        <ele>1422.06</ele>
        <time>2020-06-22T09:58:41.000Z</time>
      </trkpt>
      <trkpt lat="45.36721" lon="6.1489">
        <ele>1416.58</ele>
        <time>2020-06-22T09:58:59.000Z</time>
      </trkpt>
      <trkpt lat="45.36712" lon="6.14881">
        <ele>1411.43</ele>
        <time>2020-06-22T09:59:15.000Z</time>
      </trkpt>
      <trkpt lat="45.36703" lon="6.14872">
        <ele>1407.98</ele>
        <time>2020-06-22T09:59:28.000Z</time>
      </trkpt>
      <trkpt lat="45.36694" lon="6.14863">
        <ele>1404.51</ele>
        <time>2020-06-22T09:59:45.000Z</time>
      </trkpt>
      <trkpt lat="45.36682" lon="6.14858">
        <ele>1399.78</ele>
        <time>2020-06-22T10:00:03.000Z</time>
      </trkpt>
      <trkpt lat="45.36671" lon="6.14854">
        <ele>1395.61</ele>
        <time>2020-06-22T10:00:17.000Z</time>
      </trkpt>
      <trkpt lat="45.3666" lon="6.1485">
        <ele>1391.11</ele>
        <time>2020-06-22T10:00:32.000Z</time>
      </trkpt>
      <trkpt lat="45.36648" lon="6.14846">
        <ele>1386.48</ele>
        <time>2020-06-22T10:00:48.000Z</time>
      </trkpt>
      <trkpt lat="45.36652" lon="6.14834">
        <ele>1380.58</ele>
        <time>2020-06-22T10:01:13.000Z</time>
      </trkpt>
      <trkpt lat="45.36662" lon="6.14827">
        <ele>1377.53</ele>
        <time>2020-06-22T10:01:28.000Z</time>
      </trkpt>
      <trkpt lat="45.36671" lon="6.14817">
        <ele>1374.13</ele>
        <time>2020-06-22T10:01:43.000Z</time>
      </trkpt>
      <trkpt lat="45.36681" lon="6.14807">
        <ele>1370.11</ele>
        <time>2020-06-22T10:02:01.000Z</time>
      </trkpt>
      <trkpt lat="45.36689" lon="6.14796">
        <ele>1366.08</ele>
        <time>2020-06-22T10:02:19.000Z</time>
      </trkpt>
      <trkpt lat="45.36694" lon="6.14782">
        <ele>1362.56</ele>
        <time>2020-06-22T10:02:36.000Z</time>
      </trkpt>
      <trkpt lat="45.367" lon="6.14767">
        <ele>1359.11</ele>
        <time>2020-06-22T10:02:49.000Z</time>
      </trkpt>
      <trkpt lat="45.36709" lon="6.14756">
        <ele>1355.16</ele>
        <time>2020-06-22T10:03:05.000Z</time>
      </trkpt>
      <trkpt lat="45.36718" lon="6.14746">
        <ele>1350.19</ele>
        <time>2020-06-22T10:03:24.000Z</time>
      </trkpt>
      <trkpt lat="45.36727" lon="6.14738">
        <ele>1346.44</ele>
        <time>2020-06-22T10:03:41.000Z</time>
      </trkpt>
      <trkpt lat="45.36722" lon="6.14756">
        <ele>1343.73</ele>
        <time>2020-06-22T10:05:43.000Z</time>
      </trkpt>
      <trkpt lat="45.36717" lon="6.14743">
        <ele>1343.54</ele>
        <time>2020-06-22T10:05:48.000Z</time>
      </trkpt>
      <trkpt lat="45.36713" lon="6.14729">
        <ele>1341.16</ele>
        <time>2020-06-22T10:06:23.000Z</time>
      </trkpt>
      <trkpt lat="45.36705" lon="6.14715">
        <ele>1336.24</ele>
        <time>2020-06-22T10:06:50.000Z</time>
      </trkpt>
      <trkpt lat="45.36694" lon="6.1471">
        <ele>1336.04</ele>
        <time>2020-06-22T10:07:05.000Z</time>
      </trkpt>
      <trkpt lat="45.36684" lon="6.14699">
        <ele>1335.74</ele>
        <time>2020-06-22T10:07:16.000Z</time>
      </trkpt>
      <trkpt lat="45.36676" lon="6.14691">
        <ele>1334.42</ele>
        <time>2020-06-22T10:07:21.000Z</time>
      </trkpt>
      <trkpt lat="45.36667" lon="6.14686">
        <ele>1332.59</ele>
        <time>2020-06-22T10:07:28.000Z</time>
      </trkpt>
      <trkpt lat="45.36657" lon="6.14684">
        <ele>1330.94</ele>
        <time>2020-06-22T10:07:46.000Z</time>
      </trkpt>
      <trkpt lat="45.36645" lon="6.14687">
        <ele>1328.41</ele>
        <time>2020-06-22T10:08:01.000Z</time>
      </trkpt>
      <trkpt lat="45.36632" lon="6.14689">
        <ele>1326.23</ele>
        <time>2020-06-22T10:08:13.000Z</time>
      </trkpt>
      <trkpt lat="45.36619" lon="6.14689">
        <ele>1322.98</ele>
        <time>2020-06-22T10:08:26.000Z</time>
      </trkpt>
      <trkpt lat="45.3661" lon="6.14694">
        <ele>1317.62</ele>
        <time>2020-06-22T10:08:34.000Z</time>
      </trkpt>
      <trkpt lat="45.36601" lon="6.14696">
        <ele>1314.15</ele>
        <time>2020-06-22T10:08:46.000Z</time>
      </trkpt>
      <trkpt lat="45.36589" lon="6.14698">
        <ele>1310.33</ele>
        <time>2020-06-22T10:08:57.000Z</time>
      </trkpt>
      <trkpt lat="45.3658" lon="6.14701">
        <ele>1304.53</ele>
        <time>2020-06-22T10:09:09.000Z</time>
      </trkpt>
      <trkpt lat="45.36571" lon="6.14706">
        <ele>1300.99</ele>
        <time>2020-06-22T10:09:20.000Z</time>
      </trkpt>
      <trkpt lat="45.36562" lon="6.14702">
        <ele>1298.18</ele>
        <time>2020-06-22T10:09:25.000Z</time>
      </trkpt>
      <trkpt lat="45.36553" lon="6.14697">
        <ele>1294.02</ele>
        <time>2020-06-22T10:09:35.000Z</time>
      </trkpt>
      <trkpt lat="45.36554" lon="6.14684">
        <ele>1289.24</ele>
        <time>2020-06-22T10:09:45.000Z</time>
      </trkpt>
      <trkpt lat="45.36564" lon="6.14684">
        <ele>1287.03</ele>
        <time>2020-06-22T10:09:56.000Z</time>
      </trkpt>
      <trkpt lat="45.36574" lon="6.14677">
        <ele>1283.68</ele>
        <time>2020-06-22T10:10:10.000Z</time>
      </trkpt>
      <trkpt lat="45.3658" lon="6.14668">
        <ele>1275.82</ele>
        <time>2020-06-22T10:10:18.000Z</time>
      </trkpt>
      <trkpt lat="45.36588" lon="6.14661">
        <ele>1271.36</ele>
        <time>2020-06-22T10:10:28.000Z</time>
      </trkpt>
      <trkpt lat="45.36604" lon="6.14649">
        <ele>1260.21</ele>
        <time>2020-06-22T10:10:45.000Z</time>
      </trkpt>
      <trkpt lat="45.36613" lon="6.14646">
        <ele>1253.86</ele>
        <time>2020-06-22T10:10:53.000Z</time>
      </trkpt>
      <trkpt lat="45.36622" lon="6.14638">
        <ele>1249.34</ele>
        <time>2020-06-22T10:11:01.000Z</time>
      </trkpt>
      <trkpt lat="45.36626" lon="6.14625">
        <ele>1245.61</ele>
        <time>2020-06-22T10:11:09.000Z</time>
      </trkpt>
      <trkpt lat="45.36633" lon="6.14615">
        <ele>1243.18</ele>
        <time>2020-06-22T10:11:15.000Z</time>
      </trkpt>
      <trkpt lat="45.36645" lon="6.14601">
        <ele>1238.06</ele>
        <time>2020-06-22T10:11:30.000Z</time>
      </trkpt>
      <trkpt lat="45.36651" lon="6.14582">
        <ele>1232.21</ele>
        <time>2020-06-22T10:11:44.000Z</time>
      </trkpt>
      <trkpt lat="45.36658" lon="6.14568">
        <ele>1227.56</ele>
        <time>2020-06-22T10:12:00.000Z</time>
      </trkpt>
      <trkpt lat="45.36661" lon="6.14552">
        <ele>1228.46</ele>
        <time>2020-06-22T10:12:11.000Z</time>
      </trkpt>
      <trkpt lat="45.36665" lon="6.14538">
        <ele>1228.76</ele>
        <time>2020-06-22T10:12:22.000Z</time>
      </trkpt>
      <trkpt lat="45.36666" lon="6.14517">
        <ele>1228.96</ele>
        <time>2020-06-22T10:12:42.000Z</time>
      </trkpt>
      <trkpt lat="45.36655" lon="6.14507">
        <ele>1229.8</ele>
        <time>2020-06-22T10:12:47.000Z</time>
      </trkpt>
      <trkpt lat="45.36646" lon="6.14506">
        <ele>1229.69</ele>
        <time>2020-06-22T10:12:53.000Z</time>
      </trkpt>
      <trkpt lat="45.36631" lon="6.14504">
        <ele>1231.46</ele>
        <time>2020-06-22T10:13:11.000Z</time>
      </trkpt>
      <trkpt lat="45.36622" lon="6.14509">
        <ele>1231.84</ele>
        <time>2020-06-22T10:13:19.000Z</time>
      </trkpt>
      <trkpt lat="45.36607" lon="6.1451">
        <ele>1232.51</ele>
        <time>2020-06-22T10:13:35.000Z</time>
      </trkpt>
      <trkpt lat="45.36595" lon="6.14515">
        <ele>1233.61</ele>
        <time>2020-06-22T10:13:45.000Z</time>
      </trkpt>
      <trkpt lat="45.36583" lon="6.14521">
        <ele>1234.01</ele>
        <time>2020-06-22T10:13:58.000Z</time>
      </trkpt>
      <trkpt lat="45.36572" lon="6.14525">
        <ele>1234.26</ele>
        <time>2020-06-22T10:14:09.000Z</time>
      </trkpt>
      <trkpt lat="45.36559" lon="6.14529">
        <ele>1234.23</ele>
        <time>2020-06-22T10:14:21.000Z</time>
      </trkpt>
      <trkpt lat="45.36546" lon="6.14532">
        <ele>1233.36</ele>
        <time>2020-06-22T10:14:32.000Z</time>
      </trkpt>
      <trkpt lat="45.36538" lon="6.14528">
        <ele>1229.01</ele>
        <time>2020-06-22T10:14:40.000Z</time>
      </trkpt>
      <trkpt lat="45.36529" lon="6.14533">
        <ele>1226.21</ele>
        <time>2020-06-22T10:14:56.000Z</time>
      </trkpt>
      <trkpt lat="45.36521" lon="6.14539">
        <ele>1220.06</ele>
        <time>2020-06-22T10:15:03.000Z</time>
      </trkpt>
      <trkpt lat="45.36512" lon="6.14544">
        <ele>1214.27</ele>
        <time>2020-06-22T10:15:11.000Z</time>
      </trkpt>
      <trkpt lat="45.36502" lon="6.14547">
        <ele>1209.51</ele>
        <time>2020-06-22T10:15:19.000Z</time>
      </trkpt>
      <trkpt lat="45.36493" lon="6.14554">
        <ele>1205.41</ele>
        <time>2020-06-22T10:15:29.000Z</time>
      </trkpt>
      <trkpt lat="45.3648" lon="6.1456">
        <ele>1201.21</ele>
        <time>2020-06-22T10:15:43.000Z</time>
      </trkpt>
      <trkpt lat="45.3647" lon="6.1456">
        <ele>1198.25</ele>
        <time>2020-06-22T10:15:52.000Z</time>
      </trkpt>
      <trkpt lat="45.36461" lon="6.14556">
        <ele>1196.35</ele>
        <time>2020-06-22T10:15:59.000Z</time>
      </trkpt>
      <trkpt lat="45.36462" lon="6.14569">
        <ele>1192.55</ele>
        <time>2020-06-22T10:16:14.000Z</time>
      </trkpt>
      <trkpt lat="45.36453" lon="6.1456">
        <ele>1191.18</ele>
        <time>2020-06-22T10:16:44.000Z</time>
      </trkpt>
      <trkpt lat="45.36443" lon="6.14562">
        <ele>1192.45</ele>
        <time>2020-06-22T10:16:55.000Z</time>
      </trkpt>
      <trkpt lat="45.36433" lon="6.14558">
        <ele>1191.58</ele>
        <time>2020-06-22T10:17:00.000Z</time>
      </trkpt>
      <trkpt lat="45.36426" lon="6.14568">
        <ele>1190.82</ele>
        <time>2020-06-22T10:17:09.000Z</time>
      </trkpt>
      <trkpt lat="45.36417" lon="6.1457">
        <ele>1190.93</ele>
        <time>2020-06-22T10:17:17.000Z</time>
      </trkpt>
      <trkpt lat="45.36408" lon="6.14573">
        <ele>1190.85</ele>
        <time>2020-06-22T10:17:26.000Z</time>
      </trkpt>
      <trkpt lat="45.36399" lon="6.14576">
        <ele>1191.04</ele>
        <time>2020-06-22T10:17:36.000Z</time>
      </trkpt>
      <trkpt lat="45.36384" lon="6.14579">
        <ele>1192.68</ele>
        <time>2020-06-22T10:17:53.000Z</time>
      </trkpt>
      <trkpt lat="45.36375" lon="6.14582">
        <ele>1193.75</ele>
        <time>2020-06-22T10:18:00.000Z</time>
      </trkpt>
      <trkpt lat="45.36366" lon="6.14583">
        <ele>1194.89</ele>
        <time>2020-06-22T10:18:08.000Z</time>
      </trkpt>
      <trkpt lat="45.36357" lon="6.14581">
        <ele>1195.39</ele>
        <time>2020-06-22T10:18:15.000Z</time>
      </trkpt>
      <trkpt lat="45.36347" lon="6.14577">
        <ele>1197.35</ele>
        <time>2020-06-22T10:18:24.000Z</time>
      </trkpt>
      <trkpt lat="45.36339" lon="6.14571">
        <ele>1198.52</ele>
        <time>2020-06-22T10:18:32.000Z</time>
      </trkpt>
      <trkpt lat="45.36331" lon="6.14564">
        <ele>1199.19</ele>
        <time>2020-06-22T10:18:40.000Z</time>
      </trkpt>
      <trkpt lat="45.36317" lon="6.14563">
        <ele>1200.05</ele>
        <time>2020-06-22T10:18:55.000Z</time>
      </trkpt>
      <trkpt lat="45.36305" lon="6.14555">
        <ele>1200.7</ele>
        <time>2020-06-22T10:19:09.000Z</time>
      </trkpt>
      <trkpt lat="45.36298" lon="6.14545">
        <ele>1201.07</ele>
        <time>2020-06-22T10:19:14.000Z</time>
      </trkpt>
      <trkpt lat="45.36291" lon="6.14535">
        <ele>1201.13</ele>
        <time>2020-06-22T10:19:19.000Z</time>
      </trkpt>
      <trkpt lat="45.36284" lon="6.14526">
        <ele>1201.42</ele>
        <time>2020-06-22T10:19:25.000Z</time>
      </trkpt>
      <trkpt lat="45.36277" lon="6.14518">
        <ele>1201.42</ele>
        <time>2020-06-22T10:19:32.000Z</time>
      </trkpt>
      <trkpt lat="45.36268" lon="6.14512">
        <ele>1201.32</ele>
        <time>2020-06-22T10:19:42.000Z</time>
      </trkpt>
      <trkpt lat="45.36258" lon="6.14512">
        <ele>1201.81</ele>
        <time>2020-06-22T10:19:52.000Z</time>
      </trkpt>
      <trkpt lat="45.36249" lon="6.14509">
        <ele>1201.92</ele>
        <time>2020-06-22T10:19:58.000Z</time>
      </trkpt>
      <trkpt lat="45.36235" lon="6.14505">
        <ele>1202.45</ele>
        <time>2020-06-22T10:20:11.000Z</time>
      </trkpt>
      <trkpt lat="45.36225" lon="6.14502">
        <ele>1202.61</ele>
        <time>2020-06-22T10:20:18.000Z</time>
      </trkpt>
      <trkpt lat="45.36216" lon="6.14498">
        <ele>1202.74</ele>
        <time>2020-06-22T10:20:25.000Z</time>
      </trkpt>
      <trkpt lat="45.36206" lon="6.1449">
        <ele>1202.82</ele>
        <time>2020-06-22T10:20:32.000Z</time>
      </trkpt>
      <trkpt lat="45.36197" lon="6.14489">
        <ele>1202.92</ele>
        <time>2020-06-22T10:20:39.000Z</time>
      </trkpt>
      <trkpt lat="45.36188" lon="6.14488">
        <ele>1203.29</ele>
        <time>2020-06-22T10:20:46.000Z</time>
      </trkpt>
      <trkpt lat="45.36178" lon="6.14486">
        <ele>1204.06</ele>
        <time>2020-06-22T10:20:55.000Z</time>
      </trkpt>
      <trkpt lat="45.36168" lon="6.14485">
        <ele>1204.34</ele>
        <time>2020-06-22T10:21:03.000Z</time>
      </trkpt>
      <trkpt lat="45.36158" lon="6.14483">
        <ele>1204.07</ele>
        <time>2020-06-22T10:21:10.000Z</time>
      </trkpt>
      <trkpt lat="45.36149" lon="6.14483">
        <ele>1203.42</ele>
        <time>2020-06-22T10:21:20.000Z</time>
      </trkpt>
      <trkpt lat="45.36131" lon="6.14488">
        <ele>1202.42</ele>
        <time>2020-06-22T10:21:36.000Z</time>
      </trkpt>
      <trkpt lat="45.36121" lon="6.1449">
        <ele>1201.97</ele>
        <time>2020-06-22T10:21:45.000Z</time>
      </trkpt>
      <trkpt lat="45.3611" lon="6.14493">
        <ele>1201.69</ele>
        <time>2020-06-22T10:21:53.000Z</time>
      </trkpt>
      <trkpt lat="45.36102" lon="6.14498">
        <ele>1201.12</ele>
        <time>2020-06-22T10:22:00.000Z</time>
      </trkpt>
      <trkpt lat="45.36093" lon="6.14502">
        <ele>1200.16</ele>
        <time>2020-06-22T10:22:07.000Z</time>
      </trkpt>
      <trkpt lat="45.36085" lon="6.14509">
        <ele>1199.62</ele>
        <time>2020-06-22T10:22:14.000Z</time>
      </trkpt>
      <trkpt lat="45.36076" lon="6.14513">
        <ele>1198.81</ele>
        <time>2020-06-22T10:22:23.000Z</time>
      </trkpt>
      <trkpt lat="45.36067" lon="6.14512">
        <ele>1198.9</ele>
        <time>2020-06-22T10:22:30.000Z</time>
      </trkpt>
      <trkpt lat="45.36057" lon="6.14509">
        <ele>1200.17</ele>
        <time>2020-06-22T10:22:38.000Z</time>
      </trkpt>
      <trkpt lat="45.36048" lon="6.14509">
        <ele>1200.55</ele>
        <time>2020-06-22T10:22:46.000Z</time>
      </trkpt>
      <trkpt lat="45.3604" lon="6.14501">
        <ele>1201.51</ele>
        <time>2020-06-22T10:22:56.000Z</time>
      </trkpt>
      <trkpt lat="45.3603" lon="6.14494">
        <ele>1201.44</ele>
        <time>2020-06-22T10:23:12.000Z</time>
      </trkpt>
      <trkpt lat="45.36018" lon="6.14489">
        <ele>1201.31</ele>
        <time>2020-06-22T10:23:24.000Z</time>
      </trkpt>
      <trkpt lat="45.36006" lon="6.14493">
        <ele>1201.38</ele>
        <time>2020-06-22T10:23:41.000Z</time>
      </trkpt>
      <trkpt lat="45.35995" lon="6.145">
        <ele>1201.48</ele>
        <time>2020-06-22T10:23:52.000Z</time>
      </trkpt>
      <trkpt lat="45.35987" lon="6.14511">
        <ele>1201.76</ele>
        <time>2020-06-22T10:24:03.000Z</time>
      </trkpt>
      <trkpt lat="45.35973" lon="6.14523">
        <ele>1202.38</ele>
        <time>2020-06-22T10:24:19.000Z</time>
      </trkpt>
      <trkpt lat="45.35963" lon="6.14526">
        <ele>1202.76</ele>
        <time>2020-06-22T10:24:28.000Z</time>
      </trkpt>
      <trkpt lat="45.35951" lon="6.14528">
        <ele>1203.61</ele>
        <time>2020-06-22T10:24:40.000Z</time>
      </trkpt>
      <trkpt lat="45.35942" lon="6.14533">
        <ele>1205.65</ele>
        <time>2020-06-22T10:24:48.000Z</time>
      </trkpt>
      <trkpt lat="45.35933" lon="6.14536">
        <ele>1207.32</ele>
        <time>2020-06-22T10:24:55.000Z</time>
      </trkpt>
      <trkpt lat="45.35923" lon="6.14537">
        <ele>1209.51</ele>
        <time>2020-06-22T10:25:04.000Z</time>
      </trkpt>
      <trkpt lat="45.35914" lon="6.14543">
        <ele>1212.4</ele>
        <time>2020-06-22T10:25:11.000Z</time>
      </trkpt>
      <trkpt lat="45.35906" lon="6.14549">
        <ele>1214.71</ele>
        <time>2020-06-22T10:25:20.000Z</time>
      </trkpt>
      <trkpt lat="45.35896" lon="6.14554">
        <ele>1216.66</ele>
        <time>2020-06-22T10:25:28.000Z</time>
      </trkpt>
      <trkpt lat="45.35884" lon="6.14564">
        <ele>1220.38</ele>
        <time>2020-06-22T10:25:43.000Z</time>
      </trkpt>
      <trkpt lat="45.35876" lon="6.14569">
        <ele>1223.3</ele>
        <time>2020-06-22T10:25:51.000Z</time>
      </trkpt>
      <trkpt lat="45.35869" lon="6.14577">
        <ele>1225.59</ele>
        <time>2020-06-22T10:26:00.000Z</time>
      </trkpt>
      <trkpt lat="45.35861" lon="6.14587">
        <ele>1227.06</ele>
        <time>2020-06-22T10:26:07.000Z</time>
      </trkpt>
      <trkpt lat="45.35855" lon="6.14596">
        <ele>1229.64</ele>
        <time>2020-06-22T10:26:16.000Z</time>
      </trkpt>
      <trkpt lat="45.35847" lon="6.14604">
        <ele>1230.8</ele>
        <time>2020-06-22T10:26:24.000Z</time>
      </trkpt>
      <trkpt lat="45.3584" lon="6.14616">
        <ele>1232.62</ele>
        <time>2020-06-22T10:26:35.000Z</time>
      </trkpt>
      <trkpt lat="45.35836" lon="6.14629">
        <ele>1232.92</ele>
        <time>2020-06-22T10:26:41.000Z</time>
      </trkpt>
      <trkpt lat="45.35831" lon="6.14641">
        <ele>1233.44</ele>
        <time>2020-06-22T10:26:49.000Z</time>
      </trkpt>
      <trkpt lat="45.35825" lon="6.14653">
        <ele>1234.56</ele>
        <time>2020-06-22T10:26:57.000Z</time>
      </trkpt>
      <trkpt lat="45.3582" lon="6.14667">
        <ele>1236.55</ele>
        <time>2020-06-22T10:27:11.000Z</time>
      </trkpt>
      <trkpt lat="45.35812" lon="6.14675">
        <ele>1236.86</ele>
        <time>2020-06-22T10:27:19.000Z</time>
      </trkpt>
      <trkpt lat="45.35802" lon="6.1468">
        <ele>1237.47</ele>
        <time>2020-06-22T10:27:30.000Z</time>
      </trkpt>
      <trkpt lat="45.35794" lon="6.14684">
        <ele>1237.79</ele>
        <time>2020-06-22T10:27:37.000Z</time>
      </trkpt>
      <trkpt lat="45.35785" lon="6.14687">
        <ele>1238.26</ele>
        <time>2020-06-22T10:27:46.000Z</time>
      </trkpt>
      <trkpt lat="45.35775" lon="6.14688">
        <ele>1238.42</ele>
        <time>2020-06-22T10:28:13.000Z</time>
      </trkpt>
      <trkpt lat="45.35772" lon="6.14702">
        <ele>1238.4</ele>
        <time>2020-06-22T10:28:18.000Z</time>
      </trkpt>
      <trkpt lat="45.35761" lon="6.14701">
        <ele>1237.87</ele>
        <time>2020-06-22T10:28:25.000Z</time>
      </trkpt>
      <trkpt lat="45.35751" lon="6.14699">
        <ele>1236.96</ele>
        <time>2020-06-22T10:28:31.000Z</time>
      </trkpt>
      <trkpt lat="45.35695" lon="6.14677">
        <ele>1256.62</ele>
        <time>2020-06-22T11:45:20.000Z</time>
      </trkpt>
      <trkpt lat="45.35695" lon="6.14663">
        <ele>1256.1</ele>
        <time>2020-06-22T11:45:29.000Z</time>
      </trkpt>
      <trkpt lat="45.357" lon="6.14651">
        <ele>1255.2</ele>
        <time>2020-06-22T11:45:39.000Z</time>
      </trkpt>
      <trkpt lat="45.35705" lon="6.1464">
        <ele>1254.43</ele>
        <time>2020-06-22T11:45:50.000Z</time>
      </trkpt>
      <trkpt lat="45.35711" lon="6.14628">
        <ele>1252.9</ele>
        <time>2020-06-22T11:46:01.000Z</time>
      </trkpt>
      <trkpt lat="45.35712" lon="6.14614">
        <ele>1252.89</ele>
        <time>2020-06-22T11:46:11.000Z</time>
      </trkpt>
      <trkpt lat="45.35716" lon="6.14601">
        <ele>1252.79</ele>
        <time>2020-06-22T11:46:22.000Z</time>
      </trkpt>
      <trkpt lat="45.35717" lon="6.14584">
        <ele>1252.99</ele>
        <time>2020-06-22T11:46:35.000Z</time>
      </trkpt>
      <trkpt lat="45.35719" lon="6.14568">
        <ele>1253.44</ele>
        <time>2020-06-22T11:46:46.000Z</time>
      </trkpt>
      <trkpt lat="45.3572" lon="6.14552">
        <ele>1254.07</ele>
        <time>2020-06-22T11:46:58.000Z</time>
      </trkpt>
      <trkpt lat="45.35722" lon="6.14538">
        <ele>1254.69</ele>
        <time>2020-06-22T11:47:07.000Z</time>
      </trkpt>
      <trkpt lat="45.35723" lon="6.14525">
        <ele>1254.97</ele>
        <time>2020-06-22T11:47:17.000Z</time>
      </trkpt>
      <trkpt lat="45.35726" lon="6.14508">
        <ele>1255</ele>
        <time>2020-06-22T11:47:30.000Z</time>
      </trkpt>
      <trkpt lat="45.35728" lon="6.14495">
        <ele>1255.37</ele>
        <time>2020-06-22T11:47:39.000Z</time>
      </trkpt>
      <trkpt lat="45.35731" lon="6.14482">
        <ele>1256.15</ele>
        <time>2020-06-22T11:47:50.000Z</time>
      </trkpt>
      <trkpt lat="45.35743" lon="6.14467">
        <ele>1256.92</ele>
        <time>2020-06-22T11:48:07.000Z</time>
      </trkpt>
      <trkpt lat="45.3575" lon="6.14458">
        <ele>1258.74</ele>
        <time>2020-06-22T11:48:17.000Z</time>
      </trkpt>
      <trkpt lat="45.35755" lon="6.14447">
        <ele>1260.17</ele>
        <time>2020-06-22T11:48:27.000Z</time>
      </trkpt>
      <trkpt lat="45.35761" lon="6.14437">
        <ele>1261.43</ele>
        <time>2020-06-22T11:48:36.000Z</time>
      </trkpt>
      <trkpt lat="45.35767" lon="6.14427">
        <ele>1262.54</ele>
        <time>2020-06-22T11:48:45.000Z</time>
      </trkpt>
      <trkpt lat="45.35774" lon="6.14405">
        <ele>1264.13</ele>
        <time>2020-06-22T11:49:05.000Z</time>
      </trkpt>
      <trkpt lat="45.3578" lon="6.14395">
        <ele>1265.27</ele>
        <time>2020-06-22T11:49:14.000Z</time>
      </trkpt>
      <trkpt lat="45.35786" lon="6.14383">
        <ele>1265.83</ele>
        <time>2020-06-22T11:49:27.000Z</time>
      </trkpt>
      <trkpt lat="45.3579" lon="6.14371">
        <ele>1267.16</ele>
        <time>2020-06-22T11:49:37.000Z</time>
      </trkpt>
      <trkpt lat="45.35797" lon="6.14359">
        <ele>1268.48</ele>
        <time>2020-06-22T11:49:51.000Z</time>
      </trkpt>
      <trkpt lat="45.35803" lon="6.14345">
        <ele>1270.08</ele>
        <time>2020-06-22T11:50:14.000Z</time>
      </trkpt>
      <trkpt lat="45.35804" lon="6.14331">
        <ele>1270.8</ele>
        <time>2020-06-22T11:50:23.000Z</time>
      </trkpt>
      <trkpt lat="45.35803" lon="6.14318">
        <ele>1271.57</ele>
        <time>2020-06-22T11:50:29.000Z</time>
      </trkpt>
      <trkpt lat="45.35809" lon="6.14307">
        <ele>1272.63</ele>
        <time>2020-06-22T11:50:38.000Z</time>
      </trkpt>
      <trkpt lat="45.35823" lon="6.143">
        <ele>1273.98</ele>
        <time>2020-06-22T11:50:53.000Z</time>
      </trkpt>
      <trkpt lat="45.35831" lon="6.14294">
        <ele>1275.26</ele>
        <time>2020-06-22T11:51:02.000Z</time>
      </trkpt>
      <trkpt lat="45.35844" lon="6.1428">
        <ele>1277.51</ele>
        <time>2020-06-22T11:51:21.000Z</time>
      </trkpt>
      <trkpt lat="45.35856" lon="6.14274">
        <ele>1278.93</ele>
        <time>2020-06-22T11:51:36.000Z</time>
      </trkpt>
      <trkpt lat="45.35869" lon="6.14272">
        <ele>1280.51</ele>
        <time>2020-06-22T11:51:46.000Z</time>
      </trkpt>
      <trkpt lat="45.3588" lon="6.14263">
        <ele>1282.33</ele>
        <time>2020-06-22T11:52:01.000Z</time>
      </trkpt>
      <trkpt lat="45.35888" lon="6.14256">
        <ele>1284.16</ele>
        <time>2020-06-22T11:52:10.000Z</time>
      </trkpt>
      <trkpt lat="45.35898" lon="6.1425">
        <ele>1285.81</ele>
        <time>2020-06-22T11:52:24.000Z</time>
      </trkpt>
      <trkpt lat="45.35908" lon="6.14243">
        <ele>1287.56</ele>
        <time>2020-06-22T11:52:38.000Z</time>
      </trkpt>
      <trkpt lat="45.35919" lon="6.14236">
        <ele>1289.19</ele>
        <time>2020-06-22T11:52:50.000Z</time>
      </trkpt>
      <trkpt lat="45.35931" lon="6.1423">
        <ele>1290.81</ele>
        <time>2020-06-22T11:53:03.000Z</time>
      </trkpt>
      <trkpt lat="45.35943" lon="6.14221">
        <ele>1292.64</ele>
        <time>2020-06-22T11:53:16.000Z</time>
      </trkpt>
      <trkpt lat="45.35951" lon="6.14215">
        <ele>1293.99</ele>
        <time>2020-06-22T11:53:23.000Z</time>
      </trkpt>
      <trkpt lat="45.3596" lon="6.14208">
        <ele>1295.72</ele>
        <time>2020-06-22T11:53:32.000Z</time>
      </trkpt>
      <trkpt lat="45.35967" lon="6.14199">
        <ele>1301.16</ele>
        <time>2020-06-22T11:53:42.000Z</time>
      </trkpt>
      <trkpt lat="45.35972" lon="6.14176">
        <ele>1303.72</ele>
        <time>2020-06-22T11:54:01.000Z</time>
      </trkpt>
      <trkpt lat="45.35976" lon="6.14161">
        <ele>1305.04</ele>
        <time>2020-06-22T11:54:15.000Z</time>
      </trkpt>
      <trkpt lat="45.35979" lon="6.14142">
        <ele>1306.24</ele>
        <time>2020-06-22T11:54:29.000Z</time>
      </trkpt>
      <trkpt lat="45.35979" lon="6.14124">
        <ele>1307.89</ele>
        <time>2020-06-22T11:54:42.000Z</time>
      </trkpt>
      <trkpt lat="45.35979" lon="6.14108">
        <ele>1309.52</ele>
        <time>2020-06-22T11:54:53.000Z</time>
      </trkpt>
      <trkpt lat="45.35976" lon="6.14096">
        <ele>1310.64</ele>
        <time>2020-06-22T11:55:00.000Z</time>
      </trkpt>
      <trkpt lat="45.35972" lon="6.14083">
        <ele>1312.56</ele>
        <time>2020-06-22T11:55:09.000Z</time>
      </trkpt>
      <trkpt lat="45.35968" lon="6.14071">
        <ele>1314.51</ele>
        <time>2020-06-22T11:55:19.000Z</time>
      </trkpt>
      <trkpt lat="45.35963" lon="6.14059">
        <ele>1316.06</ele>
        <time>2020-06-22T11:55:28.000Z</time>
      </trkpt>
      <trkpt lat="45.35958" lon="6.14042">
        <ele>1317.92</ele>
        <time>2020-06-22T11:55:44.000Z</time>
      </trkpt>
      <trkpt lat="45.35957" lon="6.14028">
        <ele>1319.39</ele>
        <time>2020-06-22T11:55:55.000Z</time>
      </trkpt>
      <trkpt lat="45.35958" lon="6.14014">
        <ele>1320.39</ele>
        <time>2020-06-22T11:56:06.000Z</time>
      </trkpt>
      <trkpt lat="45.35965" lon="6.1399">
        <ele>1322.47</ele>
        <time>2020-06-22T11:56:25.000Z</time>
      </trkpt>
      <trkpt lat="45.35973" lon="6.13978">
        <ele>1324.07</ele>
        <time>2020-06-22T11:56:41.000Z</time>
      </trkpt>
      <trkpt lat="45.3598" lon="6.13965">
        <ele>1325.72</ele>
        <time>2020-06-22T11:56:54.000Z</time>
      </trkpt>
      <trkpt lat="45.35988" lon="6.13953">
        <ele>1327.07</ele>
        <time>2020-06-22T11:57:07.000Z</time>
      </trkpt>
      <trkpt lat="45.35998" lon="6.13943">
        <ele>1328.45</ele>
        <time>2020-06-22T11:57:20.000Z</time>
      </trkpt>
      <trkpt lat="45.36008" lon="6.13932">
        <ele>1329.85</ele>
        <time>2020-06-22T11:57:34.000Z</time>
      </trkpt>
      <trkpt lat="45.36016" lon="6.13919">
        <ele>1331.4</ele>
        <time>2020-06-22T11:57:49.000Z</time>
      </trkpt>
      <trkpt lat="45.36023" lon="6.13909">
        <ele>1332.55</ele>
        <time>2020-06-22T11:57:59.000Z</time>
      </trkpt>
      <trkpt lat="45.36029" lon="6.13898">
        <ele>1334.19</ele>
        <time>2020-06-22T11:58:07.000Z</time>
      </trkpt>
      <trkpt lat="45.36034" lon="6.13885">
        <ele>1335.3</ele>
        <time>2020-06-22T11:58:20.000Z</time>
      </trkpt>
      <trkpt lat="45.36038" lon="6.13869">
        <ele>1336.58</ele>
        <time>2020-06-22T11:58:35.000Z</time>
      </trkpt>
      <trkpt lat="45.36044" lon="6.13855">
        <ele>1337.55</ele>
        <time>2020-06-22T11:58:47.000Z</time>
      </trkpt>
      <trkpt lat="45.36047" lon="6.13841">
        <ele>1338.84</ele>
        <time>2020-06-22T11:58:54.000Z</time>
      </trkpt>
      <trkpt lat="45.36053" lon="6.13825">
        <ele>1340.95</ele>
        <time>2020-06-22T11:59:09.000Z</time>
      </trkpt>
      <trkpt lat="45.36058" lon="6.13813">
        <ele>1343.48</ele>
        <time>2020-06-22T11:59:17.000Z</time>
      </trkpt>
      <trkpt lat="45.36059" lon="6.13793">
        <ele>1344.66</ele>
        <time>2020-06-22T11:59:35.000Z</time>
      </trkpt>
      <trkpt lat="45.36062" lon="6.13776">
        <ele>1345.73</ele>
        <time>2020-06-22T11:59:48.000Z</time>
      </trkpt>
      <trkpt lat="45.36071" lon="6.13766">
        <ele>1346.81</ele>
        <time>2020-06-22T12:00:01.000Z</time>
      </trkpt>
      <trkpt lat="45.36083" lon="6.13766">
        <ele>1348.38</ele>
        <time>2020-06-22T12:00:16.000Z</time>
      </trkpt>
      <trkpt lat="45.36094" lon="6.1376">
        <ele>1350.03</ele>
        <time>2020-06-22T12:00:31.000Z</time>
      </trkpt>
      <trkpt lat="45.36105" lon="6.13754">
        <ele>1351.38</ele>
        <time>2020-06-22T12:00:43.000Z</time>
      </trkpt>
      <trkpt lat="45.36117" lon="6.1375">
        <ele>1352.86</ele>
        <time>2020-06-22T12:00:56.000Z</time>
      </trkpt>
      <trkpt lat="45.36129" lon="6.13749">
        <ele>1354.04</ele>
        <time>2020-06-22T12:01:09.000Z</time>
      </trkpt>
      <trkpt lat="45.36139" lon="6.13747">
        <ele>1355.05</ele>
        <time>2020-06-22T12:01:16.000Z</time>
      </trkpt>
      <trkpt lat="45.36147" lon="6.1374">
        <ele>1357.16</ele>
        <time>2020-06-22T12:01:23.000Z</time>
      </trkpt>
      <trkpt lat="45.36156" lon="6.13729">
        <ele>1357.54</ele>
        <time>2020-06-22T12:01:36.000Z</time>
      </trkpt>
      <trkpt lat="45.36163" lon="6.1372">
        <ele>1358.9</ele>
        <time>2020-06-22T12:01:45.000Z</time>
      </trkpt>
      <trkpt lat="45.3617" lon="6.13712">
        <ele>1359.03</ele>
        <time>2020-06-22T12:01:53.000Z</time>
      </trkpt>
      <trkpt lat="45.3618" lon="6.137">
        <ele>1360.46</ele>
        <time>2020-06-22T12:02:06.000Z</time>
      </trkpt>
      <trkpt lat="45.36188" lon="6.13694">
        <ele>1361.61</ele>
        <time>2020-06-22T12:02:15.000Z</time>
      </trkpt>
      <trkpt lat="45.36196" lon="6.13687">
        <ele>1362.73</ele>
        <time>2020-06-22T12:02:24.000Z</time>
      </trkpt>
      <trkpt lat="45.36205" lon="6.1368">
        <ele>1362.78</ele>
        <time>2020-06-22T12:02:33.000Z</time>
      </trkpt>
      <trkpt lat="45.36215" lon="6.13668">
        <ele>1362.69</ele>
        <time>2020-06-22T12:02:51.000Z</time>
      </trkpt>
      <trkpt lat="45.36225" lon="6.13658">
        <ele>1362.47</ele>
        <time>2020-06-22T12:03:04.000Z</time>
      </trkpt>
      <trkpt lat="45.36236" lon="6.13648">
        <ele>1362.69</ele>
        <time>2020-06-22T12:03:15.000Z</time>
      </trkpt>
      <trkpt lat="45.36246" lon="6.13641">
        <ele>1363.29</ele>
        <time>2020-06-22T12:03:25.000Z</time>
      </trkpt>
      <trkpt lat="45.36255" lon="6.13636">
        <ele>1364.68</ele>
        <time>2020-06-22T12:03:33.000Z</time>
      </trkpt>
      <trkpt lat="45.36266" lon="6.13629">
        <ele>1365.35</ele>
        <time>2020-06-22T12:03:45.000Z</time>
      </trkpt>
      <trkpt lat="45.36281" lon="6.13616">
        <ele>1368.57</ele>
        <time>2020-06-22T12:04:02.000Z</time>
      </trkpt>
      <trkpt lat="45.36287" lon="6.13604">
        <ele>1370.29</ele>
        <time>2020-06-22T12:04:10.000Z</time>
      </trkpt>
      <trkpt lat="45.36291" lon="6.13592">
        <ele>1371.16</ele>
        <time>2020-06-22T12:04:19.000Z</time>
      </trkpt>
      <trkpt lat="45.36299" lon="6.13573">
        <ele>1372.42</ele>
        <time>2020-06-22T12:04:35.000Z</time>
      </trkpt>
      <trkpt lat="45.36301" lon="6.13559">
        <ele>1373.62</ele>
        <time>2020-06-22T12:04:43.000Z</time>
      </trkpt>
      <trkpt lat="45.363" lon="6.13546">
        <ele>1374.44</ele>
        <time>2020-06-22T12:04:53.000Z</time>
      </trkpt>
      <trkpt lat="45.36303" lon="6.13534">
        <ele>1374.6</ele>
        <time>2020-06-22T12:05:06.000Z</time>
      </trkpt>
      <trkpt lat="45.3631" lon="6.13518">
        <ele>1375.1</ele>
        <time>2020-06-22T12:05:18.000Z</time>
      </trkpt>
      <trkpt lat="45.36306" lon="6.13499">
        <ele>1377.55</ele>
        <time>2020-06-22T12:05:43.000Z</time>
      </trkpt>
      <trkpt lat="45.36294" lon="6.13502">
        <ele>1378.08</ele>
        <time>2020-06-22T12:05:56.000Z</time>
      </trkpt>
      <trkpt lat="45.36282" lon="6.13508">
        <ele>1378.62</ele>
        <time>2020-06-22T12:06:08.000Z</time>
      </trkpt>
      <trkpt lat="45.36272" lon="6.13508">
        <ele>1380.08</ele>
        <time>2020-06-22T12:06:14.000Z</time>
      </trkpt>
      <trkpt lat="45.3626" lon="6.13509">
        <ele>1381.42</ele>
        <time>2020-06-22T12:06:30.000Z</time>
      </trkpt>
      <trkpt lat="45.36248" lon="6.13508">
        <ele>1382.3</ele>
        <time>2020-06-22T12:06:42.000Z</time>
      </trkpt>
      <trkpt lat="45.36235" lon="6.13506">
        <ele>1383</ele>
        <time>2020-06-22T12:06:55.000Z</time>
      </trkpt>
      <trkpt lat="45.36225" lon="6.13514">
        <ele>1383.5</ele>
        <time>2020-06-22T12:07:07.000Z</time>
      </trkpt>
      <trkpt lat="45.36218" lon="6.13525">
        <ele>1383.57</ele>
        <time>2020-06-22T12:07:14.000Z</time>
      </trkpt>
      <trkpt lat="45.36215" lon="6.13537">
        <ele>1383.64</ele>
        <time>2020-06-22T12:07:21.000Z</time>
      </trkpt>
      <trkpt lat="45.36212" lon="6.1355">
        <ele>1383.55</ele>
        <time>2020-06-22T12:07:29.000Z</time>
      </trkpt>
      <trkpt lat="45.36209" lon="6.13563">
        <ele>1384.52</ele>
        <time>2020-06-22T12:07:37.000Z</time>
      </trkpt>
      <trkpt lat="45.362" lon="6.13573">
        <ele>1384.92</ele>
        <time>2020-06-22T12:07:51.000Z</time>
      </trkpt>
      <trkpt lat="45.36189" lon="6.13578">
        <ele>1385.62</ele>
        <time>2020-06-22T12:08:05.000Z</time>
      </trkpt>
      <trkpt lat="45.36176" lon="6.13581">
        <ele>1386.14</ele>
        <time>2020-06-22T12:08:19.000Z</time>
      </trkpt>
      <trkpt lat="45.36165" lon="6.13585">
        <ele>1386.67</ele>
        <time>2020-06-22T12:08:33.000Z</time>
      </trkpt>
      <trkpt lat="45.36153" lon="6.1359">
        <ele>1386.97</ele>
        <time>2020-06-22T12:08:45.000Z</time>
      </trkpt>
      <trkpt lat="45.36142" lon="6.13592">
        <ele>1387.63</ele>
        <time>2020-06-22T12:08:51.000Z</time>
      </trkpt>
      <trkpt lat="45.3613" lon="6.13596">
        <ele>1390.12</ele>
        <time>2020-06-22T12:09:12.000Z</time>
      </trkpt>
      <trkpt lat="45.36121" lon="6.13585">
        <ele>1392.19</ele>
        <time>2020-06-22T12:09:24.000Z</time>
      </trkpt>
      <trkpt lat="45.36128" lon="6.13577">
        <ele>1395.39</ele>
        <time>2020-06-22T12:09:32.000Z</time>
      </trkpt>
      <trkpt lat="45.36136" lon="6.13572">
        <ele>1397.18</ele>
        <time>2020-06-22T12:09:42.000Z</time>
      </trkpt>
      <trkpt lat="45.36146" lon="6.1357">
        <ele>1399.04</ele>
        <time>2020-06-22T12:09:49.000Z</time>
      </trkpt>
      <trkpt lat="45.36151" lon="6.13559">
        <ele>1402.65</ele>
        <time>2020-06-22T12:09:59.000Z</time>
      </trkpt>
      <trkpt lat="45.36159" lon="6.13546">
        <ele>1404.74</ele>
        <time>2020-06-22T12:10:12.000Z</time>
      </trkpt>
      <trkpt lat="45.36164" lon="6.13525">
        <ele>1407.79</ele>
        <time>2020-06-22T12:10:30.000Z</time>
      </trkpt>
      <trkpt lat="45.36166" lon="6.13511">
        <ele>1409.07</ele>
        <time>2020-06-22T12:10:40.000Z</time>
      </trkpt>
      <trkpt lat="45.36169" lon="6.13491">
        <ele>1410.67</ele>
        <time>2020-06-22T12:10:55.000Z</time>
      </trkpt>
      <trkpt lat="45.36171" lon="6.13478">
        <ele>1412.39</ele>
        <time>2020-06-22T12:11:03.000Z</time>
      </trkpt>
      <trkpt lat="45.3617" lon="6.13464">
        <ele>1414.35</ele>
        <time>2020-06-22T12:11:12.000Z</time>
      </trkpt>
      <trkpt lat="45.3617" lon="6.13437">
        <ele>1416.2</ele>
        <time>2020-06-22T12:11:25.000Z</time>
      </trkpt>
      <trkpt lat="45.36177" lon="6.13426">
        <ele>1417.37</ele>
        <time>2020-06-22T12:11:43.000Z</time>
      </trkpt>
      <trkpt lat="45.36186" lon="6.13422">
        <ele>1418.21</ele>
        <time>2020-06-22T12:11:50.000Z</time>
      </trkpt>
      <trkpt lat="45.36196" lon="6.13424">
        <ele>1420.71</ele>
        <time>2020-06-22T12:11:56.000Z</time>
      </trkpt>
      <trkpt lat="45.36206" lon="6.1342">
        <ele>1423.7</ele>
        <time>2020-06-22T12:12:11.000Z</time>
      </trkpt>
      <trkpt lat="45.36219" lon="6.13421">
        <ele>1427.57</ele>
        <time>2020-06-22T12:12:23.000Z</time>
      </trkpt>
      <trkpt lat="45.36231" lon="6.1342">
        <ele>1431.1</ele>
        <time>2020-06-22T12:12:36.000Z</time>
      </trkpt>
      <trkpt lat="45.36243" lon="6.13417">
        <ele>1433.9</ele>
        <time>2020-06-22T12:12:48.000Z</time>
      </trkpt>
      <trkpt lat="45.36252" lon="6.1341">
        <ele>1436.93</ele>
        <time>2020-06-22T12:12:57.000Z</time>
      </trkpt>
      <trkpt lat="45.3626" lon="6.13404">
        <ele>1438.71</ele>
        <time>2020-06-22T12:13:06.000Z</time>
      </trkpt>
      <trkpt lat="45.3627" lon="6.13398">
        <ele>1440.41</ele>
        <time>2020-06-22T12:13:13.000Z</time>
      </trkpt>
      <trkpt lat="45.36283" lon="6.13387">
        <ele>1443.83</ele>
        <time>2020-06-22T12:13:29.000Z</time>
      </trkpt>
      <trkpt lat="45.3629" lon="6.13378">
        <ele>1444.53</ele>
        <time>2020-06-22T12:13:34.000Z</time>
      </trkpt>
      <trkpt lat="45.36308" lon="6.13366">
        <ele>1445.75</ele>
        <time>2020-06-22T12:13:53.000Z</time>
      </trkpt>
      <trkpt lat="45.36316" lon="6.13359">
        <ele>1445.99</ele>
        <time>2020-06-22T12:13:59.000Z</time>
      </trkpt>
      <trkpt lat="45.36324" lon="6.13347">
        <ele>1446.81</ele>
        <time>2020-06-22T12:14:12.000Z</time>
      </trkpt>
      <trkpt lat="45.36329" lon="6.13336">
        <ele>1447.42</ele>
        <time>2020-06-22T12:14:20.000Z</time>
      </trkpt>
      <trkpt lat="45.36331" lon="6.13323">
        <ele>1447.4</ele>
        <time>2020-06-22T12:14:27.000Z</time>
      </trkpt>
      <trkpt lat="45.36327" lon="6.13305">
        <ele>1448.83</ele>
        <time>2020-06-22T12:14:42.000Z</time>
      </trkpt>
      <trkpt lat="45.36324" lon="6.13289">
        <ele>1450.56</ele>
        <time>2020-06-22T12:14:56.000Z</time>
      </trkpt>
      <trkpt lat="45.36325" lon="6.13273">
        <ele>1451.06</ele>
        <time>2020-06-22T12:15:03.000Z</time>
      </trkpt>
      <trkpt lat="45.36336" lon="6.13263">
        <ele>1452.21</ele>
        <time>2020-06-22T12:15:21.000Z</time>
      </trkpt>
      <trkpt lat="45.36346" lon="6.13266">
        <ele>1453.88</ele>
        <time>2020-06-22T12:15:35.000Z</time>
      </trkpt>
      <trkpt lat="45.36358" lon="6.13272">
        <ele>1455.38</ele>
        <time>2020-06-22T12:15:50.000Z</time>
      </trkpt>
      <trkpt lat="45.36369" lon="6.13265">
        <ele>1456.51</ele>
        <time>2020-06-22T12:15:58.000Z</time>
      </trkpt>
      <trkpt lat="45.36371" lon="6.13251">
        <ele>1457.07</ele>
        <time>2020-06-22T12:16:04.000Z</time>
      </trkpt>
      <trkpt lat="45.3636" lon="6.13236">
        <ele>1457.69</ele>
        <time>2020-06-22T12:16:20.000Z</time>
      </trkpt>
      <trkpt lat="45.36351" lon="6.1323">
        <ele>1458.41</ele>
        <time>2020-06-22T12:16:26.000Z</time>
      </trkpt>
      <trkpt lat="45.36343" lon="6.13224">
        <ele>1458.46</ele>
        <time>2020-06-22T12:16:33.000Z</time>
      </trkpt>
      <trkpt lat="45.36333" lon="6.13222">
        <ele>1458.36</ele>
        <time>2020-06-22T12:16:41.000Z</time>
      </trkpt>
      <trkpt lat="45.36324" lon="6.1322">
        <ele>1458.24</ele>
        <time>2020-06-22T12:16:47.000Z</time>
      </trkpt>
      <trkpt lat="45.36315" lon="6.13222">
        <ele>1458.93</ele>
        <time>2020-06-22T12:16:57.000Z</time>
      </trkpt>
      <trkpt lat="45.36307" lon="6.13227">
        <ele>1459.56</ele>
        <time>2020-06-22T12:17:07.000Z</time>
      </trkpt>
      <trkpt lat="45.36289" lon="6.13235">
        <ele>1460.91</ele>
        <time>2020-06-22T12:17:27.000Z</time>
      </trkpt>
      <trkpt lat="45.36276" lon="6.13239">
        <ele>1461.51</ele>
        <time>2020-06-22T12:17:39.000Z</time>
      </trkpt>
      <trkpt lat="45.36263" lon="6.13244">
        <ele>1460.93</ele>
        <time>2020-06-22T12:17:52.000Z</time>
      </trkpt>
      <trkpt lat="45.36256" lon="6.13252">
        <ele>1460.56</ele>
        <time>2020-06-22T12:17:59.000Z</time>
      </trkpt>
      <trkpt lat="45.36247" lon="6.13255">
        <ele>1460.36</ele>
        <time>2020-06-22T12:18:06.000Z</time>
      </trkpt>
      <trkpt lat="45.36234" lon="6.13259">
        <ele>1460.08</ele>
        <time>2020-06-22T12:18:19.000Z</time>
      </trkpt>
      <trkpt lat="45.36224" lon="6.13257">
        <ele>1459.53</ele>
        <time>2020-06-22T12:18:27.000Z</time>
      </trkpt>
      <trkpt lat="45.36223" lon="6.13239">
        <ele>1458.28</ele>
        <time>2020-06-22T12:18:39.000Z</time>
      </trkpt>
      <trkpt lat="45.36229" lon="6.13229">
        <ele>1458.4</ele>
        <time>2020-06-22T12:18:46.000Z</time>
      </trkpt>
      <trkpt lat="45.36242" lon="6.13217">
        <ele>1458.98</ele>
        <time>2020-06-22T12:19:06.000Z</time>
      </trkpt>
      <trkpt lat="45.36252" lon="6.13212">
        <ele>1459.11</ele>
        <time>2020-06-22T12:19:23.000Z</time>
      </trkpt>
      <trkpt lat="45.36263" lon="6.13212">
        <ele>1459.78</ele>
        <time>2020-06-22T12:19:37.000Z</time>
      </trkpt>
      <trkpt lat="45.36274" lon="6.13213">
        <ele>1461.46</ele>
        <time>2020-06-22T12:19:56.000Z</time>
      </trkpt>
      <trkpt lat="45.36284" lon="6.13206">
        <ele>1462.58</ele>
        <time>2020-06-22T12:20:10.000Z</time>
      </trkpt>
      <trkpt lat="45.36294" lon="6.13194">
        <ele>1463.58</ele>
        <time>2020-06-22T12:20:21.000Z</time>
      </trkpt>
      <trkpt lat="45.36305" lon="6.13186">
        <ele>1464.81</ele>
        <time>2020-06-22T12:20:34.000Z</time>
      </trkpt>
      <trkpt lat="45.36315" lon="6.13173">
        <ele>1466.74</ele>
        <time>2020-06-22T12:20:50.000Z</time>
      </trkpt>
      <trkpt lat="45.36324" lon="6.13163">
        <ele>1468.84</ele>
        <time>2020-06-22T12:21:10.000Z</time>
      </trkpt>
      <trkpt lat="45.36335" lon="6.13161">
        <ele>1470.66</ele>
        <time>2020-06-22T12:21:28.000Z</time>
      </trkpt>
      <trkpt lat="45.36347" lon="6.13158">
        <ele>1472.39</ele>
        <time>2020-06-22T12:21:45.000Z</time>
      </trkpt>
      <trkpt lat="45.36358" lon="6.13158">
        <ele>1474.11</ele>
        <time>2020-06-22T12:22:01.000Z</time>
      </trkpt>
      <trkpt lat="45.36367" lon="6.1315">
        <ele>1475.39</ele>
        <time>2020-06-22T12:22:16.000Z</time>
      </trkpt>
      <trkpt lat="45.36378" lon="6.13143">
        <ele>1476.49</ele>
        <time>2020-06-22T12:22:32.000Z</time>
      </trkpt>
      <trkpt lat="45.36389" lon="6.13147">
        <ele>1477.99</ele>
        <time>2020-06-22T12:23:13.000Z</time>
      </trkpt>
      <trkpt lat="45.364" lon="6.13145">
        <ele>1478.37</ele>
        <time>2020-06-22T12:23:27.000Z</time>
      </trkpt>
      <trkpt lat="45.36412" lon="6.1314">
        <ele>1478.62</ele>
        <time>2020-06-22T12:23:38.000Z</time>
      </trkpt>
      <trkpt lat="45.36425" lon="6.13137">
        <ele>1479.14</ele>
        <time>2020-06-22T12:23:52.000Z</time>
      </trkpt>
      <trkpt lat="45.36438" lon="6.13136">
        <ele>1479.82</ele>
        <time>2020-06-22T12:24:06.000Z</time>
      </trkpt>
      <trkpt lat="45.36449" lon="6.13137">
        <ele>1480.67</ele>
        <time>2020-06-22T12:24:21.000Z</time>
      </trkpt>
      <trkpt lat="45.36462" lon="6.13139">
        <ele>1482.07</ele>
        <time>2020-06-22T12:24:35.000Z</time>
      </trkpt>
      <trkpt lat="45.36471" lon="6.13131">
        <ele>1484.07</ele>
        <time>2020-06-22T12:24:52.000Z</time>
      </trkpt>
      <trkpt lat="45.36478" lon="6.13119">
        <ele>1486.42</ele>
        <time>2020-06-22T12:25:07.000Z</time>
      </trkpt>
      <trkpt lat="45.36484" lon="6.13104">
        <ele>1488.95</ele>
        <time>2020-06-22T12:25:22.000Z</time>
      </trkpt>
      <trkpt lat="45.36488" lon="6.13088">
        <ele>1491.62</ele>
        <time>2020-06-22T12:25:36.000Z</time>
      </trkpt>
      <trkpt lat="45.36493" lon="6.13074">
        <ele>1495.05</ele>
        <time>2020-06-22T12:25:51.000Z</time>
      </trkpt>
      <trkpt lat="45.36496" lon="6.13061">
        <ele>1498.82</ele>
        <time>2020-06-22T12:26:01.000Z</time>
      </trkpt>
      <trkpt lat="45.36494" lon="6.13039">
        <ele>1503.32</ele>
        <time>2020-06-22T12:26:18.000Z</time>
      </trkpt>
      <trkpt lat="45.36489" lon="6.13027">
        <ele>1505.96</ele>
        <time>2020-06-22T12:26:25.000Z</time>
      </trkpt>
      <trkpt lat="45.36489" lon="6.1301">
        <ele>1508.65</ele>
        <time>2020-06-22T12:26:43.000Z</time>
      </trkpt>
      <trkpt lat="45.36491" lon="6.12995">
        <ele>1511.02</ele>
        <time>2020-06-22T12:26:58.000Z</time>
      </trkpt>
      <trkpt lat="45.36491" lon="6.12978">
        <ele>1513.57</ele>
        <time>2020-06-22T12:27:14.000Z</time>
      </trkpt>
      <trkpt lat="45.36481" lon="6.12972">
        <ele>1516.62</ele>
        <time>2020-06-22T12:27:32.000Z</time>
      </trkpt>
      <trkpt lat="45.36469" lon="6.1297">
        <ele>1518.92</ele>
        <time>2020-06-22T12:27:45.000Z</time>
      </trkpt>
      <trkpt lat="45.36456" lon="6.12971">
        <ele>1520.8</ele>
        <time>2020-06-22T12:27:58.000Z</time>
      </trkpt>
      <trkpt lat="45.36444" lon="6.12973">
        <ele>1523</ele>
        <time>2020-06-22T12:28:12.000Z</time>
      </trkpt>
      <trkpt lat="45.36433" lon="6.12975">
        <ele>1525.1</ele>
        <time>2020-06-22T12:28:26.000Z</time>
      </trkpt>
      <trkpt lat="45.36417" lon="6.1298">
        <ele>1529.17</ele>
        <time>2020-06-22T12:28:48.000Z</time>
      </trkpt>
      <trkpt lat="45.36405" lon="6.12986">
        <ele>1532</ele>
        <time>2020-06-22T12:29:04.000Z</time>
      </trkpt>
      <trkpt lat="45.36394" lon="6.12986">
        <ele>1535.17</ele>
        <time>2020-06-22T12:29:21.000Z</time>
      </trkpt>
      <trkpt lat="45.36383" lon="6.12984">
        <ele>1538.02</ele>
        <time>2020-06-22T12:29:36.000Z</time>
      </trkpt>
      <trkpt lat="45.36371" lon="6.12981">
        <ele>1540.92</ele>
        <time>2020-06-22T12:29:50.000Z</time>
      </trkpt>
      <trkpt lat="45.3636" lon="6.12979">
        <ele>1543.72</ele>
        <time>2020-06-22T12:30:06.000Z</time>
      </trkpt>
      <trkpt lat="45.3635" lon="6.12974">
        <ele>1546.24</ele>
        <time>2020-06-22T12:30:20.000Z</time>
      </trkpt>
      <trkpt lat="45.36337" lon="6.12972">
        <ele>1549.17</ele>
        <time>2020-06-22T12:30:34.000Z</time>
      </trkpt>
      <trkpt lat="45.36325" lon="6.1297">
        <ele>1552.22</ele>
        <time>2020-06-22T12:30:47.000Z</time>
      </trkpt>
      <trkpt lat="45.36313" lon="6.12965">
        <ele>1555.69</ele>
        <time>2020-06-22T12:31:00.000Z</time>
      </trkpt>
      <trkpt lat="45.36301" lon="6.12964">
        <ele>1559.07</ele>
        <time>2020-06-22T12:31:13.000Z</time>
      </trkpt>
      <trkpt lat="45.36291" lon="6.12955">
        <ele>1561.92</ele>
        <time>2020-06-22T12:31:27.000Z</time>
      </trkpt>
      <trkpt lat="45.36302" lon="6.12956">
        <ele>1564.57</ele>
        <time>2020-06-22T12:31:40.000Z</time>
      </trkpt>
      <trkpt lat="45.36313" lon="6.12957">
        <ele>1567.67</ele>
        <time>2020-06-22T12:31:54.000Z</time>
      </trkpt>
      <trkpt lat="45.36325" lon="6.12955">
        <ele>1571.17</ele>
        <time>2020-06-22T12:32:10.000Z</time>
      </trkpt>
      <trkpt lat="45.36336" lon="6.12951">
        <ele>1574.59</ele>
        <time>2020-06-22T12:32:25.000Z</time>
      </trkpt>
      <trkpt lat="45.36345" lon="6.12938">
        <ele>1577.32</ele>
        <time>2020-06-22T12:32:38.000Z</time>
      </trkpt>
      <trkpt lat="45.36355" lon="6.12926">
        <ele>1579.57</ele>
        <time>2020-06-22T12:32:51.000Z</time>
      </trkpt>
      <trkpt lat="45.36364" lon="6.12915">
        <ele>1582.82</ele>
        <time>2020-06-22T12:33:06.000Z</time>
      </trkpt>
      <trkpt lat="45.36372" lon="6.12904">
        <ele>1585.92</ele>
        <time>2020-06-22T12:33:24.000Z</time>
      </trkpt>
      <trkpt lat="45.36381" lon="6.1289">
        <ele>1588.7</ele>
        <time>2020-06-22T12:33:40.000Z</time>
      </trkpt>
      <trkpt lat="45.3639" lon="6.12879">
        <ele>1591.05</ele>
        <time>2020-06-22T12:33:54.000Z</time>
      </trkpt>
      <trkpt lat="45.36399" lon="6.12868">
        <ele>1593.82</ele>
        <time>2020-06-22T12:34:08.000Z</time>
      </trkpt>
      <trkpt lat="45.36409" lon="6.12857">
        <ele>1596.25</ele>
        <time>2020-06-22T12:34:20.000Z</time>
      </trkpt>
      <trkpt lat="45.36418" lon="6.12843">
        <ele>1597.9</ele>
        <time>2020-06-22T12:34:33.000Z</time>
      </trkpt>
      <trkpt lat="45.36424" lon="6.12825">
        <ele>1600.05</ele>
        <time>2020-06-22T12:34:51.000Z</time>
      </trkpt>
      <trkpt lat="45.36427" lon="6.12809">
        <ele>1603.18</ele>
        <time>2020-06-22T12:35:09.000Z</time>
      </trkpt>
      <trkpt lat="45.3643" lon="6.12793">
        <ele>1605.45</ele>
        <time>2020-06-22T12:35:22.000Z</time>
      </trkpt>
      <trkpt lat="45.36427" lon="6.12776">
        <ele>1607.78</ele>
        <time>2020-06-22T12:35:36.000Z</time>
      </trkpt>
      <trkpt lat="45.3642" lon="6.12762">
        <ele>1610.13</ele>
        <time>2020-06-22T12:35:51.000Z</time>
      </trkpt>
      <trkpt lat="45.36415" lon="6.12747">
        <ele>1612.35</ele>
        <time>2020-06-22T12:36:06.000Z</time>
      </trkpt>
      <trkpt lat="45.36409" lon="6.12732">
        <ele>1614.48</ele>
        <time>2020-06-22T12:36:22.000Z</time>
      </trkpt>
      <trkpt lat="45.36403" lon="6.12718">
        <ele>1617.95</ele>
        <time>2020-06-22T12:36:37.000Z</time>
      </trkpt>
      <trkpt lat="45.36396" lon="6.12704">
        <ele>1620.65</ele>
        <time>2020-06-22T12:36:52.000Z</time>
      </trkpt>
      <trkpt lat="45.36393" lon="6.12688">
        <ele>1622.55</ele>
        <time>2020-06-22T12:37:07.000Z</time>
      </trkpt>
      <trkpt lat="45.36394" lon="6.12673">
        <ele>1624.8</ele>
        <time>2020-06-22T12:37:22.000Z</time>
      </trkpt>
      <trkpt lat="45.36394" lon="6.12657">
        <ele>1626.83</ele>
        <time>2020-06-22T12:37:36.000Z</time>
      </trkpt>
      <trkpt lat="45.36395" lon="6.1264">
        <ele>1628.7</ele>
        <time>2020-06-22T12:37:51.000Z</time>
      </trkpt>
      <trkpt lat="45.3639" lon="6.12625">
        <ele>1630.13</ele>
        <time>2020-06-22T12:38:05.000Z</time>
      </trkpt>
      <trkpt lat="45.36387" lon="6.12612">
        <ele>1631.5</ele>
        <time>2020-06-22T12:38:14.000Z</time>
      </trkpt>
      <trkpt lat="45.36386" lon="6.12598">
        <ele>1633.2</ele>
        <time>2020-06-22T12:38:23.000Z</time>
      </trkpt>
      <trkpt lat="45.36389" lon="6.12581">
        <ele>1635.93</ele>
        <time>2020-06-22T12:38:40.000Z</time>
      </trkpt>
      <trkpt lat="45.36394" lon="6.12565">
        <ele>1638.21</ele>
        <time>2020-06-22T12:38:54.000Z</time>
      </trkpt>
      <trkpt lat="45.36398" lon="6.12549">
        <ele>1640.13</ele>
        <time>2020-06-22T12:39:08.000Z</time>
      </trkpt>
      <trkpt lat="45.36399" lon="6.12535">
        <ele>1641.8</ele>
        <time>2020-06-22T12:39:15.000Z</time>
      </trkpt>
      <trkpt lat="45.36402" lon="6.12522">
        <ele>1643.72</ele>
        <time>2020-06-22T12:39:24.000Z</time>
      </trkpt>
      <trkpt lat="45.36405" lon="6.12509">
        <ele>1645.44</ele>
        <time>2020-06-22T12:39:32.000Z</time>
      </trkpt>
      <trkpt lat="45.36408" lon="6.12485">
        <ele>1647.43</ele>
        <time>2020-06-22T12:39:55.000Z</time>
      </trkpt>
      <trkpt lat="45.36409" lon="6.125">
        <ele>1649.53</ele>
        <time>2020-06-22T12:41:09.000Z</time>
      </trkpt>
      <trkpt lat="45.36404" lon="6.12478">
        <ele>1650.1</ele>
        <time>2020-06-22T12:41:14.000Z</time>
      </trkpt>
      <trkpt lat="45.36395" lon="6.12484">
        <ele>1649.21</ele>
        <time>2020-06-22T12:41:38.000Z</time>
      </trkpt>
      <trkpt lat="45.36386" lon="6.12489">
        <ele>1650.01</ele>
        <time>2020-06-22T12:42:37.000Z</time>
      </trkpt>
      <trkpt lat="45.36378" lon="6.12494">
        <ele>1650.78</ele>
        <time>2020-06-22T12:42:45.000Z</time>
      </trkpt>
      <trkpt lat="45.36362" lon="6.12507">
        <ele>1651.88</ele>
        <time>2020-06-22T12:43:02.000Z</time>
      </trkpt>
      <trkpt lat="45.36352" lon="6.12517">
        <ele>1653.03</ele>
        <time>2020-06-22T12:43:35.000Z</time>
      </trkpt>
      <trkpt lat="45.36342" lon="6.12525">
        <ele>1653.93</ele>
        <time>2020-06-22T12:43:50.000Z</time>
      </trkpt>
      <trkpt lat="45.36335" lon="6.12539">
        <ele>1654.63</ele>
        <time>2020-06-22T12:44:04.000Z</time>
      </trkpt>
      <trkpt lat="45.36331" lon="6.12557">
        <ele>1655.25</ele>
        <time>2020-06-22T12:44:18.000Z</time>
      </trkpt>
      <trkpt lat="45.36329" lon="6.12576">
        <ele>1656.03</ele>
        <time>2020-06-22T12:44:32.000Z</time>
      </trkpt>
      <trkpt lat="45.36327" lon="6.12593">
        <ele>1656.8</ele>
        <time>2020-06-22T12:44:46.000Z</time>
      </trkpt>
      <trkpt lat="45.36317" lon="6.12604">
        <ele>1657.55</ele>
        <time>2020-06-22T12:45:01.000Z</time>
      </trkpt>
      <trkpt lat="45.36308" lon="6.12616">
        <ele>1658.3</ele>
        <time>2020-06-22T12:45:15.000Z</time>
      </trkpt>
      <trkpt lat="45.36304" lon="6.12629">
        <ele>1658.94</ele>
        <time>2020-06-22T12:45:20.000Z</time>
      </trkpt>
      <trkpt lat="45.36296" lon="6.12642">
        <ele>1660.02</ele>
        <time>2020-06-22T12:45:33.000Z</time>
      </trkpt>
      <trkpt lat="45.36286" lon="6.12654">
        <ele>1661.17</ele>
        <time>2020-06-22T12:45:46.000Z</time>
      </trkpt>
      <trkpt lat="45.36276" lon="6.1267">
        <ele>1663.15</ele>
        <time>2020-06-22T12:46:01.000Z</time>
      </trkpt>
      <trkpt lat="45.36267" lon="6.12684">
        <ele>1664.6</ele>
        <time>2020-06-22T12:46:17.000Z</time>
      </trkpt>
      <trkpt lat="45.36257" lon="6.12694">
        <ele>1665.52</ele>
        <time>2020-06-22T12:46:30.000Z</time>
      </trkpt>
      <trkpt lat="45.36247" lon="6.12702">
        <ele>1665.82</ele>
        <time>2020-06-22T12:46:39.000Z</time>
      </trkpt>
      <trkpt lat="45.36239" lon="6.12714">
        <ele>1666.64</ele>
        <time>2020-06-22T12:46:54.000Z</time>
      </trkpt>
      <trkpt lat="45.36233" lon="6.12724">
        <ele>1667.55</ele>
        <time>2020-06-22T12:47:03.000Z</time>
      </trkpt>
      <trkpt lat="45.36224" lon="6.12731">
        <ele>1668.52</ele>
        <time>2020-06-22T12:47:16.000Z</time>
      </trkpt>
      <trkpt lat="45.36214" lon="6.1274">
        <ele>1669.69</ele>
        <time>2020-06-22T12:47:59.000Z</time>
      </trkpt>
      <trkpt lat="45.36202" lon="6.12743">
        <ele>1670.54</ele>
        <time>2020-06-22T12:48:11.000Z</time>
      </trkpt>
      <trkpt lat="45.3619" lon="6.12749">
        <ele>1671.24</ele>
        <time>2020-06-22T12:48:23.000Z</time>
      </trkpt>
      <trkpt lat="45.3618" lon="6.12756">
        <ele>1671.83</ele>
        <time>2020-06-22T12:48:31.000Z</time>
      </trkpt>
      <trkpt lat="45.3617" lon="6.12761">
        <ele>1671.64</ele>
        <time>2020-06-22T12:48:45.000Z</time>
      </trkpt>
      <trkpt lat="45.36156" lon="6.12763">
        <ele>1671.09</ele>
        <time>2020-06-22T12:48:54.000Z</time>
      </trkpt>
      <trkpt lat="45.36147" lon="6.12759">
        <ele>1670.46</ele>
        <time>2020-06-22T12:49:01.000Z</time>
      </trkpt>
      <trkpt lat="45.36137" lon="6.1276">
        <ele>1670.39</ele>
        <time>2020-06-22T12:49:08.000Z</time>
      </trkpt>
      <trkpt lat="45.36121" lon="6.12766">
        <ele>1673.11</ele>
        <time>2020-06-22T12:49:27.000Z</time>
      </trkpt>
      <trkpt lat="45.36108" lon="6.12768">
        <ele>1674.99</ele>
        <time>2020-06-22T12:49:41.000Z</time>
      </trkpt>
      <trkpt lat="45.36097" lon="6.12769">
        <ele>1675.81</ele>
        <time>2020-06-22T12:49:51.000Z</time>
      </trkpt>
      <trkpt lat="45.36086" lon="6.12765">
        <ele>1677.04</ele>
        <time>2020-06-22T12:50:03.000Z</time>
      </trkpt>
      <trkpt lat="45.36074" lon="6.12761">
        <ele>1677.99</ele>
        <time>2020-06-22T12:50:15.000Z</time>
      </trkpt>
      <trkpt lat="45.36061" lon="6.1276">
        <ele>1680.11</ele>
        <time>2020-06-22T12:50:45.000Z</time>
      </trkpt>
      <trkpt lat="45.3605" lon="6.12761">
        <ele>1682.01</ele>
        <time>2020-06-22T12:51:05.000Z</time>
      </trkpt>
      <trkpt lat="45.36039" lon="6.12769">
        <ele>1682.76</ele>
        <time>2020-06-22T12:51:16.000Z</time>
      </trkpt>
      <trkpt lat="45.36027" lon="6.12774">
        <ele>1683.33</ele>
        <time>2020-06-22T12:51:29.000Z</time>
      </trkpt>
      <trkpt lat="45.36016" lon="6.12782">
        <ele>1684.53</ele>
        <time>2020-06-22T12:51:54.000Z</time>
      </trkpt>
      <trkpt lat="45.36005" lon="6.12788">
        <ele>1685.11</ele>
        <time>2020-06-22T12:52:07.000Z</time>
      </trkpt>
      <trkpt lat="45.35995" lon="6.12788">
        <ele>1685.32</ele>
        <time>2020-06-22T12:52:14.000Z</time>
      </trkpt>
      <trkpt lat="45.35981" lon="6.12803">
        <ele>1685.91</ele>
        <time>2020-06-22T12:52:30.000Z</time>
      </trkpt>
      <trkpt lat="45.35975" lon="6.12824">
        <ele>1686.43</ele>
        <time>2020-06-22T12:52:47.000Z</time>
      </trkpt>
      <trkpt lat="45.35968" lon="6.12841">
        <ele>1686.88</ele>
        <time>2020-06-22T12:52:58.000Z</time>
      </trkpt>
      <trkpt lat="45.3598" lon="6.12832">
        <ele>1706.57</ele>
        <time>2020-06-22T12:53:04.000Z</time>
      </trkpt>
      <trkpt lat="45.35986" lon="6.12819">
        <ele>1702.15</ele>
        <time>2020-06-22T12:53:09.000Z</time>
      </trkpt>
      <trkpt lat="45.35974" lon="6.12823">
        <ele>1698.9</ele>
        <time>2020-06-22T12:53:19.000Z</time>
      </trkpt>
      <trkpt lat="45.35968" lon="6.12834">
        <ele>1697.06</ele>
        <time>2020-06-22T12:53:52.000Z</time>
      </trkpt>
      <trkpt lat="45.3596" lon="6.12842">
        <ele>1696.59</ele>
        <time>2020-06-22T12:53:58.000Z</time>
      </trkpt>
      <trkpt lat="45.35947" lon="6.12858">
        <ele>1695.13</ele>
        <time>2020-06-22T12:54:46.000Z</time>
      </trkpt>
      <trkpt lat="45.35942" lon="6.12868">
        <ele>1694.12</ele>
        <time>2020-06-22T12:54:57.000Z</time>
      </trkpt>
      <trkpt lat="45.35935" lon="6.12878">
        <ele>1692.12</ele>
        <time>2020-06-22T12:55:06.000Z</time>
      </trkpt>
      <trkpt lat="45.35927" lon="6.12884">
        <ele>1689.89</ele>
        <time>2020-06-22T12:55:18.000Z</time>
      </trkpt>
      <trkpt lat="45.35919" lon="6.12894">
        <ele>1688.4</ele>
        <time>2020-06-22T12:55:26.000Z</time>
      </trkpt>
      <trkpt lat="45.35911" lon="6.12903">
        <ele>1687.18</ele>
        <time>2020-06-22T12:55:35.000Z</time>
      </trkpt>
      <trkpt lat="45.35904" lon="6.12918">
        <ele>1686.57</ele>
        <time>2020-06-22T12:55:46.000Z</time>
      </trkpt>
      <trkpt lat="45.35899" lon="6.1293">
        <ele>1684.41</ele>
        <time>2020-06-22T12:55:56.000Z</time>
      </trkpt>
      <trkpt lat="45.35897" lon="6.12947">
        <ele>1683.12</ele>
        <time>2020-06-22T12:56:06.000Z</time>
      </trkpt>
      <trkpt lat="45.35893" lon="6.1296">
        <ele>1682.46</ele>
        <time>2020-06-22T12:56:14.000Z</time>
      </trkpt>
      <trkpt lat="45.35891" lon="6.12975">
        <ele>1681.7</ele>
        <time>2020-06-22T12:56:21.000Z</time>
      </trkpt>
      <trkpt lat="45.35885" lon="6.12986">
        <ele>1680.96</ele>
        <time>2020-06-22T12:56:29.000Z</time>
      </trkpt>
      <trkpt lat="45.35878" lon="6.12995">
        <ele>1681.98</ele>
        <time>2020-06-22T12:56:38.000Z</time>
      </trkpt>
      <trkpt lat="45.35871" lon="6.13005">
        <ele>1680.14</ele>
        <time>2020-06-22T12:56:48.000Z</time>
      </trkpt>
      <trkpt lat="45.35863" lon="6.13012">
        <ele>1678.86</ele>
        <time>2020-06-22T12:56:56.000Z</time>
      </trkpt>
      <trkpt lat="45.35853" lon="6.13017">
        <ele>1677.75</ele>
        <time>2020-06-22T12:57:04.000Z</time>
      </trkpt>
      <trkpt lat="45.35848" lon="6.13028">
        <ele>1677.16</ele>
        <time>2020-06-22T12:57:13.000Z</time>
      </trkpt>
      <trkpt lat="45.3584" lon="6.1304">
        <ele>1677.24</ele>
        <time>2020-06-22T12:57:28.000Z</time>
      </trkpt>
      <trkpt lat="45.35831" lon="6.13051">
        <ele>1677.14</ele>
        <time>2020-06-22T12:57:43.000Z</time>
      </trkpt>
      <trkpt lat="45.35825" lon="6.1306">
        <ele>1677.64</ele>
        <time>2020-06-22T12:57:51.000Z</time>
      </trkpt>
      <trkpt lat="45.35826" lon="6.13078">
        <ele>1678.62</ele>
        <time>2020-06-22T12:58:14.000Z</time>
      </trkpt>
      <trkpt lat="45.35822" lon="6.13066">
        <ele>1680.29</ele>
        <time>2020-06-22T12:58:41.000Z</time>
      </trkpt>
      <trkpt lat="45.35818" lon="6.13098">
        <ele>1682.76</ele>
        <time>2020-06-22T12:59:40.000Z</time>
      </trkpt>
      <trkpt lat="45.35818" lon="6.13081">
        <ele>1699.97</ele>
        <time>2020-06-22T12:59:45.000Z</time>
      </trkpt>
      <trkpt lat="45.3581" lon="6.13069">
        <ele>1690.79</ele>
        <time>2020-06-22T13:09:51.000Z</time>
      </trkpt>
      <trkpt lat="45.35801" lon="6.13068">
        <ele>1688.06</ele>
        <time>2020-06-22T13:10:00.000Z</time>
      </trkpt>
      <trkpt lat="45.35792" lon="6.13067">
        <ele>1683.83</ele>
        <time>2020-06-22T13:10:08.000Z</time>
      </trkpt>
      <trkpt lat="45.35781" lon="6.13068">
        <ele>1679.41</ele>
        <time>2020-06-22T13:10:21.000Z</time>
      </trkpt>
      <trkpt lat="45.35771" lon="6.13068">
        <ele>1675.2</ele>
        <time>2020-06-22T13:10:29.000Z</time>
      </trkpt>
      <trkpt lat="45.35761" lon="6.13071">
        <ele>1673.87</ele>
        <time>2020-06-22T13:10:37.000Z</time>
      </trkpt>
      <trkpt lat="45.35752" lon="6.13074">
        <ele>1671.59</ele>
        <time>2020-06-22T13:10:46.000Z</time>
      </trkpt>
      <trkpt lat="45.35746" lon="6.13085">
        <ele>1668.93</ele>
        <time>2020-06-22T13:10:55.000Z</time>
      </trkpt>
      <trkpt lat="45.35738" lon="6.13093">
        <ele>1667.13</ele>
        <time>2020-06-22T13:11:03.000Z</time>
      </trkpt>
      <trkpt lat="45.3573" lon="6.13099">
        <ele>1668.8</ele>
        <time>2020-06-22T13:11:08.000Z</time>
      </trkpt>
      <trkpt lat="45.35724" lon="6.1311">
        <ele>1669.99</ele>
        <time>2020-06-22T13:11:17.000Z</time>
      </trkpt>
      <trkpt lat="45.35715" lon="6.13114">
        <ele>1672.57</ele>
        <time>2020-06-22T13:11:25.000Z</time>
      </trkpt>
      <trkpt lat="45.35707" lon="6.13121">
        <ele>1674.11</ele>
        <time>2020-06-22T13:11:34.000Z</time>
      </trkpt>
      <trkpt lat="45.35698" lon="6.13128">
        <ele>1675.46</ele>
        <time>2020-06-22T13:11:46.000Z</time>
      </trkpt>
      <trkpt lat="45.35691" lon="6.13137">
        <ele>1674</ele>
        <time>2020-06-22T13:11:55.000Z</time>
      </trkpt>
      <trkpt lat="45.35684" lon="6.13147">
        <ele>1671.89</ele>
        <time>2020-06-22T13:12:03.000Z</time>
      </trkpt>
      <trkpt lat="45.35676" lon="6.13155">
        <ele>1670.09</ele>
        <time>2020-06-22T13:12:11.000Z</time>
      </trkpt>
      <trkpt lat="45.35662" lon="6.13167">
        <ele>1669.4</ele>
        <time>2020-06-22T13:12:43.000Z</time>
      </trkpt>
      <trkpt lat="45.35651" lon="6.13171">
        <ele>1670.9</ele>
        <time>2020-06-22T13:12:57.000Z</time>
      </trkpt>
      <trkpt lat="45.35642" lon="6.13174">
        <ele>1671.9</ele>
        <time>2020-06-22T13:13:05.000Z</time>
      </trkpt>
      <trkpt lat="45.3563" lon="6.13175">
        <ele>1673.13</ele>
        <time>2020-06-22T13:13:16.000Z</time>
      </trkpt>
      <trkpt lat="45.3562" lon="6.13182">
        <ele>1674.13</ele>
        <time>2020-06-22T13:13:30.000Z</time>
      </trkpt>
      <trkpt lat="45.35608" lon="6.13182">
        <ele>1675.28</ele>
        <time>2020-06-22T13:13:45.000Z</time>
      </trkpt>
      <trkpt lat="45.35596" lon="6.13186">
        <ele>1676.08</ele>
        <time>2020-06-22T13:13:59.000Z</time>
      </trkpt>
      <trkpt lat="45.35584" lon="6.13188">
        <ele>1676.3</ele>
        <time>2020-06-22T13:14:11.000Z</time>
      </trkpt>
      <trkpt lat="45.3557" lon="6.13182">
        <ele>1676.28</ele>
        <time>2020-06-22T13:14:24.000Z</time>
      </trkpt>
      <trkpt lat="45.35561" lon="6.13175">
        <ele>1675.96</ele>
        <time>2020-06-22T13:14:30.000Z</time>
      </trkpt>
      <trkpt lat="45.35547" lon="6.13161">
        <ele>1676.07</ele>
        <time>2020-06-22T13:14:43.000Z</time>
      </trkpt>
      <trkpt lat="45.35539" lon="6.13154">
        <ele>1675.43</ele>
        <time>2020-06-22T13:14:50.000Z</time>
      </trkpt>
      <trkpt lat="45.35531" lon="6.13149">
        <ele>1675.1</ele>
        <time>2020-06-22T13:14:57.000Z</time>
      </trkpt>
      <trkpt lat="45.35517" lon="6.13137">
        <ele>1675</ele>
        <time>2020-06-22T13:15:09.000Z</time>
      </trkpt>
      <trkpt lat="45.35505" lon="6.1313">
        <ele>1674.9</ele>
        <time>2020-06-22T13:15:25.000Z</time>
      </trkpt>
      <trkpt lat="45.35494" lon="6.13122">
        <ele>1674.12</ele>
        <time>2020-06-22T13:15:36.000Z</time>
      </trkpt>
      <trkpt lat="45.35483" lon="6.13117">
        <ele>1673.15</ele>
        <time>2020-06-22T13:15:50.000Z</time>
      </trkpt>
      <trkpt lat="45.35471" lon="6.13116">
        <ele>1672.17</ele>
        <time>2020-06-22T13:16:00.000Z</time>
      </trkpt>
      <trkpt lat="45.35462" lon="6.1311">
        <ele>1672.97</ele>
        <time>2020-06-22T13:16:05.000Z</time>
      </trkpt>
      <trkpt lat="45.35451" lon="6.13108">
        <ele>1672.32</ele>
        <time>2020-06-22T13:16:19.000Z</time>
      </trkpt>
      <trkpt lat="45.3544" lon="6.13101">
        <ele>1670.42</ele>
        <time>2020-06-22T13:16:33.000Z</time>
      </trkpt>
      <trkpt lat="45.35428" lon="6.131">
        <ele>1669.7</ele>
        <time>2020-06-22T13:16:44.000Z</time>
      </trkpt>
      <trkpt lat="45.35417" lon="6.13095">
        <ele>1668.77</ele>
        <time>2020-06-22T13:17:00.000Z</time>
      </trkpt>
      <trkpt lat="45.35406" lon="6.13087">
        <ele>1667.62</ele>
        <time>2020-06-22T13:17:13.000Z</time>
      </trkpt>
      <trkpt lat="45.35394" lon="6.13076">
        <ele>1666.84</ele>
        <time>2020-06-22T13:17:25.000Z</time>
      </trkpt>
      <trkpt lat="45.35385" lon="6.13064">
        <ele>1666.87</ele>
        <time>2020-06-22T13:18:02.000Z</time>
      </trkpt>
      <trkpt lat="45.35374" lon="6.13058">
        <ele>1666.04</ele>
        <time>2020-06-22T13:18:17.000Z</time>
      </trkpt>
      <trkpt lat="45.35366" lon="6.13049">
        <ele>1664.97</ele>
        <time>2020-06-22T13:18:29.000Z</time>
      </trkpt>
      <trkpt lat="45.35351" lon="6.13046">
        <ele>1664.22</ele>
        <time>2020-06-22T13:18:41.000Z</time>
      </trkpt>
      <trkpt lat="45.3534" lon="6.1304">
        <ele>1665.06</ele>
        <time>2020-06-22T13:18:46.000Z</time>
      </trkpt>
      <trkpt lat="45.35326" lon="6.13035">
        <ele>1667.12</ele>
        <time>2020-06-22T13:18:59.000Z</time>
      </trkpt>
      <trkpt lat="45.35314" lon="6.13032">
        <ele>1668.04</ele>
        <time>2020-06-22T13:19:06.000Z</time>
      </trkpt>
      <trkpt lat="45.35304" lon="6.13028">
        <ele>1670.62</ele>
        <time>2020-06-22T13:19:11.000Z</time>
      </trkpt>
      <trkpt lat="45.35291" lon="6.13028">
        <ele>1674.14</ele>
        <time>2020-06-22T13:19:29.000Z</time>
      </trkpt>
      <trkpt lat="45.35278" lon="6.13025">
        <ele>1677.22</ele>
        <time>2020-06-22T13:19:40.000Z</time>
      </trkpt>
      <trkpt lat="45.35268" lon="6.13026">
        <ele>1678.44</ele>
        <time>2020-06-22T13:19:51.000Z</time>
      </trkpt>
      <trkpt lat="45.35254" lon="6.13031">
        <ele>1678.66</ele>
        <time>2020-06-22T13:20:07.000Z</time>
      </trkpt>
      <trkpt lat="45.35242" lon="6.13038">
        <ele>1679.14</ele>
        <time>2020-06-22T13:20:18.000Z</time>
      </trkpt>
      <trkpt lat="45.35235" lon="6.13046">
        <ele>1680.23</ele>
        <time>2020-06-22T13:20:23.000Z</time>
      </trkpt>
      <trkpt lat="45.35223" lon="6.13054">
        <ele>1680.19</ele>
        <time>2020-06-22T13:20:42.000Z</time>
      </trkpt>
      <trkpt lat="45.35214" lon="6.13058">
        <ele>1680.01</ele>
        <time>2020-06-22T13:20:51.000Z</time>
      </trkpt>
      <trkpt lat="45.35205" lon="6.13061">
        <ele>1679.94</ele>
        <time>2020-06-22T13:20:58.000Z</time>
      </trkpt>
      <trkpt lat="45.35193" lon="6.1307">
        <ele>1679.56</ele>
        <time>2020-06-22T13:21:12.000Z</time>
      </trkpt>
      <trkpt lat="45.35182" lon="6.13078">
        <ele>1678.13</ele>
        <time>2020-06-22T13:21:33.000Z</time>
      </trkpt>
      <trkpt lat="45.35171" lon="6.13084">
        <ele>1675.96</ele>
        <time>2020-06-22T13:21:43.000Z</time>
      </trkpt>
      <trkpt lat="45.35159" lon="6.13091">
        <ele>1674.33</ele>
        <time>2020-06-22T13:22:05.000Z</time>
      </trkpt>
      <trkpt lat="45.3515" lon="6.13094">
        <ele>1673.64</ele>
        <time>2020-06-22T13:22:11.000Z</time>
      </trkpt>
      <trkpt lat="45.3514" lon="6.13103">
        <ele>1673.24</ele>
        <time>2020-06-22T13:22:20.000Z</time>
      </trkpt>
      <trkpt lat="45.35128" lon="6.13109">
        <ele>1672.81</ele>
        <time>2020-06-22T13:22:33.000Z</time>
      </trkpt>
      <trkpt lat="45.35116" lon="6.13113">
        <ele>1672.16</ele>
        <time>2020-06-22T13:22:45.000Z</time>
      </trkpt>
      <trkpt lat="45.35104" lon="6.13115">
        <ele>1671.06</ele>
        <time>2020-06-22T13:22:58.000Z</time>
      </trkpt>
      <trkpt lat="45.35095" lon="6.13119">
        <ele>1669.37</ele>
        <time>2020-06-22T13:23:05.000Z</time>
      </trkpt>
      <trkpt lat="45.35086" lon="6.13126">
        <ele>1668.55</ele>
        <time>2020-06-22T13:23:14.000Z</time>
      </trkpt>
      <trkpt lat="45.35077" lon="6.13136">
        <ele>1667.2</ele>
        <time>2020-06-22T13:23:24.000Z</time>
      </trkpt>
      <trkpt lat="45.35068" lon="6.1315">
        <ele>1665.08</ele>
        <time>2020-06-22T13:23:36.000Z</time>
      </trkpt>
      <trkpt lat="45.35062" lon="6.13159">
        <ele>1664.04</ele>
        <time>2020-06-22T13:24:03.000Z</time>
      </trkpt>
      <trkpt lat="45.35051" lon="6.13164">
        <ele>1663.38</ele>
        <time>2020-06-22T13:24:14.000Z</time>
      </trkpt>
      <trkpt lat="45.35039" lon="6.13166">
        <ele>1662.55</ele>
        <time>2020-06-22T13:24:28.000Z</time>
      </trkpt>
      <trkpt lat="45.35029" lon="6.13168">
        <ele>1661.53</ele>
        <time>2020-06-22T13:24:41.000Z</time>
      </trkpt>
      <trkpt lat="45.35019" lon="6.13175">
        <ele>1660</ele>
        <time>2020-06-22T13:24:56.000Z</time>
      </trkpt>
      <trkpt lat="45.35012" lon="6.13188">
        <ele>1657.75</ele>
        <time>2020-06-22T13:25:11.000Z</time>
      </trkpt>
      <trkpt lat="45.35" lon="6.1319">
        <ele>1655.57</ele>
        <time>2020-06-22T13:25:30.000Z</time>
      </trkpt>
      <trkpt lat="45.3499" lon="6.1319">
        <ele>1654.42</ele>
        <time>2020-06-22T13:25:46.000Z</time>
      </trkpt>
      <trkpt lat="45.34978" lon="6.13191">
        <ele>1653.1</ele>
        <time>2020-06-22T13:26:01.000Z</time>
      </trkpt>
      <trkpt lat="45.34966" lon="6.1319">
        <ele>1650.8</ele>
        <time>2020-06-22T13:26:15.000Z</time>
      </trkpt>
      <trkpt lat="45.34949" lon="6.13184">
        <ele>1644.65</ele>
        <time>2020-06-22T13:26:36.000Z</time>
      </trkpt>
      <trkpt lat="45.34939" lon="6.13176">
        <ele>1641.02</ele>
        <time>2020-06-22T13:26:57.000Z</time>
      </trkpt>
      <trkpt lat="45.34929" lon="6.13175">
        <ele>1637.96</ele>
        <time>2020-06-22T13:27:05.000Z</time>
      </trkpt>
      <trkpt lat="45.34917" lon="6.13176">
        <ele>1634.44</ele>
        <time>2020-06-22T13:27:21.000Z</time>
      </trkpt>
      <trkpt lat="45.34905" lon="6.13182">
        <ele>1631.54</ele>
        <time>2020-06-22T13:27:34.000Z</time>
      </trkpt>
      <trkpt lat="45.34896" lon="6.13185">
        <ele>1628.91</ele>
        <time>2020-06-22T13:27:41.000Z</time>
      </trkpt>
      <trkpt lat="45.34883" lon="6.13193">
        <ele>1625.27</ele>
        <time>2020-06-22T13:27:58.000Z</time>
      </trkpt>
      <trkpt lat="45.34874" lon="6.13197">
        <ele>1623.72</ele>
        <time>2020-06-22T13:28:08.000Z</time>
      </trkpt>
      <trkpt lat="45.34863" lon="6.13207">
        <ele>1621.92</ele>
        <time>2020-06-22T13:28:20.000Z</time>
      </trkpt>
      <trkpt lat="45.34857" lon="6.13217">
        <ele>1620.03</ele>
        <time>2020-06-22T13:28:28.000Z</time>
      </trkpt>
      <trkpt lat="45.34849" lon="6.13224">
        <ele>1618.13</ele>
        <time>2020-06-22T13:28:36.000Z</time>
      </trkpt>
      <trkpt lat="45.3484" lon="6.1323">
        <ele>1616.27</ele>
        <time>2020-06-22T13:28:43.000Z</time>
      </trkpt>
      <trkpt lat="45.34831" lon="6.13236">
        <ele>1613.44</ele>
        <time>2020-06-22T13:28:52.000Z</time>
      </trkpt>
      <trkpt lat="45.34818" lon="6.13237">
        <ele>1611.59</ele>
        <time>2020-06-22T13:29:05.000Z</time>
      </trkpt>
      <trkpt lat="45.34802" lon="6.1324">
        <ele>1609.76</ele>
        <time>2020-06-22T13:29:23.000Z</time>
      </trkpt>
      <trkpt lat="45.3479" lon="6.13246">
        <ele>1608.46</ele>
        <time>2020-06-22T13:29:36.000Z</time>
      </trkpt>
      <trkpt lat="45.34779" lon="6.13253">
        <ele>1607.24</ele>
        <time>2020-06-22T13:29:49.000Z</time>
      </trkpt>
      <trkpt lat="45.34767" lon="6.13258">
        <ele>1606.11</ele>
        <time>2020-06-22T13:30:00.000Z</time>
      </trkpt>
      <trkpt lat="45.34755" lon="6.13264">
        <ele>1604.83</ele>
        <time>2020-06-22T13:30:11.000Z</time>
      </trkpt>
      <trkpt lat="45.34743" lon="6.13266">
        <ele>1603.53</ele>
        <time>2020-06-22T13:30:22.000Z</time>
      </trkpt>
      <trkpt lat="45.34729" lon="6.13271">
        <ele>1602.71</ele>
        <time>2020-06-22T13:30:34.000Z</time>
      </trkpt>
      <trkpt lat="45.34717" lon="6.13278">
        <ele>1602.03</ele>
        <time>2020-06-22T13:30:46.000Z</time>
      </trkpt>
      <trkpt lat="45.34705" lon="6.13282">
        <ele>1601.13</ele>
        <time>2020-06-22T13:30:58.000Z</time>
      </trkpt>
      <trkpt lat="45.34693" lon="6.13286">
        <ele>1599.78</ele>
        <time>2020-06-22T13:31:13.000Z</time>
      </trkpt>
      <trkpt lat="45.34682" lon="6.13284">
        <ele>1598.66</ele>
        <time>2020-06-22T13:31:28.000Z</time>
      </trkpt>
      <trkpt lat="45.3467" lon="6.13282">
        <ele>1597.78</ele>
        <time>2020-06-22T13:31:41.000Z</time>
      </trkpt>
      <trkpt lat="45.34657" lon="6.1328">
        <ele>1597.33</ele>
        <time>2020-06-22T13:31:55.000Z</time>
      </trkpt>
      <trkpt lat="45.34644" lon="6.13278">
        <ele>1596.88</ele>
        <time>2020-06-22T13:32:07.000Z</time>
      </trkpt>
      <trkpt lat="45.34632" lon="6.13274">
        <ele>1596.2</ele>
        <time>2020-06-22T13:32:18.000Z</time>
      </trkpt>
      <trkpt lat="45.3462" lon="6.1327">
        <ele>1595.23</ele>
        <time>2020-06-22T13:32:32.000Z</time>
      </trkpt>
      <trkpt lat="45.34606" lon="6.13268">
        <ele>1593.98</ele>
        <time>2020-06-22T13:32:44.000Z</time>
      </trkpt>
      <trkpt lat="45.34594" lon="6.13263">
        <ele>1593.2</ele>
        <time>2020-06-22T13:32:57.000Z</time>
      </trkpt>
      <trkpt lat="45.34582" lon="6.13259">
        <ele>1591.83</ele>
        <time>2020-06-22T13:33:09.000Z</time>
      </trkpt>
      <trkpt lat="45.3457" lon="6.13255">
        <ele>1590.2</ele>
        <time>2020-06-22T13:33:21.000Z</time>
      </trkpt>
      <trkpt lat="45.34556" lon="6.13252">
        <ele>1588.75</ele>
        <time>2020-06-22T13:33:31.000Z</time>
      </trkpt>
      <trkpt lat="45.34538" lon="6.13245">
        <ele>1584.95</ele>
        <time>2020-06-22T13:33:49.000Z</time>
      </trkpt>
      <trkpt lat="45.34527" lon="6.13239">
        <ele>1582.6</ele>
        <time>2020-06-22T13:34:01.000Z</time>
      </trkpt>
      <trkpt lat="45.34516" lon="6.13232">
        <ele>1579.07</ele>
        <time>2020-06-22T13:34:16.000Z</time>
      </trkpt>
      <trkpt lat="45.34503" lon="6.13231">
        <ele>1575.1</ele>
        <time>2020-06-22T13:34:30.000Z</time>
      </trkpt>
      <trkpt lat="45.34492" lon="6.13227">
        <ele>1571.55</ele>
        <time>2020-06-22T13:34:44.000Z</time>
      </trkpt>
      <trkpt lat="45.34482" lon="6.13218">
        <ele>1567.52</ele>
        <time>2020-06-22T13:34:57.000Z</time>
      </trkpt>
      <trkpt lat="45.34471" lon="6.13211">
        <ele>1563.9</ele>
        <time>2020-06-22T13:35:09.000Z</time>
      </trkpt>
      <trkpt lat="45.34461" lon="6.13202">
        <ele>1560.67</ele>
        <time>2020-06-22T13:35:20.000Z</time>
      </trkpt>
      <trkpt lat="45.34449" lon="6.13194">
        <ele>1556.92</ele>
        <time>2020-06-22T13:35:32.000Z</time>
      </trkpt>
      <trkpt lat="45.3444" lon="6.13192">
        <ele>1553.02</ele>
        <time>2020-06-22T13:35:38.000Z</time>
      </trkpt>
      <trkpt lat="45.34432" lon="6.13189">
        <ele>1548.69</ele>
        <time>2020-06-22T13:35:45.000Z</time>
      </trkpt>
      <trkpt lat="45.34422" lon="6.13187">
        <ele>1544.45</ele>
        <time>2020-06-22T13:35:52.000Z</time>
      </trkpt>
      <trkpt lat="45.34404" lon="6.13187">
        <ele>1537.67</ele>
        <time>2020-06-22T13:36:14.000Z</time>
      </trkpt>
      <trkpt lat="45.34396" lon="6.13182">
        <ele>1529.89</ele>
        <time>2020-06-22T13:36:31.000Z</time>
      </trkpt>
      <trkpt lat="45.34382" lon="6.13177">
        <ele>1525.79</ele>
        <time>2020-06-22T13:36:48.000Z</time>
      </trkpt>
    </trkseg>
  </trk>
</gpx>